<?xml version="1.0" encoding="UTF-8" standalone="no" ?>
<gpx xmlns="http://www.topografix.com/GPX/1/1" xmlns:xsi="http://www.w3.org/2001/XMLSchema-instance" xsi:schemaLocation="http://www.topografix.com/GPX/1/1 http://www.topografix.com/GPX/1/1/gpx.xsd" version="1.1" creator="VisuGPX - https://www.visugpx.com">
  <metadata>
    <name>Chevreuse - route des châteaux</name>
    <desc><![CDATA[Randonnée de 20 km en boucle à partir du parking de l\'église de Chevreuse]]></desc>
  </metadata>
  <trk>
    <name><![CDATA[Chevreuse route des chateaux_R2]]></name>
    <trkseg>
      <trkpt lat="48.70801" lon="2.03952">
        <ele>93.39</ele>
        <time>2015-09-27T07:52:32Z</time>
      </trkpt>
      <trkpt lat="48.708" lon="2.03953">
        <ele>93.39</ele>
        <time>2015-09-27T07:52:33Z</time>
      </trkpt>
      <trkpt lat="48.70792" lon="2.03957">
        <ele>92.42</ele>
        <time>2015-09-27T07:52:40Z</time>
      </trkpt>
      <trkpt lat="48.70786" lon="2.03961">
        <ele>91.94</ele>
        <time>2015-09-27T07:52:47Z</time>
      </trkpt>
      <trkpt lat="48.70773" lon="2.03967">
        <ele>90.5</ele>
        <time>2015-09-27T07:53:01Z</time>
      </trkpt>
      <trkpt lat="48.70762" lon="2.03972">
        <ele>89.54</ele>
        <time>2015-09-27T07:53:14Z</time>
      </trkpt>
      <trkpt lat="48.70751" lon="2.03969">
        <ele>89.54</ele>
        <time>2015-09-27T07:53:28Z</time>
      </trkpt>
      <trkpt lat="48.70752" lon="2.0395">
        <ele>88.58</ele>
        <time>2015-09-27T07:53:40Z</time>
      </trkpt>
      <trkpt lat="48.70737" lon="2.03946">
        <ele>87.62</ele>
        <time>2015-09-27T07:53:55Z</time>
      </trkpt>
      <trkpt lat="48.70734" lon="2.0395">
        <ele>87.14</ele>
        <time>2015-09-27T07:53:59Z</time>
      </trkpt>
      <trkpt lat="48.70712" lon="2.03964">
        <ele>86.18</ele>
        <time>2015-09-27T07:54:16Z</time>
      </trkpt>
      <trkpt lat="48.70696" lon="2.0397">
        <ele>86.18</ele>
        <time>2015-09-27T07:54:27Z</time>
      </trkpt>
      <trkpt lat="48.70676" lon="2.03974">
        <ele>83.77</ele>
        <time>2015-09-27T07:54:43Z</time>
      </trkpt>
      <trkpt lat="48.70667" lon="2.0398">
        <ele>83.77</ele>
        <time>2015-09-27T07:54:53Z</time>
      </trkpt>
      <trkpt lat="48.70664" lon="2.03978">
        <ele>83.77</ele>
        <time>2015-09-27T07:55:09Z</time>
      </trkpt>
      <trkpt lat="48.70665" lon="2.03979">
        <ele>83.77</ele>
        <time>2015-09-27T07:55:27Z</time>
      </trkpt>
      <trkpt lat="48.70656" lon="2.03964">
        <ele>83.29</ele>
        <time>2015-09-27T07:55:39Z</time>
      </trkpt>
      <trkpt lat="48.70652" lon="2.0396">
        <ele>83.77</ele>
        <time>2015-09-27T07:55:48Z</time>
      </trkpt>
      <trkpt lat="48.70642" lon="2.03945">
        <ele>83.77</ele>
        <time>2015-09-27T07:56:04Z</time>
      </trkpt>
      <trkpt lat="48.7064" lon="2.03943">
        <ele>83.77</ele>
        <time>2015-09-27T07:56:07Z</time>
      </trkpt>
      <trkpt lat="48.70624" lon="2.03919">
        <ele>83.29</ele>
        <time>2015-09-27T07:56:24Z</time>
      </trkpt>
      <trkpt lat="48.70608" lon="2.03901">
        <ele>83.77</ele>
        <time>2015-09-27T07:56:41Z</time>
      </trkpt>
      <trkpt lat="48.70596" lon="2.03891">
        <ele>83.29</ele>
        <time>2015-09-27T07:56:53Z</time>
      </trkpt>
      <trkpt lat="48.70582" lon="2.03875">
        <ele>83.77</ele>
        <time>2015-09-27T07:57:09Z</time>
      </trkpt>
      <trkpt lat="48.70566" lon="2.03849">
        <ele>83.77</ele>
        <time>2015-09-27T07:57:27Z</time>
      </trkpt>
      <trkpt lat="48.70556" lon="2.03837">
        <ele>84.25</ele>
        <time>2015-09-27T07:57:36Z</time>
      </trkpt>
      <trkpt lat="48.70546" lon="2.03819">
        <ele>83.77</ele>
        <time>2015-09-27T07:57:50Z</time>
      </trkpt>
      <trkpt lat="48.70546" lon="2.03814">
        <ele>83.29</ele>
        <time>2015-09-27T07:57:55Z</time>
      </trkpt>
      <trkpt lat="48.70545" lon="2.03799">
        <ele>83.77</ele>
        <time>2015-09-27T07:58:04Z</time>
      </trkpt>
      <trkpt lat="48.70544" lon="2.0378">
        <ele>83.77</ele>
        <time>2015-09-27T07:58:16Z</time>
      </trkpt>
      <trkpt lat="48.70539" lon="2.03765">
        <ele>83.77</ele>
        <time>2015-09-27T07:58:30Z</time>
      </trkpt>
      <trkpt lat="48.70537" lon="2.03768">
        <ele>84.25</ele>
        <time>2015-09-27T07:58:34Z</time>
      </trkpt>
      <trkpt lat="48.70519" lon="2.03768">
        <ele>84.73</ele>
        <time>2015-09-27T07:58:48Z</time>
      </trkpt>
      <trkpt lat="48.70498" lon="2.0377">
        <ele>84.73</ele>
        <time>2015-09-27T07:59:05Z</time>
      </trkpt>
      <trkpt lat="48.70493" lon="2.03773">
        <ele>84.73</ele>
        <time>2015-09-27T07:59:09Z</time>
      </trkpt>
      <trkpt lat="48.70483" lon="2.03767">
        <ele>85.21</ele>
        <time>2015-09-27T07:59:21Z</time>
      </trkpt>
      <trkpt lat="48.70464" lon="2.03777">
        <ele>85.69</ele>
        <time>2015-09-27T07:59:36Z</time>
      </trkpt>
      <trkpt lat="48.70457" lon="2.03789">
        <ele>85.69</ele>
        <time>2015-09-27T07:59:46Z</time>
      </trkpt>
      <trkpt lat="48.70457" lon="2.0382">
        <ele>86.18</ele>
        <time>2015-09-27T08:00:04Z</time>
      </trkpt>
      <trkpt lat="48.70457" lon="2.03843">
        <ele>86.18</ele>
        <time>2015-09-27T08:00:17Z</time>
      </trkpt>
      <trkpt lat="48.70456" lon="2.03863">
        <ele>86.18</ele>
        <time>2015-09-27T08:00:29Z</time>
      </trkpt>
      <trkpt lat="48.70453" lon="2.03881">
        <ele>86.66</ele>
        <time>2015-09-27T08:00:39Z</time>
      </trkpt>
      <trkpt lat="48.70454" lon="2.03896">
        <ele>86.66</ele>
        <time>2015-09-27T08:00:50Z</time>
      </trkpt>
      <trkpt lat="48.7045" lon="2.039">
        <ele>86.66</ele>
        <time>2015-09-27T08:01:08Z</time>
      </trkpt>
      <trkpt lat="48.70452" lon="2.03898">
        <ele>86.18</ele>
        <time>2015-09-27T08:01:30Z</time>
      </trkpt>
      <trkpt lat="48.7045" lon="2.03897">
        <ele>86.66</ele>
        <time>2015-09-27T08:01:32Z</time>
      </trkpt>
      <trkpt lat="48.7045" lon="2.03904">
        <ele>86.18</ele>
        <time>2015-09-27T08:01:36Z</time>
      </trkpt>
      <trkpt lat="48.70447" lon="2.03916">
        <ele>86.66</ele>
        <time>2015-09-27T08:01:43Z</time>
      </trkpt>
      <trkpt lat="48.70447" lon="2.03922">
        <ele>86.66</ele>
        <time>2015-09-27T08:01:47Z</time>
      </trkpt>
      <trkpt lat="48.70442" lon="2.03935">
        <ele>87.14</ele>
        <time>2015-09-27T08:02:01Z</time>
      </trkpt>
      <trkpt lat="48.70446" lon="2.03939">
        <ele>86.66</ele>
        <time>2015-09-27T08:02:24Z</time>
      </trkpt>
      <trkpt lat="48.70443" lon="2.03937">
        <ele>86.66</ele>
        <time>2015-09-27T08:02:49Z</time>
      </trkpt>
      <trkpt lat="48.70443" lon="2.03936">
        <ele>86.66</ele>
        <time>2015-09-27T08:02:51Z</time>
      </trkpt>
      <trkpt lat="48.7044" lon="2.03936">
        <ele>86.66</ele>
        <time>2015-09-27T08:03:04Z</time>
      </trkpt>
      <trkpt lat="48.70437" lon="2.03936">
        <ele>86.66</ele>
        <time>2015-09-27T08:03:07Z</time>
      </trkpt>
      <trkpt lat="48.70432" lon="2.0394">
        <ele>87.14</ele>
        <time>2015-09-27T08:03:12Z</time>
      </trkpt>
      <trkpt lat="48.70423" lon="2.0394">
        <ele>87.14</ele>
        <time>2015-09-27T08:03:19Z</time>
      </trkpt>
      <trkpt lat="48.70408" lon="2.03944">
        <ele>87.62</ele>
        <time>2015-09-27T08:03:32Z</time>
      </trkpt>
      <trkpt lat="48.70393" lon="2.03948">
        <ele>88.58</ele>
        <time>2015-09-27T08:03:45Z</time>
      </trkpt>
      <trkpt lat="48.70379" lon="2.03949">
        <ele>89.06</ele>
        <time>2015-09-27T08:04:00Z</time>
      </trkpt>
      <trkpt lat="48.70376" lon="2.0395">
        <ele>89.54</ele>
        <time>2015-09-27T08:04:03Z</time>
      </trkpt>
      <trkpt lat="48.7036" lon="2.03956">
        <ele>90.5</ele>
        <time>2015-09-27T08:04:17Z</time>
      </trkpt>
      <trkpt lat="48.70352" lon="2.03966">
        <ele>91.46</ele>
        <time>2015-09-27T08:04:29Z</time>
      </trkpt>
      <trkpt lat="48.70341" lon="2.03978">
        <ele>92.42</ele>
        <time>2015-09-27T08:04:42Z</time>
      </trkpt>
      <trkpt lat="48.70329" lon="2.03992">
        <ele>94.35</ele>
        <time>2015-09-27T08:04:57Z</time>
      </trkpt>
      <trkpt lat="48.70317" lon="2.04002">
        <ele>95.79</ele>
        <time>2015-09-27T08:05:11Z</time>
      </trkpt>
      <trkpt lat="48.70309" lon="2.04009">
        <ele>96.75</ele>
        <time>2015-09-27T08:05:23Z</time>
      </trkpt>
      <trkpt lat="48.70293" lon="2.04019">
        <ele>97.71</ele>
        <time>2015-09-27T08:05:39Z</time>
      </trkpt>
      <trkpt lat="48.70278" lon="2.04027">
        <ele>98.67</ele>
        <time>2015-09-27T08:05:53Z</time>
      </trkpt>
      <trkpt lat="48.70277" lon="2.04029">
        <ele>98.67</ele>
        <time>2015-09-27T08:05:54Z</time>
      </trkpt>
      <trkpt lat="48.70264" lon="2.04036">
        <ele>99.15</ele>
        <time>2015-09-27T08:06:08Z</time>
      </trkpt>
      <trkpt lat="48.70255" lon="2.04042">
        <ele>99.63</ele>
        <time>2015-09-27T08:06:19Z</time>
      </trkpt>
      <trkpt lat="48.7024" lon="2.04045">
        <ele>100.6</ele>
        <time>2015-09-27T08:06:32Z</time>
      </trkpt>
      <trkpt lat="48.70223" lon="2.04051">
        <ele>102.04</ele>
        <time>2015-09-27T08:06:48Z</time>
      </trkpt>
      <trkpt lat="48.70215" lon="2.04054">
        <ele>102.52</ele>
        <time>2015-09-27T08:07:01Z</time>
      </trkpt>
      <trkpt lat="48.70212" lon="2.04054">
        <ele>102.52</ele>
        <time>2015-09-27T08:07:04Z</time>
      </trkpt>
      <trkpt lat="48.70203" lon="2.04056">
        <ele>103.48</ele>
        <time>2015-09-27T08:07:16Z</time>
      </trkpt>
      <trkpt lat="48.70188" lon="2.04059">
        <ele>104.44</ele>
        <time>2015-09-27T08:07:31Z</time>
      </trkpt>
      <trkpt lat="48.7017" lon="2.04066">
        <ele>106.84</ele>
        <time>2015-09-27T08:07:49Z</time>
      </trkpt>
      <trkpt lat="48.70157" lon="2.0407">
        <ele>107.81</ele>
        <time>2015-09-27T08:08:01Z</time>
      </trkpt>
      <trkpt lat="48.7014" lon="2.04072">
        <ele>109.25</ele>
        <time>2015-09-27T08:08:16Z</time>
      </trkpt>
      <trkpt lat="48.70129" lon="2.04073">
        <ele>110.69</ele>
        <time>2015-09-27T08:08:26Z</time>
      </trkpt>
      <trkpt lat="48.70118" lon="2.04076">
        <ele>111.65</ele>
        <time>2015-09-27T08:08:35Z</time>
      </trkpt>
      <trkpt lat="48.70103" lon="2.04082">
        <ele>113.09</ele>
        <time>2015-09-27T08:08:52Z</time>
      </trkpt>
      <trkpt lat="48.70096" lon="2.04079">
        <ele>113.57</ele>
        <time>2015-09-27T08:09:04Z</time>
      </trkpt>
      <trkpt lat="48.70083" lon="2.04079">
        <ele>114.53</ele>
        <time>2015-09-27T08:09:16Z</time>
      </trkpt>
      <trkpt lat="48.7008" lon="2.04076">
        <ele>114.53</ele>
        <time>2015-09-27T08:09:19Z</time>
      </trkpt>
      <trkpt lat="48.70065" lon="2.04077">
        <ele>115.98</ele>
        <time>2015-09-27T08:09:35Z</time>
      </trkpt>
      <trkpt lat="48.70046" lon="2.04074">
        <ele>119.34</ele>
        <time>2015-09-27T08:09:55Z</time>
      </trkpt>
      <trkpt lat="48.70043" lon="2.04073">
        <ele>120.3</ele>
        <time>2015-09-27T08:10:08Z</time>
      </trkpt>
      <trkpt lat="48.70048" lon="2.04074">
        <ele>119.82</ele>
        <time>2015-09-27T08:10:29Z</time>
      </trkpt>
      <trkpt lat="48.70045" lon="2.04072">
        <ele>119.82</ele>
        <time>2015-09-27T08:10:56Z</time>
      </trkpt>
      <trkpt lat="48.7005" lon="2.04083">
        <ele>119.82</ele>
        <time>2015-09-27T08:11:24Z</time>
      </trkpt>
      <trkpt lat="48.70047" lon="2.04076">
        <ele>119.82</ele>
        <time>2015-09-27T08:11:53Z</time>
      </trkpt>
      <trkpt lat="48.70035" lon="2.04074">
        <ele>121.74</ele>
        <time>2015-09-27T08:12:17Z</time>
      </trkpt>
      <trkpt lat="48.70017" lon="2.04067">
        <ele>124.15</ele>
        <time>2015-09-27T08:12:35Z</time>
      </trkpt>
      <trkpt lat="48.7" lon="2.04068">
        <ele>126.55</ele>
        <time>2015-09-27T08:12:50Z</time>
      </trkpt>
      <trkpt lat="48.69983" lon="2.04058">
        <ele>128.95</ele>
        <time>2015-09-27T08:13:08Z</time>
      </trkpt>
      <trkpt lat="48.69971" lon="2.04047">
        <ele>132.32</ele>
        <time>2015-09-27T08:13:25Z</time>
      </trkpt>
      <trkpt lat="48.69956" lon="2.04032">
        <ele>134.72</ele>
        <time>2015-09-27T08:13:46Z</time>
      </trkpt>
      <trkpt lat="48.6994" lon="2.04026">
        <ele>137.61</ele>
        <time>2015-09-27T08:14:01Z</time>
      </trkpt>
      <trkpt lat="48.69925" lon="2.04019">
        <ele>139.53</ele>
        <time>2015-09-27T08:14:16Z</time>
      </trkpt>
      <trkpt lat="48.69917" lon="2.04013">
        <ele>141.45</ele>
        <time>2015-09-27T08:14:37Z</time>
      </trkpt>
      <trkpt lat="48.69906" lon="2.04005">
        <ele>143.85</ele>
        <time>2015-09-27T08:14:53Z</time>
      </trkpt>
      <trkpt lat="48.69896" lon="2.03993">
        <ele>147.22</ele>
        <time>2015-09-27T08:15:07Z</time>
      </trkpt>
      <trkpt lat="48.69884" lon="2.03987">
        <ele>150.1</ele>
        <time>2015-09-27T08:15:21Z</time>
      </trkpt>
      <trkpt lat="48.69869" lon="2.03978">
        <ele>152.99</ele>
        <time>2015-09-27T08:15:36Z</time>
      </trkpt>
      <trkpt lat="48.69856" lon="2.03964">
        <ele>155.39</ele>
        <time>2015-09-27T08:15:51Z</time>
      </trkpt>
      <trkpt lat="48.6985" lon="2.03965">
        <ele>157.31</ele>
        <time>2015-09-27T08:16:08Z</time>
      </trkpt>
      <trkpt lat="48.69834" lon="2.03952">
        <ele>158.75</ele>
        <time>2015-09-27T08:16:23Z</time>
      </trkpt>
      <trkpt lat="48.69822" lon="2.03944">
        <ele>160.68</ele>
        <time>2015-09-27T08:16:38Z</time>
      </trkpt>
      <trkpt lat="48.69808" lon="2.03935">
        <ele>163.08</ele>
        <time>2015-09-27T08:16:54Z</time>
      </trkpt>
      <trkpt lat="48.69793" lon="2.03926">
        <ele>165</ele>
        <time>2015-09-27T08:17:12Z</time>
      </trkpt>
      <trkpt lat="48.69784" lon="2.03926">
        <ele>165.48</ele>
        <time>2015-09-27T08:17:32Z</time>
      </trkpt>
      <trkpt lat="48.69784" lon="2.03916">
        <ele>165.48</ele>
        <time>2015-09-27T08:17:51Z</time>
      </trkpt>
      <trkpt lat="48.69788" lon="2.03911">
        <ele>165.48</ele>
        <time>2015-09-27T08:18:11Z</time>
      </trkpt>
      <trkpt lat="48.69786" lon="2.03913">
        <ele>165.48</ele>
        <time>2015-09-27T08:18:36Z</time>
      </trkpt>
      <trkpt lat="48.69786" lon="2.03913">
        <ele>165.48</ele>
        <time>2015-09-27T08:19:00Z</time>
      </trkpt>
      <trkpt lat="48.69785" lon="2.03913">
        <ele>165.48</ele>
        <time>2015-09-27T08:19:20Z</time>
      </trkpt>
      <trkpt lat="48.69774" lon="2.0391">
        <ele>165.48</ele>
        <time>2015-09-27T08:19:39Z</time>
      </trkpt>
      <trkpt lat="48.6976" lon="2.03902">
        <ele>166.45</ele>
        <time>2015-09-27T08:19:53Z</time>
      </trkpt>
      <trkpt lat="48.69748" lon="2.03891">
        <ele>166.45</ele>
        <time>2015-09-27T08:20:07Z</time>
      </trkpt>
      <trkpt lat="48.69731" lon="2.03883">
        <ele>167.41</ele>
        <time>2015-09-27T08:20:24Z</time>
      </trkpt>
      <trkpt lat="48.69714" lon="2.03872">
        <ele>167.41</ele>
        <time>2015-09-27T08:20:39Z</time>
      </trkpt>
      <trkpt lat="48.69699" lon="2.03861">
        <ele>167.41</ele>
        <time>2015-09-27T08:20:54Z</time>
      </trkpt>
      <trkpt lat="48.69685" lon="2.03854">
        <ele>167.41</ele>
        <time>2015-09-27T08:21:08Z</time>
      </trkpt>
      <trkpt lat="48.69667" lon="2.03842">
        <ele>167.41</ele>
        <time>2015-09-27T08:21:26Z</time>
      </trkpt>
      <trkpt lat="48.69651" lon="2.03829">
        <ele>167.41</ele>
        <time>2015-09-27T08:21:41Z</time>
      </trkpt>
      <trkpt lat="48.69632" lon="2.03817">
        <ele>167.41</ele>
        <time>2015-09-27T08:21:57Z</time>
      </trkpt>
      <trkpt lat="48.69615" lon="2.03807">
        <ele>166.93</ele>
        <time>2015-09-27T08:22:12Z</time>
      </trkpt>
      <trkpt lat="48.69597" lon="2.03794">
        <ele>166.45</ele>
        <time>2015-09-27T08:22:28Z</time>
      </trkpt>
      <trkpt lat="48.69579" lon="2.03783">
        <ele>165.96</ele>
        <time>2015-09-27T08:22:43Z</time>
      </trkpt>
      <trkpt lat="48.69563" lon="2.0377">
        <ele>165.48</ele>
        <time>2015-09-27T08:22:58Z</time>
      </trkpt>
      <trkpt lat="48.69545" lon="2.03761">
        <ele>165</ele>
        <time>2015-09-27T08:23:19Z</time>
      </trkpt>
      <trkpt lat="48.69533" lon="2.0375">
        <ele>164.04</ele>
        <time>2015-09-27T08:23:32Z</time>
      </trkpt>
      <trkpt lat="48.69515" lon="2.03736">
        <ele>163.56</ele>
        <time>2015-09-27T08:23:47Z</time>
      </trkpt>
      <trkpt lat="48.69499" lon="2.03724">
        <ele>162.6</ele>
        <time>2015-09-27T08:24:01Z</time>
      </trkpt>
      <trkpt lat="48.69486" lon="2.03716">
        <ele>161.16</ele>
        <time>2015-09-27T08:24:16Z</time>
      </trkpt>
      <trkpt lat="48.69468" lon="2.03702">
        <ele>160.68</ele>
        <time>2015-09-27T08:24:31Z</time>
      </trkpt>
      <trkpt lat="48.69456" lon="2.03694">
        <ele>159.72</ele>
        <time>2015-09-27T08:24:45Z</time>
      </trkpt>
      <trkpt lat="48.69454" lon="2.03695">
        <ele>160.2</ele>
        <time>2015-09-27T08:24:47Z</time>
      </trkpt>
      <trkpt lat="48.69437" lon="2.03682">
        <ele>158.75</ele>
        <time>2015-09-27T08:25:03Z</time>
      </trkpt>
      <trkpt lat="48.6942" lon="2.03676">
        <ele>157.31</ele>
        <time>2015-09-27T08:25:20Z</time>
      </trkpt>
      <trkpt lat="48.6942" lon="2.0367">
        <ele>157.31</ele>
        <time>2015-09-27T08:25:42Z</time>
      </trkpt>
      <trkpt lat="48.69406" lon="2.03661">
        <ele>155.87</ele>
        <time>2015-09-27T08:25:58Z</time>
      </trkpt>
      <trkpt lat="48.69402" lon="2.03658">
        <ele>155.39</ele>
        <time>2015-09-27T08:26:02Z</time>
      </trkpt>
      <trkpt lat="48.69383" lon="2.03644">
        <ele>153.95</ele>
        <time>2015-09-27T08:26:18Z</time>
      </trkpt>
      <trkpt lat="48.69369" lon="2.03634">
        <ele>152.51</ele>
        <time>2015-09-27T08:26:31Z</time>
      </trkpt>
      <trkpt lat="48.69352" lon="2.03624">
        <ele>152.03</ele>
        <time>2015-09-27T08:26:45Z</time>
      </trkpt>
      <trkpt lat="48.69336" lon="2.03614">
        <ele>152.03</ele>
        <time>2015-09-27T08:27:02Z</time>
      </trkpt>
      <trkpt lat="48.69315" lon="2.03601">
        <ele>152.03</ele>
        <time>2015-09-27T08:27:18Z</time>
      </trkpt>
      <trkpt lat="48.69298" lon="2.03589">
        <ele>152.51</ele>
        <time>2015-09-27T08:27:34Z</time>
      </trkpt>
      <trkpt lat="48.6928" lon="2.03574">
        <ele>152.99</ele>
        <time>2015-09-27T08:27:51Z</time>
      </trkpt>
      <trkpt lat="48.69261" lon="2.03556">
        <ele>153.47</ele>
        <time>2015-09-27T08:28:10Z</time>
      </trkpt>
      <trkpt lat="48.69243" lon="2.03546">
        <ele>154.43</ele>
        <time>2015-09-27T08:28:25Z</time>
      </trkpt>
      <trkpt lat="48.69241" lon="2.03546">
        <ele>154.43</ele>
        <time>2015-09-27T08:28:28Z</time>
      </trkpt>
      <trkpt lat="48.69223" lon="2.03531">
        <ele>155.39</ele>
        <time>2015-09-27T08:28:44Z</time>
      </trkpt>
      <trkpt lat="48.69211" lon="2.03511">
        <ele>155.87</ele>
        <time>2015-09-27T08:29:01Z</time>
      </trkpt>
      <trkpt lat="48.69213" lon="2.03508">
        <ele>155.87</ele>
        <time>2015-09-27T08:29:19Z</time>
      </trkpt>
      <trkpt lat="48.69214" lon="2.03497">
        <ele>155.87</ele>
        <time>2015-09-27T08:29:42Z</time>
      </trkpt>
      <trkpt lat="48.69215" lon="2.03502">
        <ele>155.39</ele>
        <time>2015-09-27T08:30:09Z</time>
      </trkpt>
      <trkpt lat="48.69209" lon="2.03497">
        <ele>155.39</ele>
        <time>2015-09-27T08:30:36Z</time>
      </trkpt>
      <trkpt lat="48.69216" lon="2.03498">
        <ele>154.91</ele>
        <time>2015-09-27T08:31:03Z</time>
      </trkpt>
      <trkpt lat="48.69202" lon="2.03503">
        <ele>155.39</ele>
        <time>2015-09-27T08:31:28Z</time>
      </trkpt>
      <trkpt lat="48.692" lon="2.03513">
        <ele>154.91</ele>
        <time>2015-09-27T08:31:33Z</time>
      </trkpt>
      <trkpt lat="48.69196" lon="2.03519">
        <ele>155.39</ele>
        <time>2015-09-27T08:31:41Z</time>
      </trkpt>
      <trkpt lat="48.69182" lon="2.03507">
        <ele>155.39</ele>
        <time>2015-09-27T08:31:57Z</time>
      </trkpt>
      <trkpt lat="48.69165" lon="2.03498">
        <ele>155.87</ele>
        <time>2015-09-27T08:32:13Z</time>
      </trkpt>
      <trkpt lat="48.6916" lon="2.03494">
        <ele>156.35</ele>
        <time>2015-09-27T08:32:17Z</time>
      </trkpt>
      <trkpt lat="48.69148" lon="2.03475">
        <ele>156.35</ele>
        <time>2015-09-27T08:32:32Z</time>
      </trkpt>
      <trkpt lat="48.69137" lon="2.03456">
        <ele>156.83</ele>
        <time>2015-09-27T08:32:47Z</time>
      </trkpt>
      <trkpt lat="48.69125" lon="2.03441">
        <ele>157.31</ele>
        <time>2015-09-27T08:33:01Z</time>
      </trkpt>
      <trkpt lat="48.69117" lon="2.03427">
        <ele>157.79</ele>
        <time>2015-09-27T08:33:16Z</time>
      </trkpt>
      <trkpt lat="48.69115" lon="2.03409">
        <ele>157.79</ele>
        <time>2015-09-27T08:33:29Z</time>
      </trkpt>
      <trkpt lat="48.69118" lon="2.03384">
        <ele>157.79</ele>
        <time>2015-09-27T08:33:44Z</time>
      </trkpt>
      <trkpt lat="48.69114" lon="2.03365">
        <ele>158.27</ele>
        <time>2015-09-27T08:33:58Z</time>
      </trkpt>
      <trkpt lat="48.69104" lon="2.0336">
        <ele>158.27</ele>
        <time>2015-09-27T08:34:12Z</time>
      </trkpt>
      <trkpt lat="48.69086" lon="2.03351">
        <ele>158.27</ele>
        <time>2015-09-27T08:34:32Z</time>
      </trkpt>
      <trkpt lat="48.69064" lon="2.0334">
        <ele>158.75</ele>
        <time>2015-09-27T08:34:52Z</time>
      </trkpt>
      <trkpt lat="48.69053" lon="2.03334">
        <ele>158.75</ele>
        <time>2015-09-27T08:35:02Z</time>
      </trkpt>
      <trkpt lat="48.69037" lon="2.03324">
        <ele>158.75</ele>
        <time>2015-09-27T08:35:16Z</time>
      </trkpt>
      <trkpt lat="48.69028" lon="2.03322">
        <ele>159.72</ele>
        <time>2015-09-27T08:35:26Z</time>
      </trkpt>
      <trkpt lat="48.69012" lon="2.03313">
        <ele>159.72</ele>
        <time>2015-09-27T08:35:41Z</time>
      </trkpt>
      <trkpt lat="48.68999" lon="2.03307">
        <ele>159.72</ele>
        <time>2015-09-27T08:35:54Z</time>
      </trkpt>
      <trkpt lat="48.68982" lon="2.03301">
        <ele>159.72</ele>
        <time>2015-09-27T08:36:09Z</time>
      </trkpt>
      <trkpt lat="48.68981" lon="2.03301">
        <ele>159.72</ele>
        <time>2015-09-27T08:36:10Z</time>
      </trkpt>
      <trkpt lat="48.6896" lon="2.03294">
        <ele>159.72</ele>
        <time>2015-09-27T08:36:27Z</time>
      </trkpt>
      <trkpt lat="48.68956" lon="2.03293">
        <ele>160.2</ele>
        <time>2015-09-27T08:36:31Z</time>
      </trkpt>
      <trkpt lat="48.68941" lon="2.03285">
        <ele>160.2</ele>
        <time>2015-09-27T08:36:46Z</time>
      </trkpt>
      <trkpt lat="48.68938" lon="2.03284">
        <ele>160.2</ele>
        <time>2015-09-27T08:36:48Z</time>
      </trkpt>
      <trkpt lat="48.68919" lon="2.03274">
        <ele>160.68</ele>
        <time>2015-09-27T08:37:04Z</time>
      </trkpt>
      <trkpt lat="48.68906" lon="2.03273">
        <ele>160.68</ele>
        <time>2015-09-27T08:37:16Z</time>
      </trkpt>
      <trkpt lat="48.68901" lon="2.03273">
        <ele>161.16</ele>
        <time>2015-09-27T08:37:20Z</time>
      </trkpt>
      <trkpt lat="48.68889" lon="2.03263">
        <ele>161.16</ele>
        <time>2015-09-27T08:37:32Z</time>
      </trkpt>
      <trkpt lat="48.68888" lon="2.03262">
        <ele>161.16</ele>
        <time>2015-09-27T08:37:33Z</time>
      </trkpt>
      <trkpt lat="48.6888" lon="2.03257">
        <ele>161.64</ele>
        <time>2015-09-27T08:37:40Z</time>
      </trkpt>
      <trkpt lat="48.68858" lon="2.0325">
        <ele>161.64</ele>
        <time>2015-09-27T08:37:58Z</time>
      </trkpt>
      <trkpt lat="48.68839" lon="2.03239">
        <ele>162.12</ele>
        <time>2015-09-27T08:38:15Z</time>
      </trkpt>
      <trkpt lat="48.68823" lon="2.03234">
        <ele>162.6</ele>
        <time>2015-09-27T08:38:28Z</time>
      </trkpt>
      <trkpt lat="48.68813" lon="2.03232">
        <ele>163.08</ele>
        <time>2015-09-27T08:38:36Z</time>
      </trkpt>
      <trkpt lat="48.68801" lon="2.03226">
        <ele>163.08</ele>
        <time>2015-09-27T08:38:47Z</time>
      </trkpt>
      <trkpt lat="48.68778" lon="2.03218">
        <ele>163.08</ele>
        <time>2015-09-27T08:39:05Z</time>
      </trkpt>
      <trkpt lat="48.68764" lon="2.0321">
        <ele>164.04</ele>
        <time>2015-09-27T08:39:18Z</time>
      </trkpt>
      <trkpt lat="48.68745" lon="2.03202">
        <ele>164.04</ele>
        <time>2015-09-27T08:39:33Z</time>
      </trkpt>
      <trkpt lat="48.68735" lon="2.03199">
        <ele>163.56</ele>
        <time>2015-09-27T08:39:42Z</time>
      </trkpt>
      <trkpt lat="48.68726" lon="2.03197">
        <ele>164.04</ele>
        <time>2015-09-27T08:39:50Z</time>
      </trkpt>
      <trkpt lat="48.68719" lon="2.03193">
        <ele>164.52</ele>
        <time>2015-09-27T08:39:59Z</time>
      </trkpt>
      <trkpt lat="48.68703" lon="2.03185">
        <ele>164.52</ele>
        <time>2015-09-27T08:40:13Z</time>
      </trkpt>
      <trkpt lat="48.6869" lon="2.03179">
        <ele>165</ele>
        <time>2015-09-27T08:40:26Z</time>
      </trkpt>
      <trkpt lat="48.68675" lon="2.03174">
        <ele>165.48</ele>
        <time>2015-09-27T08:40:40Z</time>
      </trkpt>
      <trkpt lat="48.68655" lon="2.03168">
        <ele>165.96</ele>
        <time>2015-09-27T08:40:57Z</time>
      </trkpt>
      <trkpt lat="48.68636" lon="2.03161">
        <ele>166.45</ele>
        <time>2015-09-27T08:41:12Z</time>
      </trkpt>
      <trkpt lat="48.6862" lon="2.03155">
        <ele>166.93</ele>
        <time>2015-09-27T08:41:27Z</time>
      </trkpt>
      <trkpt lat="48.68603" lon="2.03149">
        <ele>166.93</ele>
        <time>2015-09-27T08:41:40Z</time>
      </trkpt>
      <trkpt lat="48.68598" lon="2.03148">
        <ele>167.41</ele>
        <time>2015-09-27T08:41:45Z</time>
      </trkpt>
      <trkpt lat="48.68584" lon="2.0315">
        <ele>167.41</ele>
        <time>2015-09-27T08:41:56Z</time>
      </trkpt>
      <trkpt lat="48.68569" lon="2.03161">
        <ele>167.41</ele>
        <time>2015-09-27T08:42:10Z</time>
      </trkpt>
      <trkpt lat="48.68561" lon="2.03179">
        <ele>167.41</ele>
        <time>2015-09-27T08:42:26Z</time>
      </trkpt>
      <trkpt lat="48.68559" lon="2.03183">
        <ele>167.41</ele>
        <time>2015-09-27T08:42:29Z</time>
      </trkpt>
      <trkpt lat="48.68556" lon="2.03194">
        <ele>167.41</ele>
        <time>2015-09-27T08:42:39Z</time>
      </trkpt>
      <trkpt lat="48.68541" lon="2.03199">
        <ele>168.37</ele>
        <time>2015-09-27T08:42:54Z</time>
      </trkpt>
      <trkpt lat="48.68521" lon="2.03187">
        <ele>167.89</ele>
        <time>2015-09-27T08:43:15Z</time>
      </trkpt>
      <trkpt lat="48.68511" lon="2.0318">
        <ele>168.37</ele>
        <time>2015-09-27T08:43:31Z</time>
      </trkpt>
      <trkpt lat="48.68495" lon="2.03176">
        <ele>168.85</ele>
        <time>2015-09-27T08:43:48Z</time>
      </trkpt>
      <trkpt lat="48.6847" lon="2.03166">
        <ele>169.33</ele>
        <time>2015-09-27T08:44:07Z</time>
      </trkpt>
      <trkpt lat="48.68466" lon="2.03165">
        <ele>168.85</ele>
        <time>2015-09-27T08:44:10Z</time>
      </trkpt>
      <trkpt lat="48.68446" lon="2.03159">
        <ele>168.85</ele>
        <time>2015-09-27T08:44:28Z</time>
      </trkpt>
      <trkpt lat="48.6843" lon="2.03151">
        <ele>169.33</ele>
        <time>2015-09-27T08:44:42Z</time>
      </trkpt>
      <trkpt lat="48.6841" lon="2.03142">
        <ele>169.33</ele>
        <time>2015-09-27T08:44:59Z</time>
      </trkpt>
      <trkpt lat="48.68406" lon="2.0314">
        <ele>169.33</ele>
        <time>2015-09-27T08:45:03Z</time>
      </trkpt>
      <trkpt lat="48.6839" lon="2.03133">
        <ele>169.33</ele>
        <time>2015-09-27T08:45:20Z</time>
      </trkpt>
      <trkpt lat="48.68372" lon="2.03126">
        <ele>169.33</ele>
        <time>2015-09-27T08:45:36Z</time>
      </trkpt>
      <trkpt lat="48.68359" lon="2.03121">
        <ele>169.33</ele>
        <time>2015-09-27T08:45:51Z</time>
      </trkpt>
      <trkpt lat="48.68339" lon="2.03112">
        <ele>168.37</ele>
        <time>2015-09-27T08:46:06Z</time>
      </trkpt>
      <trkpt lat="48.68322" lon="2.03104">
        <ele>168.85</ele>
        <time>2015-09-27T08:46:23Z</time>
      </trkpt>
      <trkpt lat="48.68304" lon="2.03096">
        <ele>168.37</ele>
        <time>2015-09-27T08:46:39Z</time>
      </trkpt>
      <trkpt lat="48.68297" lon="2.03095">
        <ele>167.89</ele>
        <time>2015-09-27T08:46:46Z</time>
      </trkpt>
      <trkpt lat="48.68282" lon="2.03086">
        <ele>167.89</ele>
        <time>2015-09-27T08:47:00Z</time>
      </trkpt>
      <trkpt lat="48.68261" lon="2.03076">
        <ele>167.41</ele>
        <time>2015-09-27T08:47:20Z</time>
      </trkpt>
      <trkpt lat="48.68248" lon="2.03072">
        <ele>166.93</ele>
        <time>2015-09-27T08:47:39Z</time>
      </trkpt>
      <trkpt lat="48.68248" lon="2.03087">
        <ele>166.93</ele>
        <time>2015-09-27T08:47:52Z</time>
      </trkpt>
      <trkpt lat="48.68242" lon="2.03104">
        <ele>166.93</ele>
        <time>2015-09-27T08:48:08Z</time>
      </trkpt>
      <trkpt lat="48.68232" lon="2.0313">
        <ele>166.45</ele>
        <time>2015-09-27T08:48:24Z</time>
      </trkpt>
      <trkpt lat="48.68226" lon="2.03151">
        <ele>167.41</ele>
        <time>2015-09-27T08:48:39Z</time>
      </trkpt>
      <trkpt lat="48.68223" lon="2.03168">
        <ele>166.93</ele>
        <time>2015-09-27T08:48:51Z</time>
      </trkpt>
      <trkpt lat="48.6822" lon="2.032">
        <ele>167.41</ele>
        <time>2015-09-27T08:49:09Z</time>
      </trkpt>
      <trkpt lat="48.68212" lon="2.03223">
        <ele>167.41</ele>
        <time>2015-09-27T08:49:23Z</time>
      </trkpt>
      <trkpt lat="48.68205" lon="2.03237">
        <ele>166.93</ele>
        <time>2015-09-27T08:49:36Z</time>
      </trkpt>
      <trkpt lat="48.68194" lon="2.03255">
        <ele>167.41</ele>
        <time>2015-09-27T08:49:51Z</time>
      </trkpt>
      <trkpt lat="48.68178" lon="2.03267">
        <ele>166.93</ele>
        <time>2015-09-27T08:50:09Z</time>
      </trkpt>
      <trkpt lat="48.6816" lon="2.03273">
        <ele>165.96</ele>
        <time>2015-09-27T08:50:27Z</time>
      </trkpt>
      <trkpt lat="48.68142" lon="2.03284">
        <ele>165.48</ele>
        <time>2015-09-27T08:50:43Z</time>
      </trkpt>
      <trkpt lat="48.6812" lon="2.03298">
        <ele>165.96</ele>
        <time>2015-09-27T08:50:59Z</time>
      </trkpt>
      <trkpt lat="48.68102" lon="2.03304">
        <ele>165.48</ele>
        <time>2015-09-27T08:51:15Z</time>
      </trkpt>
      <trkpt lat="48.68088" lon="2.03308">
        <ele>165.48</ele>
        <time>2015-09-27T08:51:28Z</time>
      </trkpt>
      <trkpt lat="48.6808" lon="2.03314">
        <ele>165.96</ele>
        <time>2015-09-27T08:51:36Z</time>
      </trkpt>
      <trkpt lat="48.68078" lon="2.03316">
        <ele>165.96</ele>
        <time>2015-09-27T08:51:38Z</time>
      </trkpt>
      <trkpt lat="48.68058" lon="2.03327">
        <ele>165.96</ele>
        <time>2015-09-27T08:51:54Z</time>
      </trkpt>
      <trkpt lat="48.68041" lon="2.03336">
        <ele>165.96</ele>
        <time>2015-09-27T08:52:09Z</time>
      </trkpt>
      <trkpt lat="48.68022" lon="2.03345">
        <ele>165.48</ele>
        <time>2015-09-27T08:52:25Z</time>
      </trkpt>
      <trkpt lat="48.68011" lon="2.0335">
        <ele>165.48</ele>
        <time>2015-09-27T08:52:35Z</time>
      </trkpt>
      <trkpt lat="48.68008" lon="2.03334">
        <ele>165</ele>
        <time>2015-09-27T08:52:47Z</time>
      </trkpt>
      <trkpt lat="48.68009" lon="2.03321">
        <ele>165</ele>
        <time>2015-09-27T08:52:55Z</time>
      </trkpt>
      <trkpt lat="48.68012" lon="2.03296">
        <ele>165</ele>
        <time>2015-09-27T08:53:09Z</time>
      </trkpt>
      <trkpt lat="48.68016" lon="2.03277">
        <ele>165</ele>
        <time>2015-09-27T08:53:23Z</time>
      </trkpt>
      <trkpt lat="48.68019" lon="2.03249">
        <ele>165</ele>
        <time>2015-09-27T08:53:38Z</time>
      </trkpt>
      <trkpt lat="48.68022" lon="2.0323">
        <ele>165</ele>
        <time>2015-09-27T08:53:51Z</time>
      </trkpt>
      <trkpt lat="48.68025" lon="2.03205">
        <ele>164.52</ele>
        <time>2015-09-27T08:54:04Z</time>
      </trkpt>
      <trkpt lat="48.68027" lon="2.03181">
        <ele>164.52</ele>
        <time>2015-09-27T08:54:19Z</time>
      </trkpt>
      <trkpt lat="48.68028" lon="2.03173">
        <ele>164.52</ele>
        <time>2015-09-27T08:54:23Z</time>
      </trkpt>
      <trkpt lat="48.68029" lon="2.0315">
        <ele>163.56</ele>
        <time>2015-09-27T08:54:36Z</time>
      </trkpt>
      <trkpt lat="48.68029" lon="2.03145">
        <ele>164.04</ele>
        <time>2015-09-27T08:54:39Z</time>
      </trkpt>
      <trkpt lat="48.68029" lon="2.03142">
        <ele>163.56</ele>
        <time>2015-09-27T08:54:41Z</time>
      </trkpt>
      <trkpt lat="48.68031" lon="2.03135">
        <ele>163.56</ele>
        <time>2015-09-27T08:54:45Z</time>
      </trkpt>
      <trkpt lat="48.68033" lon="2.03109">
        <ele>163.08</ele>
        <time>2015-09-27T08:55:01Z</time>
      </trkpt>
      <trkpt lat="48.68037" lon="2.03082">
        <ele>163.08</ele>
        <time>2015-09-27T08:55:18Z</time>
      </trkpt>
      <trkpt lat="48.68041" lon="2.03055">
        <ele>162.6</ele>
        <time>2015-09-27T08:55:34Z</time>
      </trkpt>
      <trkpt lat="48.68043" lon="2.03034">
        <ele>162.6</ele>
        <time>2015-09-27T08:55:46Z</time>
      </trkpt>
      <trkpt lat="48.68046" lon="2.03015">
        <ele>162.12</ele>
        <time>2015-09-27T08:55:57Z</time>
      </trkpt>
      <trkpt lat="48.68042" lon="2.03005">
        <ele>162.12</ele>
        <time>2015-09-27T08:56:05Z</time>
      </trkpt>
      <trkpt lat="48.68038" lon="2.02974">
        <ele>161.16</ele>
        <time>2015-09-27T08:56:22Z</time>
      </trkpt>
      <trkpt lat="48.68037" lon="2.02974">
        <ele>160.68</ele>
        <time>2015-09-27T08:56:32Z</time>
      </trkpt>
      <trkpt lat="48.68033" lon="2.0297">
        <ele>160.2</ele>
        <time>2015-09-27T08:56:43Z</time>
      </trkpt>
      <trkpt lat="48.68032" lon="2.0297">
        <ele>160.2</ele>
        <time>2015-09-27T08:56:46Z</time>
      </trkpt>
      <trkpt lat="48.68017" lon="2.0295">
        <ele>158.75</ele>
        <time>2015-09-27T08:57:00Z</time>
      </trkpt>
      <trkpt lat="48.68006" lon="2.02942">
        <ele>158.27</ele>
        <time>2015-09-27T08:57:16Z</time>
      </trkpt>
      <trkpt lat="48.68001" lon="2.0294">
        <ele>157.79</ele>
        <time>2015-09-27T08:57:31Z</time>
      </trkpt>
      <trkpt lat="48.67977" lon="2.02931">
        <ele>157.31</ele>
        <time>2015-09-27T08:57:51Z</time>
      </trkpt>
      <trkpt lat="48.67967" lon="2.02919">
        <ele>157.31</ele>
        <time>2015-09-27T08:58:03Z</time>
      </trkpt>
      <trkpt lat="48.67965" lon="2.0291">
        <ele>158.27</ele>
        <time>2015-09-27T08:58:12Z</time>
      </trkpt>
      <trkpt lat="48.67968" lon="2.0289">
        <ele>158.27</ele>
        <time>2015-09-27T08:58:22Z</time>
      </trkpt>
      <trkpt lat="48.67968" lon="2.02886">
        <ele>158.27</ele>
        <time>2015-09-27T08:58:24Z</time>
      </trkpt>
      <trkpt lat="48.67969" lon="2.02867">
        <ele>159.24</ele>
        <time>2015-09-27T08:58:38Z</time>
      </trkpt>
      <trkpt lat="48.67973" lon="2.02848">
        <ele>159.24</ele>
        <time>2015-09-27T08:58:50Z</time>
      </trkpt>
      <trkpt lat="48.67978" lon="2.0283">
        <ele>159.24</ele>
        <time>2015-09-27T08:59:01Z</time>
      </trkpt>
      <trkpt lat="48.67973" lon="2.02804">
        <ele>159.24</ele>
        <time>2015-09-27T08:59:16Z</time>
      </trkpt>
      <trkpt lat="48.67973" lon="2.028">
        <ele>159.24</ele>
        <time>2015-09-27T08:59:18Z</time>
      </trkpt>
      <trkpt lat="48.67975" lon="2.02793">
        <ele>158.75</ele>
        <time>2015-09-27T08:59:22Z</time>
      </trkpt>
      <trkpt lat="48.67982" lon="2.02779">
        <ele>158.75</ele>
        <time>2015-09-27T08:59:33Z</time>
      </trkpt>
      <trkpt lat="48.67986" lon="2.02755">
        <ele>157.31</ele>
        <time>2015-09-27T08:59:49Z</time>
      </trkpt>
      <trkpt lat="48.67986" lon="2.02738">
        <ele>155.87</ele>
        <time>2015-09-27T09:00:03Z</time>
      </trkpt>
      <trkpt lat="48.67985" lon="2.02729">
        <ele>154.91</ele>
        <time>2015-09-27T09:00:21Z</time>
      </trkpt>
      <trkpt lat="48.67988" lon="2.02722">
        <ele>153.47</ele>
        <time>2015-09-27T09:00:36Z</time>
      </trkpt>
      <trkpt lat="48.67985" lon="2.02705">
        <ele>151.06</ele>
        <time>2015-09-27T09:00:54Z</time>
      </trkpt>
      <trkpt lat="48.67981" lon="2.02699">
        <ele>149.62</ele>
        <time>2015-09-27T09:01:11Z</time>
      </trkpt>
      <trkpt lat="48.6798" lon="2.02698">
        <ele>149.62</ele>
        <time>2015-09-27T09:01:12Z</time>
      </trkpt>
      <trkpt lat="48.67972" lon="2.02688">
        <ele>148.66</ele>
        <time>2015-09-27T09:01:26Z</time>
      </trkpt>
      <trkpt lat="48.67963" lon="2.02684">
        <ele>148.18</ele>
        <time>2015-09-27T09:01:45Z</time>
      </trkpt>
      <trkpt lat="48.67949" lon="2.02672">
        <ele>146.74</ele>
        <time>2015-09-27T09:02:07Z</time>
      </trkpt>
      <trkpt lat="48.67938" lon="2.02659">
        <ele>143.85</ele>
        <time>2015-09-27T09:02:25Z</time>
      </trkpt>
      <trkpt lat="48.67932" lon="2.02653">
        <ele>143.37</ele>
        <time>2015-09-27T09:02:44Z</time>
      </trkpt>
      <trkpt lat="48.67928" lon="2.02644">
        <ele>143.37</ele>
        <time>2015-09-27T09:03:11Z</time>
      </trkpt>
      <trkpt lat="48.67915" lon="2.02646">
        <ele>146.26</ele>
        <time>2015-09-27T09:03:25Z</time>
      </trkpt>
      <trkpt lat="48.67903" lon="2.02639">
        <ele>145.3</ele>
        <time>2015-09-27T09:03:35Z</time>
      </trkpt>
      <trkpt lat="48.67894" lon="2.02627">
        <ele>145.78</ele>
        <time>2015-09-27T09:03:48Z</time>
      </trkpt>
      <trkpt lat="48.67885" lon="2.02613">
        <ele>145.78</ele>
        <time>2015-09-27T09:04:03Z</time>
      </trkpt>
      <trkpt lat="48.67879" lon="2.02602">
        <ele>146.26</ele>
        <time>2015-09-27T09:04:17Z</time>
      </trkpt>
      <trkpt lat="48.67869" lon="2.02583">
        <ele>146.74</ele>
        <time>2015-09-27T09:04:34Z</time>
      </trkpt>
      <trkpt lat="48.67855" lon="2.02554">
        <ele>147.7</ele>
        <time>2015-09-27T09:04:54Z</time>
      </trkpt>
      <trkpt lat="48.67855" lon="2.02536">
        <ele>148.18</ele>
        <time>2015-09-27T09:05:06Z</time>
      </trkpt>
      <trkpt lat="48.67859" lon="2.02508">
        <ele>151.06</ele>
        <time>2015-09-27T09:05:26Z</time>
      </trkpt>
      <trkpt lat="48.67859" lon="2.02477">
        <ele>152.99</ele>
        <time>2015-09-27T09:05:46Z</time>
      </trkpt>
      <trkpt lat="48.67859" lon="2.02453">
        <ele>155.87</ele>
        <time>2015-09-27T09:06:09Z</time>
      </trkpt>
      <trkpt lat="48.67865" lon="2.02454">
        <ele>156.83</ele>
        <time>2015-09-27T09:06:31Z</time>
      </trkpt>
      <trkpt lat="48.6786" lon="2.02424">
        <ele>159.72</ele>
        <time>2015-09-27T09:06:49Z</time>
      </trkpt>
      <trkpt lat="48.67861" lon="2.0241">
        <ele>161.64</ele>
        <time>2015-09-27T09:07:02Z</time>
      </trkpt>
      <trkpt lat="48.67862" lon="2.02399">
        <ele>162.6</ele>
        <time>2015-09-27T09:07:13Z</time>
      </trkpt>
      <trkpt lat="48.67866" lon="2.02387">
        <ele>163.56</ele>
        <time>2015-09-27T09:07:26Z</time>
      </trkpt>
      <trkpt lat="48.6787" lon="2.02365">
        <ele>164.52</ele>
        <time>2015-09-27T09:07:42Z</time>
      </trkpt>
      <trkpt lat="48.67874" lon="2.02355">
        <ele>164.52</ele>
        <time>2015-09-27T09:07:53Z</time>
      </trkpt>
      <trkpt lat="48.67881" lon="2.02345">
        <ele>164.52</ele>
        <time>2015-09-27T09:08:08Z</time>
      </trkpt>
      <trkpt lat="48.67879" lon="2.02349">
        <ele>164.52</ele>
        <time>2015-09-27T09:08:29Z</time>
      </trkpt>
      <trkpt lat="48.67873" lon="2.02354">
        <ele>165</ele>
        <time>2015-09-27T09:08:59Z</time>
      </trkpt>
      <trkpt lat="48.67876" lon="2.02352">
        <ele>165</ele>
        <time>2015-09-27T09:09:22Z</time>
      </trkpt>
      <trkpt lat="48.6787" lon="2.02357">
        <ele>165</ele>
        <time>2015-09-27T09:09:46Z</time>
      </trkpt>
      <trkpt lat="48.67874" lon="2.02352">
        <ele>165</ele>
        <time>2015-09-27T09:10:10Z</time>
      </trkpt>
      <trkpt lat="48.67875" lon="2.02349">
        <ele>165</ele>
        <time>2015-09-27T09:10:44Z</time>
      </trkpt>
      <trkpt lat="48.67876" lon="2.02351">
        <ele>165</ele>
        <time>2015-09-27T09:11:15Z</time>
      </trkpt>
      <trkpt lat="48.67877" lon="2.0235">
        <ele>165</ele>
        <time>2015-09-27T09:11:48Z</time>
      </trkpt>
      <trkpt lat="48.67876" lon="2.02349">
        <ele>165</ele>
        <time>2015-09-27T09:12:15Z</time>
      </trkpt>
      <trkpt lat="48.67877" lon="2.02348">
        <ele>165.48</ele>
        <time>2015-09-27T09:12:42Z</time>
      </trkpt>
      <trkpt lat="48.67875" lon="2.02353">
        <ele>165</ele>
        <time>2015-09-27T09:13:07Z</time>
      </trkpt>
      <trkpt lat="48.67875" lon="2.02349">
        <ele>165</ele>
        <time>2015-09-27T09:13:35Z</time>
      </trkpt>
      <trkpt lat="48.67877" lon="2.02349">
        <ele>165</ele>
        <time>2015-09-27T09:13:57Z</time>
      </trkpt>
      <trkpt lat="48.67876" lon="2.0235">
        <ele>165.48</ele>
        <time>2015-09-27T09:14:24Z</time>
      </trkpt>
      <trkpt lat="48.67875" lon="2.02345">
        <ele>165</ele>
        <time>2015-09-27T09:14:44Z</time>
      </trkpt>
      <trkpt lat="48.67873" lon="2.02353">
        <ele>165.48</ele>
        <time>2015-09-27T09:15:05Z</time>
      </trkpt>
      <trkpt lat="48.6787" lon="2.0235">
        <ele>165.48</ele>
        <time>2015-09-27T09:15:26Z</time>
      </trkpt>
      <trkpt lat="48.67874" lon="2.02347">
        <ele>165.48</ele>
        <time>2015-09-27T09:15:39Z</time>
      </trkpt>
      <trkpt lat="48.67872" lon="2.02349">
        <ele>165.48</ele>
        <time>2015-09-27T09:16:04Z</time>
      </trkpt>
      <trkpt lat="48.67874" lon="2.02354">
        <ele>165.96</ele>
        <time>2015-09-27T09:16:21Z</time>
      </trkpt>
      <trkpt lat="48.67879" lon="2.02352">
        <ele>165.48</ele>
        <time>2015-09-27T09:16:47Z</time>
      </trkpt>
      <trkpt lat="48.67879" lon="2.02353">
        <ele>165.48</ele>
        <time>2015-09-27T09:17:08Z</time>
      </trkpt>
      <trkpt lat="48.67879" lon="2.02354">
        <ele>165.48</ele>
        <time>2015-09-27T09:17:32Z</time>
      </trkpt>
      <trkpt lat="48.67879" lon="2.02349">
        <ele>165.96</ele>
        <time>2015-09-27T09:17:48Z</time>
      </trkpt>
      <trkpt lat="48.67878" lon="2.02348">
        <ele>165.48</ele>
        <time>2015-09-27T09:18:10Z</time>
      </trkpt>
      <trkpt lat="48.67877" lon="2.02346">
        <ele>165.96</ele>
        <time>2015-09-27T09:18:13Z</time>
      </trkpt>
      <trkpt lat="48.67869" lon="2.02335">
        <ele>165.48</ele>
        <time>2015-09-27T09:18:26Z</time>
      </trkpt>
      <trkpt lat="48.6786" lon="2.02316">
        <ele>165.96</ele>
        <time>2015-09-27T09:18:42Z</time>
      </trkpt>
      <trkpt lat="48.67853" lon="2.0229">
        <ele>166.93</ele>
        <time>2015-09-27T09:19:00Z</time>
      </trkpt>
      <trkpt lat="48.67854" lon="2.02276">
        <ele>166.93</ele>
        <time>2015-09-27T09:19:09Z</time>
      </trkpt>
      <trkpt lat="48.67864" lon="2.02264">
        <ele>166.45</ele>
        <time>2015-09-27T09:19:23Z</time>
      </trkpt>
      <trkpt lat="48.67864" lon="2.02263">
        <ele>166.45</ele>
        <time>2015-09-27T09:19:24Z</time>
      </trkpt>
      <trkpt lat="48.67867" lon="2.02246">
        <ele>166.93</ele>
        <time>2015-09-27T09:19:37Z</time>
      </trkpt>
      <trkpt lat="48.67869" lon="2.02224">
        <ele>166.93</ele>
        <time>2015-09-27T09:19:53Z</time>
      </trkpt>
      <trkpt lat="48.6787" lon="2.02196">
        <ele>167.41</ele>
        <time>2015-09-27T09:20:11Z</time>
      </trkpt>
      <trkpt lat="48.67871" lon="2.02167">
        <ele>166.93</ele>
        <time>2015-09-27T09:20:30Z</time>
      </trkpt>
      <trkpt lat="48.67868" lon="2.02146">
        <ele>166.93</ele>
        <time>2015-09-27T09:20:43Z</time>
      </trkpt>
      <trkpt lat="48.67868" lon="2.02125">
        <ele>166.93</ele>
        <time>2015-09-27T09:20:57Z</time>
      </trkpt>
      <trkpt lat="48.67864" lon="2.02098">
        <ele>166.45</ele>
        <time>2015-09-27T09:21:12Z</time>
      </trkpt>
      <trkpt lat="48.67866" lon="2.02078">
        <ele>166.45</ele>
        <time>2015-09-27T09:21:26Z</time>
      </trkpt>
      <trkpt lat="48.67866" lon="2.02056">
        <ele>166.45</ele>
        <time>2015-09-27T09:21:40Z</time>
      </trkpt>
      <trkpt lat="48.67867" lon="2.02033">
        <ele>165.96</ele>
        <time>2015-09-27T09:21:55Z</time>
      </trkpt>
      <trkpt lat="48.67869" lon="2.02008">
        <ele>165.96</ele>
        <time>2015-09-27T09:22:14Z</time>
      </trkpt>
      <trkpt lat="48.67873" lon="2.01976">
        <ele>165.48</ele>
        <time>2015-09-27T09:22:32Z</time>
      </trkpt>
      <trkpt lat="48.67874" lon="2.01954">
        <ele>165.96</ele>
        <time>2015-09-27T09:22:49Z</time>
      </trkpt>
      <trkpt lat="48.67877" lon="2.01935">
        <ele>165.48</ele>
        <time>2015-09-27T09:23:04Z</time>
      </trkpt>
      <trkpt lat="48.67882" lon="2.01905">
        <ele>165.96</ele>
        <time>2015-09-27T09:23:22Z</time>
      </trkpt>
      <trkpt lat="48.67887" lon="2.01877">
        <ele>166.45</ele>
        <time>2015-09-27T09:23:39Z</time>
      </trkpt>
      <trkpt lat="48.6789" lon="2.01853">
        <ele>166.45</ele>
        <time>2015-09-27T09:23:55Z</time>
      </trkpt>
      <trkpt lat="48.67891" lon="2.01846">
        <ele>166.93</ele>
        <time>2015-09-27T09:23:59Z</time>
      </trkpt>
      <trkpt lat="48.67896" lon="2.0182">
        <ele>166.45</ele>
        <time>2015-09-27T09:24:15Z</time>
      </trkpt>
      <trkpt lat="48.679" lon="2.01798">
        <ele>165.96</ele>
        <time>2015-09-27T09:24:31Z</time>
      </trkpt>
      <trkpt lat="48.67901" lon="2.01777">
        <ele>166.45</ele>
        <time>2015-09-27T09:24:50Z</time>
      </trkpt>
      <trkpt lat="48.67901" lon="2.01754">
        <ele>165.96</ele>
        <time>2015-09-27T09:25:06Z</time>
      </trkpt>
      <trkpt lat="48.67895" lon="2.01723">
        <ele>165.96</ele>
        <time>2015-09-27T09:25:23Z</time>
      </trkpt>
      <trkpt lat="48.67891" lon="2.0169">
        <ele>165.96</ele>
        <time>2015-09-27T09:25:43Z</time>
      </trkpt>
      <trkpt lat="48.67888" lon="2.01664">
        <ele>165.96</ele>
        <time>2015-09-27T09:26:01Z</time>
      </trkpt>
      <trkpt lat="48.67883" lon="2.01638">
        <ele>165.96</ele>
        <time>2015-09-27T09:26:18Z</time>
      </trkpt>
      <trkpt lat="48.6788" lon="2.01605">
        <ele>165.48</ele>
        <time>2015-09-27T09:26:35Z</time>
      </trkpt>
      <trkpt lat="48.67873" lon="2.01576">
        <ele>165.96</ele>
        <time>2015-09-27T09:26:52Z</time>
      </trkpt>
      <trkpt lat="48.67871" lon="2.01558">
        <ele>165.48</ele>
        <time>2015-09-27T09:27:07Z</time>
      </trkpt>
      <trkpt lat="48.67868" lon="2.01524">
        <ele>165.96</ele>
        <time>2015-09-27T09:27:26Z</time>
      </trkpt>
      <trkpt lat="48.67865" lon="2.01499">
        <ele>165.48</ele>
        <time>2015-09-27T09:27:44Z</time>
      </trkpt>
      <trkpt lat="48.67871" lon="2.01477">
        <ele>164.52</ele>
        <time>2015-09-27T09:28:01Z</time>
      </trkpt>
      <trkpt lat="48.67873" lon="2.01448">
        <ele>164.04</ele>
        <time>2015-09-27T09:28:17Z</time>
      </trkpt>
      <trkpt lat="48.67874" lon="2.01417">
        <ele>162.6</ele>
        <time>2015-09-27T09:28:36Z</time>
      </trkpt>
      <trkpt lat="48.67875" lon="2.01396">
        <ele>161.16</ele>
        <time>2015-09-27T09:28:50Z</time>
      </trkpt>
      <trkpt lat="48.67875" lon="2.01386">
        <ele>161.64</ele>
        <time>2015-09-27T09:28:55Z</time>
      </trkpt>
      <trkpt lat="48.67877" lon="2.01356">
        <ele>161.16</ele>
        <time>2015-09-27T09:29:14Z</time>
      </trkpt>
      <trkpt lat="48.67881" lon="2.01336">
        <ele>158.75</ele>
        <time>2015-09-27T09:29:33Z</time>
      </trkpt>
      <trkpt lat="48.67889" lon="2.01324">
        <ele>155.87</ele>
        <time>2015-09-27T09:29:51Z</time>
      </trkpt>
      <trkpt lat="48.67902" lon="2.01317">
        <ele>153.47</ele>
        <time>2015-09-27T09:30:09Z</time>
      </trkpt>
      <trkpt lat="48.67906" lon="2.0131">
        <ele>151.06</ele>
        <time>2015-09-27T09:30:27Z</time>
      </trkpt>
      <trkpt lat="48.67922" lon="2.0131">
        <ele>148.18</ele>
        <time>2015-09-27T09:30:46Z</time>
      </trkpt>
      <trkpt lat="48.6793" lon="2.01301">
        <ele>147.22</ele>
        <time>2015-09-27T09:31:07Z</time>
      </trkpt>
      <trkpt lat="48.6793" lon="2.01302">
        <ele>144.82</ele>
        <time>2015-09-27T09:31:22Z</time>
      </trkpt>
      <trkpt lat="48.67933" lon="2.0129">
        <ele>143.37</ele>
        <time>2015-09-27T09:31:42Z</time>
      </trkpt>
      <trkpt lat="48.67947" lon="2.01296">
        <ele>140.97</ele>
        <time>2015-09-27T09:32:02Z</time>
      </trkpt>
      <trkpt lat="48.67953" lon="2.01286">
        <ele>139.53</ele>
        <time>2015-09-27T09:32:16Z</time>
      </trkpt>
      <trkpt lat="48.67956" lon="2.01275">
        <ele>137.13</ele>
        <time>2015-09-27T09:32:31Z</time>
      </trkpt>
      <trkpt lat="48.67958" lon="2.0127">
        <ele>136.16</ele>
        <time>2015-09-27T09:32:35Z</time>
      </trkpt>
      <trkpt lat="48.67967" lon="2.01255">
        <ele>135.68</ele>
        <time>2015-09-27T09:32:50Z</time>
      </trkpt>
      <trkpt lat="48.67976" lon="2.01242">
        <ele>135.68</ele>
        <time>2015-09-27T09:33:04Z</time>
      </trkpt>
      <trkpt lat="48.67981" lon="2.01226">
        <ele>137.61</ele>
        <time>2015-09-27T09:33:21Z</time>
      </trkpt>
      <trkpt lat="48.67976" lon="2.01199">
        <ele>140.01</ele>
        <time>2015-09-27T09:33:41Z</time>
      </trkpt>
      <trkpt lat="48.67981" lon="2.01179">
        <ele>140.49</ele>
        <time>2015-09-27T09:33:56Z</time>
      </trkpt>
      <trkpt lat="48.67982" lon="2.01155">
        <ele>141.93</ele>
        <time>2015-09-27T09:34:14Z</time>
      </trkpt>
      <trkpt lat="48.67986" lon="2.01134">
        <ele>143.85</ele>
        <time>2015-09-27T09:34:33Z</time>
      </trkpt>
      <trkpt lat="48.67986" lon="2.01108">
        <ele>144.82</ele>
        <time>2015-09-27T09:34:52Z</time>
      </trkpt>
      <trkpt lat="48.67988" lon="2.01088">
        <ele>146.74</ele>
        <time>2015-09-27T09:35:09Z</time>
      </trkpt>
      <trkpt lat="48.67983" lon="2.01055">
        <ele>148.18</ele>
        <time>2015-09-27T09:35:27Z</time>
      </trkpt>
      <trkpt lat="48.67984" lon="2.01026">
        <ele>150.1</ele>
        <time>2015-09-27T09:35:44Z</time>
      </trkpt>
      <trkpt lat="48.67983" lon="2.00998">
        <ele>151.06</ele>
        <time>2015-09-27T09:36:01Z</time>
      </trkpt>
      <trkpt lat="48.67986" lon="2.00986">
        <ele>152.51</ele>
        <time>2015-09-27T09:36:16Z</time>
      </trkpt>
      <trkpt lat="48.6799" lon="2.00975">
        <ele>152.99</ele>
        <time>2015-09-27T09:36:33Z</time>
      </trkpt>
      <trkpt lat="48.67995" lon="2.00965">
        <ele>153.95</ele>
        <time>2015-09-27T09:36:54Z</time>
      </trkpt>
      <trkpt lat="48.67999" lon="2.00931">
        <ele>155.87</ele>
        <time>2015-09-27T09:37:15Z</time>
      </trkpt>
      <trkpt lat="48.67991" lon="2.00909">
        <ele>157.31</ele>
        <time>2015-09-27T09:37:33Z</time>
      </trkpt>
      <trkpt lat="48.67999" lon="2.00896">
        <ele>158.75</ele>
        <time>2015-09-27T09:37:47Z</time>
      </trkpt>
      <trkpt lat="48.68011" lon="2.00892">
        <ele>159.24</ele>
        <time>2015-09-27T09:38:01Z</time>
      </trkpt>
      <trkpt lat="48.68017" lon="2.00874">
        <ele>161.64</ele>
        <time>2015-09-27T09:38:17Z</time>
      </trkpt>
      <trkpt lat="48.68027" lon="2.00871">
        <ele>163.08</ele>
        <time>2015-09-27T09:38:31Z</time>
      </trkpt>
      <trkpt lat="48.68044" lon="2.00867">
        <ele>165</ele>
        <time>2015-09-27T09:38:46Z</time>
      </trkpt>
      <trkpt lat="48.68044" lon="2.00869">
        <ele>165</ele>
        <time>2015-09-27T09:39:03Z</time>
      </trkpt>
      <trkpt lat="48.68042" lon="2.00872">
        <ele>164.52</ele>
        <time>2015-09-27T09:39:25Z</time>
      </trkpt>
      <trkpt lat="48.68043" lon="2.00874">
        <ele>164.52</ele>
        <time>2015-09-27T09:39:42Z</time>
      </trkpt>
      <trkpt lat="48.6804" lon="2.00872">
        <ele>164.04</ele>
        <time>2015-09-27T09:40:02Z</time>
      </trkpt>
      <trkpt lat="48.68043" lon="2.00873">
        <ele>165.48</ele>
        <time>2015-09-27T09:40:19Z</time>
      </trkpt>
      <trkpt lat="48.68044" lon="2.00879">
        <ele>165</ele>
        <time>2015-09-27T09:40:44Z</time>
      </trkpt>
      <trkpt lat="48.68045" lon="2.00868">
        <ele>165</ele>
        <time>2015-09-27T09:41:05Z</time>
      </trkpt>
      <trkpt lat="48.68044" lon="2.0087">
        <ele>165.48</ele>
        <time>2015-09-27T09:41:26Z</time>
      </trkpt>
      <trkpt lat="48.68046" lon="2.00869">
        <ele>165.48</ele>
        <time>2015-09-27T09:41:42Z</time>
      </trkpt>
      <trkpt lat="48.68047" lon="2.00869">
        <ele>165.48</ele>
        <time>2015-09-27T09:41:46Z</time>
      </trkpt>
      <trkpt lat="48.68055" lon="2.00874">
        <ele>165.96</ele>
        <time>2015-09-27T09:41:53Z</time>
      </trkpt>
      <trkpt lat="48.68069" lon="2.00879">
        <ele>165.48</ele>
        <time>2015-09-27T09:42:04Z</time>
      </trkpt>
      <trkpt lat="48.6808" lon="2.00896">
        <ele>166.45</ele>
        <time>2015-09-27T09:42:20Z</time>
      </trkpt>
      <trkpt lat="48.68094" lon="2.00916">
        <ele>166.93</ele>
        <time>2015-09-27T09:42:38Z</time>
      </trkpt>
      <trkpt lat="48.68097" lon="2.00919">
        <ele>166.93</ele>
        <time>2015-09-27T09:42:41Z</time>
      </trkpt>
      <trkpt lat="48.68112" lon="2.00941">
        <ele>166.93</ele>
        <time>2015-09-27T09:42:59Z</time>
      </trkpt>
      <trkpt lat="48.68117" lon="2.00945">
        <ele>166.93</ele>
        <time>2015-09-27T09:43:03Z</time>
      </trkpt>
      <trkpt lat="48.68133" lon="2.00964">
        <ele>166.45</ele>
        <time>2015-09-27T09:43:21Z</time>
      </trkpt>
      <trkpt lat="48.68145" lon="2.00982">
        <ele>166.45</ele>
        <time>2015-09-27T09:43:35Z</time>
      </trkpt>
      <trkpt lat="48.68148" lon="2.00989">
        <ele>166.45</ele>
        <time>2015-09-27T09:43:40Z</time>
      </trkpt>
      <trkpt lat="48.6816" lon="2.01013">
        <ele>165.48</ele>
        <time>2015-09-27T09:43:57Z</time>
      </trkpt>
      <trkpt lat="48.68162" lon="2.01018">
        <ele>165.48</ele>
        <time>2015-09-27T09:44:01Z</time>
      </trkpt>
      <trkpt lat="48.68165" lon="2.01025">
        <ele>165.96</ele>
        <time>2015-09-27T09:44:06Z</time>
      </trkpt>
      <trkpt lat="48.6817" lon="2.01026">
        <ele>165.48</ele>
        <time>2015-09-27T09:44:13Z</time>
      </trkpt>
      <trkpt lat="48.68177" lon="2.01011">
        <ele>165.48</ele>
        <time>2015-09-27T09:44:27Z</time>
      </trkpt>
      <trkpt lat="48.68178" lon="2.01005">
        <ele>165.48</ele>
        <time>2015-09-27T09:44:41Z</time>
      </trkpt>
      <trkpt lat="48.6818" lon="2.00991">
        <ele>165.96</ele>
        <time>2015-09-27T09:44:56Z</time>
      </trkpt>
      <trkpt lat="48.68181" lon="2.00968">
        <ele>165.96</ele>
        <time>2015-09-27T09:45:10Z</time>
      </trkpt>
      <trkpt lat="48.68181" lon="2.00967">
        <ele>165.96</ele>
        <time>2015-09-27T09:45:11Z</time>
      </trkpt>
      <trkpt lat="48.68182" lon="2.00955">
        <ele>166.45</ele>
        <time>2015-09-27T09:45:17Z</time>
      </trkpt>
      <trkpt lat="48.68189" lon="2.00927">
        <ele>166.45</ele>
        <time>2015-09-27T09:45:32Z</time>
      </trkpt>
      <trkpt lat="48.68187" lon="2.00896">
        <ele>166.93</ele>
        <time>2015-09-27T09:45:49Z</time>
      </trkpt>
      <trkpt lat="48.6819" lon="2.0088">
        <ele>166.93</ele>
        <time>2015-09-27T09:46:00Z</time>
      </trkpt>
      <trkpt lat="48.68186" lon="2.00844">
        <ele>167.41</ele>
        <time>2015-09-27T09:46:17Z</time>
      </trkpt>
      <trkpt lat="48.68187" lon="2.00821">
        <ele>167.41</ele>
        <time>2015-09-27T09:46:30Z</time>
      </trkpt>
      <trkpt lat="48.68185" lon="2.0079">
        <ele>167.89</ele>
        <time>2015-09-27T09:46:47Z</time>
      </trkpt>
      <trkpt lat="48.68187" lon="2.00766">
        <ele>167.89</ele>
        <time>2015-09-27T09:47:01Z</time>
      </trkpt>
      <trkpt lat="48.68194" lon="2.00735">
        <ele>167.89</ele>
        <time>2015-09-27T09:47:19Z</time>
      </trkpt>
      <trkpt lat="48.68197" lon="2.00712">
        <ele>168.37</ele>
        <time>2015-09-27T09:47:32Z</time>
      </trkpt>
      <trkpt lat="48.682" lon="2.00682">
        <ele>168.37</ele>
        <time>2015-09-27T09:47:50Z</time>
      </trkpt>
      <trkpt lat="48.68213" lon="2.00658">
        <ele>168.37</ele>
        <time>2015-09-27T09:48:04Z</time>
      </trkpt>
      <trkpt lat="48.68219" lon="2.00632">
        <ele>168.37</ele>
        <time>2015-09-27T09:48:20Z</time>
      </trkpt>
      <trkpt lat="48.68226" lon="2.00603">
        <ele>168.85</ele>
        <time>2015-09-27T09:48:37Z</time>
      </trkpt>
      <trkpt lat="48.68234" lon="2.00571">
        <ele>168.85</ele>
        <time>2015-09-27T09:48:54Z</time>
      </trkpt>
      <trkpt lat="48.6824" lon="2.00547">
        <ele>168.37</ele>
        <time>2015-09-27T09:49:08Z</time>
      </trkpt>
      <trkpt lat="48.68246" lon="2.00522">
        <ele>168.37</ele>
        <time>2015-09-27T09:49:24Z</time>
      </trkpt>
      <trkpt lat="48.68254" lon="2.00497">
        <ele>168.37</ele>
        <time>2015-09-27T09:49:39Z</time>
      </trkpt>
      <trkpt lat="48.6826" lon="2.00468">
        <ele>168.37</ele>
        <time>2015-09-27T09:49:56Z</time>
      </trkpt>
      <trkpt lat="48.68263" lon="2.00458">
        <ele>168.85</ele>
        <time>2015-09-27T09:50:02Z</time>
      </trkpt>
      <trkpt lat="48.68266" lon="2.00449">
        <ele>168.85</ele>
        <time>2015-09-27T09:50:08Z</time>
      </trkpt>
      <trkpt lat="48.68275" lon="2.00414">
        <ele>168.85</ele>
        <time>2015-09-27T09:50:28Z</time>
      </trkpt>
      <trkpt lat="48.68282" lon="2.00389">
        <ele>169.33</ele>
        <time>2015-09-27T09:50:44Z</time>
      </trkpt>
      <trkpt lat="48.68289" lon="2.00363">
        <ele>169.33</ele>
        <time>2015-09-27T09:50:59Z</time>
      </trkpt>
      <trkpt lat="48.68297" lon="2.0034">
        <ele>168.85</ele>
        <time>2015-09-27T09:51:13Z</time>
      </trkpt>
      <trkpt lat="48.68306" lon="2.00318">
        <ele>168.85</ele>
        <time>2015-09-27T09:51:27Z</time>
      </trkpt>
      <trkpt lat="48.68307" lon="2.00312">
        <ele>169.33</ele>
        <time>2015-09-27T09:51:31Z</time>
      </trkpt>
      <trkpt lat="48.68305" lon="2.00284">
        <ele>168.85</ele>
        <time>2015-09-27T09:51:47Z</time>
      </trkpt>
      <trkpt lat="48.68306" lon="2.00282">
        <ele>169.81</ele>
        <time>2015-09-27T09:51:57Z</time>
      </trkpt>
      <trkpt lat="48.68307" lon="2.00277">
        <ele>169.33</ele>
        <time>2015-09-27T09:52:00Z</time>
      </trkpt>
      <trkpt lat="48.68308" lon="2.00256">
        <ele>169.81</ele>
        <time>2015-09-27T09:52:12Z</time>
      </trkpt>
      <trkpt lat="48.6831" lon="2.00227">
        <ele>169.81</ele>
        <time>2015-09-27T09:52:29Z</time>
      </trkpt>
      <trkpt lat="48.68312" lon="2.00198">
        <ele>169.81</ele>
        <time>2015-09-27T09:52:46Z</time>
      </trkpt>
      <trkpt lat="48.68315" lon="2.00169">
        <ele>169.81</ele>
        <time>2015-09-27T09:53:02Z</time>
      </trkpt>
      <trkpt lat="48.68309" lon="2.00152">
        <ele>170.77</ele>
        <time>2015-09-27T09:53:13Z</time>
      </trkpt>
      <trkpt lat="48.68298" lon="2.00127">
        <ele>170.29</ele>
        <time>2015-09-27T09:53:31Z</time>
      </trkpt>
      <trkpt lat="48.68289" lon="2.00115">
        <ele>170.77</ele>
        <time>2015-09-27T09:53:40Z</time>
      </trkpt>
      <trkpt lat="48.68286" lon="2.00112">
        <ele>170.29</ele>
        <time>2015-09-27T09:53:43Z</time>
      </trkpt>
      <trkpt lat="48.68277" lon="2.00093">
        <ele>170.29</ele>
        <time>2015-09-27T09:53:57Z</time>
      </trkpt>
      <trkpt lat="48.68275" lon="2.00092">
        <ele>170.77</ele>
        <time>2015-09-27T09:54:13Z</time>
      </trkpt>
      <trkpt lat="48.68276" lon="2.00096">
        <ele>170.29</ele>
        <time>2015-09-27T09:54:35Z</time>
      </trkpt>
      <trkpt lat="48.68274" lon="2.00095">
        <ele>170.29</ele>
        <time>2015-09-27T09:54:54Z</time>
      </trkpt>
      <trkpt lat="48.68273" lon="2.00098">
        <ele>170.29</ele>
        <time>2015-09-27T09:55:18Z</time>
      </trkpt>
      <trkpt lat="48.68273" lon="2.00099">
        <ele>170.29</ele>
        <time>2015-09-27T09:55:35Z</time>
      </trkpt>
      <trkpt lat="48.68274" lon="2.00098">
        <ele>170.29</ele>
        <time>2015-09-27T09:55:52Z</time>
      </trkpt>
      <trkpt lat="48.68275" lon="2.00094">
        <ele>170.77</ele>
        <time>2015-09-27T09:56:07Z</time>
      </trkpt>
      <trkpt lat="48.68277" lon="2.00095">
        <ele>170.77</ele>
        <time>2015-09-27T09:56:30Z</time>
      </trkpt>
      <trkpt lat="48.68284" lon="2.00094">
        <ele>170.77</ele>
        <time>2015-09-27T09:56:53Z</time>
      </trkpt>
      <trkpt lat="48.68289" lon="2.00091">
        <ele>170.77</ele>
        <time>2015-09-27T09:57:17Z</time>
      </trkpt>
      <trkpt lat="48.68289" lon="2.0009">
        <ele>170.77</ele>
        <time>2015-09-27T09:57:18Z</time>
      </trkpt>
      <trkpt lat="48.68275" lon="2.00056">
        <ele>170.77</ele>
        <time>2015-09-27T09:57:35Z</time>
      </trkpt>
      <trkpt lat="48.68273" lon="2.00048">
        <ele>170.77</ele>
        <time>2015-09-27T09:57:40Z</time>
      </trkpt>
      <trkpt lat="48.68266" lon="2.00033">
        <ele>171.25</ele>
        <time>2015-09-27T09:57:50Z</time>
      </trkpt>
      <trkpt lat="48.68266" lon="2.00024">
        <ele>171.25</ele>
        <time>2015-09-27T09:57:55Z</time>
      </trkpt>
      <trkpt lat="48.68273" lon="2">
        <ele>171.73</ele>
        <time>2015-09-27T09:58:11Z</time>
      </trkpt>
      <trkpt lat="48.68274" lon="1.99997">
        <ele>171.25</ele>
        <time>2015-09-27T09:58:13Z</time>
      </trkpt>
      <trkpt lat="48.68275" lon="1.99994">
        <ele>171.25</ele>
        <time>2015-09-27T09:58:15Z</time>
      </trkpt>
      <trkpt lat="48.68285" lon="1.99975">
        <ele>171.73</ele>
        <time>2015-09-27T09:58:29Z</time>
      </trkpt>
      <trkpt lat="48.68295" lon="1.99952">
        <ele>172.21</ele>
        <time>2015-09-27T09:58:45Z</time>
      </trkpt>
      <trkpt lat="48.68307" lon="1.99932">
        <ele>172.21</ele>
        <time>2015-09-27T09:58:59Z</time>
      </trkpt>
      <trkpt lat="48.68314" lon="1.9991">
        <ele>172.69</ele>
        <time>2015-09-27T09:59:13Z</time>
      </trkpt>
      <trkpt lat="48.68323" lon="1.99885">
        <ele>172.69</ele>
        <time>2015-09-27T09:59:29Z</time>
      </trkpt>
      <trkpt lat="48.68328" lon="1.99868">
        <ele>172.69</ele>
        <time>2015-09-27T09:59:40Z</time>
      </trkpt>
      <trkpt lat="48.68329" lon="1.99865">
        <ele>172.69</ele>
        <time>2015-09-27T09:59:42Z</time>
      </trkpt>
      <trkpt lat="48.68335" lon="1.99849">
        <ele>172.21</ele>
        <time>2015-09-27T09:59:50Z</time>
      </trkpt>
      <trkpt lat="48.68341" lon="1.99827">
        <ele>172.69</ele>
        <time>2015-09-27T10:00:05Z</time>
      </trkpt>
      <trkpt lat="48.68349" lon="1.99803">
        <ele>172.69</ele>
        <time>2015-09-27T10:00:20Z</time>
      </trkpt>
      <trkpt lat="48.6835" lon="1.99796">
        <ele>172.69</ele>
        <time>2015-09-27T10:00:24Z</time>
      </trkpt>
      <trkpt lat="48.68357" lon="1.99775">
        <ele>172.69</ele>
        <time>2015-09-27T10:00:37Z</time>
      </trkpt>
      <trkpt lat="48.68367" lon="1.99752">
        <ele>172.69</ele>
        <time>2015-09-27T10:00:52Z</time>
      </trkpt>
      <trkpt lat="48.68374" lon="1.99729">
        <ele>172.69</ele>
        <time>2015-09-27T10:01:07Z</time>
      </trkpt>
      <trkpt lat="48.68383" lon="1.99704">
        <ele>172.69</ele>
        <time>2015-09-27T10:01:23Z</time>
      </trkpt>
      <trkpt lat="48.68387" lon="1.99697">
        <ele>172.69</ele>
        <time>2015-09-27T10:01:32Z</time>
      </trkpt>
      <trkpt lat="48.6839" lon="1.99695">
        <ele>173.17</ele>
        <time>2015-09-27T10:01:35Z</time>
      </trkpt>
      <trkpt lat="48.684" lon="1.99671">
        <ele>172.69</ele>
        <time>2015-09-27T10:01:50Z</time>
      </trkpt>
      <trkpt lat="48.68409" lon="1.99643">
        <ele>172.69</ele>
        <time>2015-09-27T10:02:08Z</time>
      </trkpt>
      <trkpt lat="48.68418" lon="1.99615">
        <ele>172.69</ele>
        <time>2015-09-27T10:02:25Z</time>
      </trkpt>
      <trkpt lat="48.68427" lon="1.99591">
        <ele>172.69</ele>
        <time>2015-09-27T10:02:41Z</time>
      </trkpt>
      <trkpt lat="48.68436" lon="1.99565">
        <ele>172.21</ele>
        <time>2015-09-27T10:02:58Z</time>
      </trkpt>
      <trkpt lat="48.68443" lon="1.99545">
        <ele>171.25</ele>
        <time>2015-09-27T10:03:11Z</time>
      </trkpt>
      <trkpt lat="48.68452" lon="1.99518">
        <ele>171.73</ele>
        <time>2015-09-27T10:03:28Z</time>
      </trkpt>
      <trkpt lat="48.68458" lon="1.99495">
        <ele>171.73</ele>
        <time>2015-09-27T10:03:43Z</time>
      </trkpt>
      <trkpt lat="48.68462" lon="1.99485">
        <ele>171.25</ele>
        <time>2015-09-27T10:03:49Z</time>
      </trkpt>
      <trkpt lat="48.6847" lon="1.99457">
        <ele>171.73</ele>
        <time>2015-09-27T10:04:07Z</time>
      </trkpt>
      <trkpt lat="48.68471" lon="1.99455">
        <ele>171.25</ele>
        <time>2015-09-27T10:04:08Z</time>
      </trkpt>
      <trkpt lat="48.68477" lon="1.9944">
        <ele>171.25</ele>
        <time>2015-09-27T10:04:19Z</time>
      </trkpt>
      <trkpt lat="48.68484" lon="1.99419">
        <ele>172.21</ele>
        <time>2015-09-27T10:04:32Z</time>
      </trkpt>
      <trkpt lat="48.68491" lon="1.99398">
        <ele>171.25</ele>
        <time>2015-09-27T10:04:45Z</time>
      </trkpt>
      <trkpt lat="48.68499" lon="1.99373">
        <ele>171.25</ele>
        <time>2015-09-27T10:05:01Z</time>
      </trkpt>
      <trkpt lat="48.685" lon="1.99368">
        <ele>171.25</ele>
        <time>2015-09-27T10:05:04Z</time>
      </trkpt>
      <trkpt lat="48.68501" lon="1.99362">
        <ele>171.25</ele>
        <time>2015-09-27T10:05:08Z</time>
      </trkpt>
      <trkpt lat="48.68509" lon="1.99337">
        <ele>171.25</ele>
        <time>2015-09-27T10:05:24Z</time>
      </trkpt>
      <trkpt lat="48.68513" lon="1.99325">
        <ele>171.73</ele>
        <time>2015-09-27T10:05:31Z</time>
      </trkpt>
      <trkpt lat="48.68516" lon="1.99319">
        <ele>171.25</ele>
        <time>2015-09-27T10:05:35Z</time>
      </trkpt>
      <trkpt lat="48.6852" lon="1.99309">
        <ele>170.77</ele>
        <time>2015-09-27T10:05:41Z</time>
      </trkpt>
      <trkpt lat="48.68523" lon="1.99301">
        <ele>171.25</ele>
        <time>2015-09-27T10:05:46Z</time>
      </trkpt>
      <trkpt lat="48.68527" lon="1.99286">
        <ele>171.25</ele>
        <time>2015-09-27T10:05:55Z</time>
      </trkpt>
      <trkpt lat="48.68534" lon="1.99265">
        <ele>171.25</ele>
        <time>2015-09-27T10:06:09Z</time>
      </trkpt>
      <trkpt lat="48.68536" lon="1.99257">
        <ele>170.77</ele>
        <time>2015-09-27T10:06:14Z</time>
      </trkpt>
      <trkpt lat="48.68545" lon="1.99235">
        <ele>170.77</ele>
        <time>2015-09-27T10:06:29Z</time>
      </trkpt>
      <trkpt lat="48.68549" lon="1.99224">
        <ele>170.77</ele>
        <time>2015-09-27T10:06:36Z</time>
      </trkpt>
      <trkpt lat="48.68558" lon="1.992">
        <ele>170.77</ele>
        <time>2015-09-27T10:06:51Z</time>
      </trkpt>
      <trkpt lat="48.68559" lon="1.99192">
        <ele>170.29</ele>
        <time>2015-09-27T10:06:56Z</time>
      </trkpt>
      <trkpt lat="48.68557" lon="1.99177">
        <ele>170.29</ele>
        <time>2015-09-27T10:07:07Z</time>
      </trkpt>
      <trkpt lat="48.68547" lon="1.99162">
        <ele>169.81</ele>
        <time>2015-09-27T10:07:22Z</time>
      </trkpt>
      <trkpt lat="48.68542" lon="1.9916">
        <ele>169.81</ele>
        <time>2015-09-27T10:07:36Z</time>
      </trkpt>
      <trkpt lat="48.68542" lon="1.99159">
        <ele>169.81</ele>
        <time>2015-09-27T10:08:01Z</time>
      </trkpt>
      <trkpt lat="48.68541" lon="1.99159">
        <ele>170.29</ele>
        <time>2015-09-27T10:08:28Z</time>
      </trkpt>
      <trkpt lat="48.6854" lon="1.99156">
        <ele>169.81</ele>
        <time>2015-09-27T10:08:47Z</time>
      </trkpt>
      <trkpt lat="48.68533" lon="1.99154">
        <ele>169.33</ele>
        <time>2015-09-27T10:09:06Z</time>
      </trkpt>
      <trkpt lat="48.68517" lon="1.9914">
        <ele>169.33</ele>
        <time>2015-09-27T10:09:21Z</time>
      </trkpt>
      <trkpt lat="48.68508" lon="1.99126">
        <ele>169.33</ele>
        <time>2015-09-27T10:09:33Z</time>
      </trkpt>
      <trkpt lat="48.68505" lon="1.99107">
        <ele>169.33</ele>
        <time>2015-09-27T10:09:46Z</time>
      </trkpt>
      <trkpt lat="48.68504" lon="1.99094">
        <ele>168.85</ele>
        <time>2015-09-27T10:09:53Z</time>
      </trkpt>
      <trkpt lat="48.68506" lon="1.99085">
        <ele>168.85</ele>
        <time>2015-09-27T10:09:58Z</time>
      </trkpt>
      <trkpt lat="48.68506" lon="1.99082">
        <ele>168.85</ele>
        <time>2015-09-27T10:10:00Z</time>
      </trkpt>
      <trkpt lat="48.68513" lon="1.99059">
        <ele>167.89</ele>
        <time>2015-09-27T10:10:15Z</time>
      </trkpt>
      <trkpt lat="48.68519" lon="1.99033">
        <ele>167.89</ele>
        <time>2015-09-27T10:10:31Z</time>
      </trkpt>
      <trkpt lat="48.68519" lon="1.9903">
        <ele>167.89</ele>
        <time>2015-09-27T10:10:33Z</time>
      </trkpt>
      <trkpt lat="48.68522" lon="1.99023">
        <ele>167.89</ele>
        <time>2015-09-27T10:10:38Z</time>
      </trkpt>
      <trkpt lat="48.6852" lon="1.99013">
        <ele>167.89</ele>
        <time>2015-09-27T10:10:54Z</time>
      </trkpt>
      <trkpt lat="48.68522" lon="1.99011">
        <ele>167.89</ele>
        <time>2015-09-27T10:11:11Z</time>
      </trkpt>
      <trkpt lat="48.68523" lon="1.99012">
        <ele>167.41</ele>
        <time>2015-09-27T10:11:28Z</time>
      </trkpt>
      <trkpt lat="48.68524" lon="1.99008">
        <ele>167.89</ele>
        <time>2015-09-27T10:11:52Z</time>
      </trkpt>
      <trkpt lat="48.68528" lon="1.98995">
        <ele>167.41</ele>
        <time>2015-09-27T10:12:05Z</time>
      </trkpt>
      <trkpt lat="48.6853" lon="1.98991">
        <ele>166.45</ele>
        <time>2015-09-27T10:12:19Z</time>
      </trkpt>
      <trkpt lat="48.6853" lon="1.98988">
        <ele>166.93</ele>
        <time>2015-09-27T10:12:29Z</time>
      </trkpt>
      <trkpt lat="48.68536" lon="1.98972">
        <ele>166.93</ele>
        <time>2015-09-27T10:12:39Z</time>
      </trkpt>
      <trkpt lat="48.68538" lon="1.98962">
        <ele>166.45</ele>
        <time>2015-09-27T10:12:46Z</time>
      </trkpt>
      <trkpt lat="48.68543" lon="1.98936">
        <ele>165.96</ele>
        <time>2015-09-27T10:13:01Z</time>
      </trkpt>
      <trkpt lat="48.68544" lon="1.98912">
        <ele>165.48</ele>
        <time>2015-09-27T10:13:17Z</time>
      </trkpt>
      <trkpt lat="48.68544" lon="1.98895">
        <ele>165</ele>
        <time>2015-09-27T10:13:30Z</time>
      </trkpt>
      <trkpt lat="48.68543" lon="1.98855">
        <ele>164.04</ele>
        <time>2015-09-27T10:13:49Z</time>
      </trkpt>
      <trkpt lat="48.68547" lon="1.98838">
        <ele>164.04</ele>
        <time>2015-09-27T10:14:07Z</time>
      </trkpt>
      <trkpt lat="48.68543" lon="1.98836">
        <ele>163.56</ele>
        <time>2015-09-27T10:14:29Z</time>
      </trkpt>
      <trkpt lat="48.68541" lon="1.98839">
        <ele>164.04</ele>
        <time>2015-09-27T10:14:49Z</time>
      </trkpt>
      <trkpt lat="48.68559" lon="1.98834">
        <ele>163.56</ele>
        <time>2015-09-27T10:15:07Z</time>
      </trkpt>
      <trkpt lat="48.68574" lon="1.98833">
        <ele>164.52</ele>
        <time>2015-09-27T10:15:22Z</time>
      </trkpt>
      <trkpt lat="48.68585" lon="1.98834">
        <ele>165</ele>
        <time>2015-09-27T10:15:36Z</time>
      </trkpt>
      <trkpt lat="48.68601" lon="1.98829">
        <ele>165.48</ele>
        <time>2015-09-27T10:15:54Z</time>
      </trkpt>
      <trkpt lat="48.68622" lon="1.98826">
        <ele>166.45</ele>
        <time>2015-09-27T10:16:13Z</time>
      </trkpt>
      <trkpt lat="48.68642" lon="1.9883">
        <ele>166.93</ele>
        <time>2015-09-27T10:16:32Z</time>
      </trkpt>
      <trkpt lat="48.6866" lon="1.98828">
        <ele>167.41</ele>
        <time>2015-09-27T10:16:52Z</time>
      </trkpt>
      <trkpt lat="48.68673" lon="1.98822">
        <ele>167.41</ele>
        <time>2015-09-27T10:17:11Z</time>
      </trkpt>
      <trkpt lat="48.68688" lon="1.9881">
        <ele>166.45</ele>
        <time>2015-09-27T10:17:29Z</time>
      </trkpt>
      <trkpt lat="48.68711" lon="1.98797">
        <ele>166.45</ele>
        <time>2015-09-27T10:17:50Z</time>
      </trkpt>
      <trkpt lat="48.68722" lon="1.98783">
        <ele>165</ele>
        <time>2015-09-27T10:18:07Z</time>
      </trkpt>
      <trkpt lat="48.6874" lon="1.98759">
        <ele>164.04</ele>
        <time>2015-09-27T10:18:28Z</time>
      </trkpt>
      <trkpt lat="48.68751" lon="1.98742">
        <ele>162.6</ele>
        <time>2015-09-27T10:18:45Z</time>
      </trkpt>
      <trkpt lat="48.68765" lon="1.98715">
        <ele>161.64</ele>
        <time>2015-09-27T10:19:02Z</time>
      </trkpt>
      <trkpt lat="48.68774" lon="1.98694">
        <ele>160.68</ele>
        <time>2015-09-27T10:19:18Z</time>
      </trkpt>
      <trkpt lat="48.68785" lon="1.98674">
        <ele>160.2</ele>
        <time>2015-09-27T10:19:33Z</time>
      </trkpt>
      <trkpt lat="48.68799" lon="1.98658">
        <ele>159.72</ele>
        <time>2015-09-27T10:19:52Z</time>
      </trkpt>
      <trkpt lat="48.68814" lon="1.98646">
        <ele>159.72</ele>
        <time>2015-09-27T10:20:09Z</time>
      </trkpt>
      <trkpt lat="48.68834" lon="1.98641">
        <ele>159.72</ele>
        <time>2015-09-27T10:20:27Z</time>
      </trkpt>
      <trkpt lat="48.68847" lon="1.98643">
        <ele>159.72</ele>
        <time>2015-09-27T10:20:42Z</time>
      </trkpt>
      <trkpt lat="48.68856" lon="1.98646">
        <ele>160.2</ele>
        <time>2015-09-27T10:20:54Z</time>
      </trkpt>
      <trkpt lat="48.68857" lon="1.98651">
        <ele>160.2</ele>
        <time>2015-09-27T10:21:09Z</time>
      </trkpt>
      <trkpt lat="48.68859" lon="1.98656">
        <ele>160.68</ele>
        <time>2015-09-27T10:21:25Z</time>
      </trkpt>
      <trkpt lat="48.6887" lon="1.98651">
        <ele>159.72</ele>
        <time>2015-09-27T10:21:35Z</time>
      </trkpt>
      <trkpt lat="48.68886" lon="1.98658">
        <ele>158.75</ele>
        <time>2015-09-27T10:21:50Z</time>
      </trkpt>
      <trkpt lat="48.68892" lon="1.98662">
        <ele>158.27</ele>
        <time>2015-09-27T10:21:58Z</time>
      </trkpt>
      <trkpt lat="48.68906" lon="1.98683">
        <ele>157.31</ele>
        <time>2015-09-27T10:22:14Z</time>
      </trkpt>
      <trkpt lat="48.68915" lon="1.98697">
        <ele>156.83</ele>
        <time>2015-09-27T10:22:28Z</time>
      </trkpt>
      <trkpt lat="48.68919" lon="1.98704">
        <ele>156.83</ele>
        <time>2015-09-27T10:22:41Z</time>
      </trkpt>
      <trkpt lat="48.68921" lon="1.98711">
        <ele>157.31</ele>
        <time>2015-09-27T10:22:57Z</time>
      </trkpt>
      <trkpt lat="48.68922" lon="1.98714">
        <ele>157.31</ele>
        <time>2015-09-27T10:23:19Z</time>
      </trkpt>
      <trkpt lat="48.68927" lon="1.98736">
        <ele>158.75</ele>
        <time>2015-09-27T10:23:36Z</time>
      </trkpt>
      <trkpt lat="48.68932" lon="1.98762">
        <ele>160.68</ele>
        <time>2015-09-27T10:23:52Z</time>
      </trkpt>
      <trkpt lat="48.68931" lon="1.98788">
        <ele>161.64</ele>
        <time>2015-09-27T10:24:08Z</time>
      </trkpt>
      <trkpt lat="48.68933" lon="1.9881">
        <ele>162.6</ele>
        <time>2015-09-27T10:24:25Z</time>
      </trkpt>
      <trkpt lat="48.68945" lon="1.98832">
        <ele>162.6</ele>
        <time>2015-09-27T10:24:43Z</time>
      </trkpt>
      <trkpt lat="48.68964" lon="1.98837">
        <ele>162.6</ele>
        <time>2015-09-27T10:25:02Z</time>
      </trkpt>
      <trkpt lat="48.68972" lon="1.98842">
        <ele>162.6</ele>
        <time>2015-09-27T10:25:14Z</time>
      </trkpt>
      <trkpt lat="48.68991" lon="1.98849">
        <ele>162.12</ele>
        <time>2015-09-27T10:25:31Z</time>
      </trkpt>
      <trkpt lat="48.69001" lon="1.98856">
        <ele>162.12</ele>
        <time>2015-09-27T10:25:40Z</time>
      </trkpt>
      <trkpt lat="48.69015" lon="1.98852">
        <ele>161.16</ele>
        <time>2015-09-27T10:26:00Z</time>
      </trkpt>
      <trkpt lat="48.69014" lon="1.98855">
        <ele>161.16</ele>
        <time>2015-09-27T10:26:04Z</time>
      </trkpt>
      <trkpt lat="48.69035" lon="1.98853">
        <ele>160.2</ele>
        <time>2015-09-27T10:26:20Z</time>
      </trkpt>
      <trkpt lat="48.69037" lon="1.98845">
        <ele>159.72</ele>
        <time>2015-09-27T10:26:36Z</time>
      </trkpt>
      <trkpt lat="48.69038" lon="1.98827">
        <ele>157.31</ele>
        <time>2015-09-27T10:26:54Z</time>
      </trkpt>
      <trkpt lat="48.69047" lon="1.98812">
        <ele>153.95</ele>
        <time>2015-09-27T10:27:14Z</time>
      </trkpt>
      <trkpt lat="48.69045" lon="1.98798">
        <ele>152.03</ele>
        <time>2015-09-27T10:27:31Z</time>
      </trkpt>
      <trkpt lat="48.69053" lon="1.98801">
        <ele>150.1</ele>
        <time>2015-09-27T10:27:51Z</time>
      </trkpt>
      <trkpt lat="48.69066" lon="1.98773">
        <ele>147.22</ele>
        <time>2015-09-27T10:28:11Z</time>
      </trkpt>
      <trkpt lat="48.69077" lon="1.98759">
        <ele>143.85</ele>
        <time>2015-09-27T10:28:29Z</time>
      </trkpt>
      <trkpt lat="48.69078" lon="1.98764">
        <ele>144.82</ele>
        <time>2015-09-27T10:28:52Z</time>
      </trkpt>
      <trkpt lat="48.69088" lon="1.98749">
        <ele>143.37</ele>
        <time>2015-09-27T10:29:21Z</time>
      </trkpt>
      <trkpt lat="48.6909" lon="1.9874">
        <ele>141.93</ele>
        <time>2015-09-27T10:29:25Z</time>
      </trkpt>
      <trkpt lat="48.69098" lon="1.98721">
        <ele>139.05</ele>
        <time>2015-09-27T10:29:40Z</time>
      </trkpt>
      <trkpt lat="48.6911" lon="1.98704">
        <ele>135.68</ele>
        <time>2015-09-27T10:29:56Z</time>
      </trkpt>
      <trkpt lat="48.69124" lon="1.98699">
        <ele>134.24</ele>
        <time>2015-09-27T10:30:15Z</time>
      </trkpt>
      <trkpt lat="48.69137" lon="1.98693">
        <ele>132.8</ele>
        <time>2015-09-27T10:30:34Z</time>
      </trkpt>
      <trkpt lat="48.69157" lon="1.98683">
        <ele>130.88</ele>
        <time>2015-09-27T10:30:51Z</time>
      </trkpt>
      <trkpt lat="48.69185" lon="1.98673">
        <ele>127.99</ele>
        <time>2015-09-27T10:31:10Z</time>
      </trkpt>
      <trkpt lat="48.69187" lon="1.9867">
        <ele>128.47</ele>
        <time>2015-09-27T10:31:29Z</time>
      </trkpt>
      <trkpt lat="48.6919" lon="1.9868">
        <ele>128.47</ele>
        <time>2015-09-27T10:32:02Z</time>
      </trkpt>
      <trkpt lat="48.69182" lon="1.98672">
        <ele>128.47</ele>
        <time>2015-09-27T10:32:28Z</time>
      </trkpt>
      <trkpt lat="48.69185" lon="1.98679">
        <ele>128.47</ele>
        <time>2015-09-27T10:32:54Z</time>
      </trkpt>
      <trkpt lat="48.69191" lon="1.98684">
        <ele>127.99</ele>
        <time>2015-09-27T10:33:21Z</time>
      </trkpt>
      <trkpt lat="48.69191" lon="1.98683">
        <ele>128.47</ele>
        <time>2015-09-27T10:33:45Z</time>
      </trkpt>
      <trkpt lat="48.69191" lon="1.98681">
        <ele>128.47</ele>
        <time>2015-09-27T10:34:07Z</time>
      </trkpt>
      <trkpt lat="48.69192" lon="1.98682">
        <ele>128.47</ele>
        <time>2015-09-27T10:34:40Z</time>
      </trkpt>
      <trkpt lat="48.69184" lon="1.98678">
        <ele>128.47</ele>
        <time>2015-09-27T10:35:01Z</time>
      </trkpt>
      <trkpt lat="48.69194" lon="1.98684">
        <ele>128.47</ele>
        <time>2015-09-27T10:35:30Z</time>
      </trkpt>
      <trkpt lat="48.69192" lon="1.98681">
        <ele>128.47</ele>
        <time>2015-09-27T10:35:58Z</time>
      </trkpt>
      <trkpt lat="48.69191" lon="1.98688">
        <ele>128.47</ele>
        <time>2015-09-27T10:36:26Z</time>
      </trkpt>
      <trkpt lat="48.69196" lon="1.98677">
        <ele>128.47</ele>
        <time>2015-09-27T10:36:54Z</time>
      </trkpt>
      <trkpt lat="48.69213" lon="1.98668">
        <ele>127.03</ele>
        <time>2015-09-27T10:37:14Z</time>
      </trkpt>
      <trkpt lat="48.69227" lon="1.98665">
        <ele>125.59</ele>
        <time>2015-09-27T10:37:33Z</time>
      </trkpt>
      <trkpt lat="48.69243" lon="1.98647">
        <ele>122.71</ele>
        <time>2015-09-27T10:37:56Z</time>
      </trkpt>
      <trkpt lat="48.69243" lon="1.9862">
        <ele>120.3</ele>
        <time>2015-09-27T10:38:15Z</time>
      </trkpt>
      <trkpt lat="48.69243" lon="1.98642">
        <ele>121.26</ele>
        <time>2015-09-27T10:38:31Z</time>
      </trkpt>
      <trkpt lat="48.69242" lon="1.98648">
        <ele>122.22</ele>
        <time>2015-09-27T10:38:46Z</time>
      </trkpt>
      <trkpt lat="48.69245" lon="1.98636">
        <ele>121.26</ele>
        <time>2015-09-27T10:39:02Z</time>
      </trkpt>
      <trkpt lat="48.69246" lon="1.98613">
        <ele>118.38</ele>
        <time>2015-09-27T10:39:16Z</time>
      </trkpt>
      <trkpt lat="48.69253" lon="1.98594">
        <ele>115.01</ele>
        <time>2015-09-27T10:39:29Z</time>
      </trkpt>
      <trkpt lat="48.69261" lon="1.98578">
        <ele>111.65</ele>
        <time>2015-09-27T10:39:41Z</time>
      </trkpt>
      <trkpt lat="48.69271" lon="1.98562">
        <ele>108.29</ele>
        <time>2015-09-27T10:39:56Z</time>
      </trkpt>
      <trkpt lat="48.69278" lon="1.98544">
        <ele>105.4</ele>
        <time>2015-09-27T10:40:09Z</time>
      </trkpt>
      <trkpt lat="48.69282" lon="1.9852">
        <ele>103.96</ele>
        <time>2015-09-27T10:40:25Z</time>
      </trkpt>
      <trkpt lat="48.69283" lon="1.98504">
        <ele>102.04</ele>
        <time>2015-09-27T10:40:39Z</time>
      </trkpt>
      <trkpt lat="48.69276" lon="1.98477">
        <ele>99.63</ele>
        <time>2015-09-27T10:40:56Z</time>
      </trkpt>
      <trkpt lat="48.69276" lon="1.98467">
        <ele>97.71</ele>
        <time>2015-09-27T10:41:08Z</time>
      </trkpt>
      <trkpt lat="48.69277" lon="1.98471">
        <ele>98.67</ele>
        <time>2015-09-27T10:41:30Z</time>
      </trkpt>
      <trkpt lat="48.69277" lon="1.98473">
        <ele>98.19</ele>
        <time>2015-09-27T10:41:57Z</time>
      </trkpt>
      <trkpt lat="48.69279" lon="1.9847">
        <ele>98.67</ele>
        <time>2015-09-27T10:42:21Z</time>
      </trkpt>
      <trkpt lat="48.69281" lon="1.98469">
        <ele>98.67</ele>
        <time>2015-09-27T10:42:27Z</time>
      </trkpt>
      <trkpt lat="48.69282" lon="1.98466">
        <ele>98.19</ele>
        <time>2015-09-27T10:42:29Z</time>
      </trkpt>
      <trkpt lat="48.69299" lon="1.98471">
        <ele>97.23</ele>
        <time>2015-09-27T10:42:43Z</time>
      </trkpt>
      <trkpt lat="48.69318" lon="1.98481">
        <ele>98.19</ele>
        <time>2015-09-27T10:43:00Z</time>
      </trkpt>
      <trkpt lat="48.69333" lon="1.98485">
        <ele>97.71</ele>
        <time>2015-09-27T10:43:13Z</time>
      </trkpt>
      <trkpt lat="48.69354" lon="1.98487">
        <ele>97.23</ele>
        <time>2015-09-27T10:43:30Z</time>
      </trkpt>
      <trkpt lat="48.69371" lon="1.98489">
        <ele>95.31</ele>
        <time>2015-09-27T10:43:43Z</time>
      </trkpt>
      <trkpt lat="48.69382" lon="1.98486">
        <ele>94.83</ele>
        <time>2015-09-27T10:43:55Z</time>
      </trkpt>
      <trkpt lat="48.69399" lon="1.9848">
        <ele>93.39</ele>
        <time>2015-09-27T10:44:11Z</time>
      </trkpt>
      <trkpt lat="48.69412" lon="1.98471">
        <ele>92.9</ele>
        <time>2015-09-27T10:44:21Z</time>
      </trkpt>
      <trkpt lat="48.69425" lon="1.98449">
        <ele>90.98</ele>
        <time>2015-09-27T10:44:38Z</time>
      </trkpt>
      <trkpt lat="48.6943" lon="1.98437">
        <ele>90.5</ele>
        <time>2015-09-27T10:44:46Z</time>
      </trkpt>
      <trkpt lat="48.6944" lon="1.98413">
        <ele>89.06</ele>
        <time>2015-09-27T10:45:01Z</time>
      </trkpt>
      <trkpt lat="48.69455" lon="1.9839">
        <ele>87.62</ele>
        <time>2015-09-27T10:45:19Z</time>
      </trkpt>
      <trkpt lat="48.69468" lon="1.98369">
        <ele>86.66</ele>
        <time>2015-09-27T10:45:34Z</time>
      </trkpt>
      <trkpt lat="48.69478" lon="1.9835">
        <ele>86.66</ele>
        <time>2015-09-27T10:45:49Z</time>
      </trkpt>
      <trkpt lat="48.69485" lon="1.98337">
        <ele>86.18</ele>
        <time>2015-09-27T10:45:58Z</time>
      </trkpt>
      <trkpt lat="48.695" lon="1.98317">
        <ele>87.14</ele>
        <time>2015-09-27T10:46:14Z</time>
      </trkpt>
      <trkpt lat="48.69509" lon="1.98313">
        <ele>87.62</ele>
        <time>2015-09-27T10:46:23Z</time>
      </trkpt>
      <trkpt lat="48.69523" lon="1.98307">
        <ele>88.1</ele>
        <time>2015-09-27T10:46:37Z</time>
      </trkpt>
      <trkpt lat="48.69542" lon="1.98302">
        <ele>88.58</ele>
        <time>2015-09-27T10:46:54Z</time>
      </trkpt>
      <trkpt lat="48.69561" lon="1.98296">
        <ele>88.58</ele>
        <time>2015-09-27T10:47:10Z</time>
      </trkpt>
      <trkpt lat="48.69572" lon="1.98289">
        <ele>88.58</ele>
        <time>2015-09-27T10:47:19Z</time>
      </trkpt>
      <trkpt lat="48.69589" lon="1.98274">
        <ele>88.58</ele>
        <time>2015-09-27T10:47:35Z</time>
      </trkpt>
      <trkpt lat="48.69602" lon="1.98255">
        <ele>89.06</ele>
        <time>2015-09-27T10:47:52Z</time>
      </trkpt>
      <trkpt lat="48.69614" lon="1.98242">
        <ele>90.02</ele>
        <time>2015-09-27T10:48:05Z</time>
      </trkpt>
      <trkpt lat="48.69618" lon="1.98234">
        <ele>90.5</ele>
        <time>2015-09-27T10:48:11Z</time>
      </trkpt>
      <trkpt lat="48.69631" lon="1.98215">
        <ele>90.98</ele>
        <time>2015-09-27T10:48:26Z</time>
      </trkpt>
      <trkpt lat="48.69636" lon="1.98206">
        <ele>91.46</ele>
        <time>2015-09-27T10:48:33Z</time>
      </trkpt>
      <trkpt lat="48.69647" lon="1.9819">
        <ele>92.9</ele>
        <time>2015-09-27T10:48:47Z</time>
      </trkpt>
      <trkpt lat="48.69658" lon="1.98166">
        <ele>93.39</ele>
        <time>2015-09-27T10:49:04Z</time>
      </trkpt>
      <trkpt lat="48.69664" lon="1.98154">
        <ele>94.35</ele>
        <time>2015-09-27T10:49:13Z</time>
      </trkpt>
      <trkpt lat="48.69674" lon="1.98132">
        <ele>96.27</ele>
        <time>2015-09-27T10:49:28Z</time>
      </trkpt>
      <trkpt lat="48.69681" lon="1.9811">
        <ele>96.27</ele>
        <time>2015-09-27T10:49:43Z</time>
      </trkpt>
      <trkpt lat="48.69685" lon="1.98096">
        <ele>96.75</ele>
        <time>2015-09-27T10:49:53Z</time>
      </trkpt>
      <trkpt lat="48.69687" lon="1.98081">
        <ele>97.71</ele>
        <time>2015-09-27T10:50:00Z</time>
      </trkpt>
      <trkpt lat="48.69694" lon="1.98066">
        <ele>98.19</ele>
        <time>2015-09-27T10:50:11Z</time>
      </trkpt>
      <trkpt lat="48.69697" lon="1.98059">
        <ele>97.71</ele>
        <time>2015-09-27T10:50:17Z</time>
      </trkpt>
      <trkpt lat="48.69703" lon="1.9804">
        <ele>98.67</ele>
        <time>2015-09-27T10:50:29Z</time>
      </trkpt>
      <trkpt lat="48.6971" lon="1.98023">
        <ele>98.67</ele>
        <time>2015-09-27T10:50:41Z</time>
      </trkpt>
      <trkpt lat="48.69715" lon="1.98">
        <ele>99.15</ele>
        <time>2015-09-27T10:50:55Z</time>
      </trkpt>
      <trkpt lat="48.69721" lon="1.97986">
        <ele>99.63</ele>
        <time>2015-09-27T10:51:06Z</time>
      </trkpt>
      <trkpt lat="48.69727" lon="1.97962">
        <ele>100.11</ele>
        <time>2015-09-27T10:51:21Z</time>
      </trkpt>
      <trkpt lat="48.69732" lon="1.97934">
        <ele>100.11</ele>
        <time>2015-09-27T10:51:36Z</time>
      </trkpt>
      <trkpt lat="48.69734" lon="1.97926">
        <ele>100.6</ele>
        <time>2015-09-27T10:51:41Z</time>
      </trkpt>
      <trkpt lat="48.69742" lon="1.97904">
        <ele>101.08</ele>
        <time>2015-09-27T10:51:56Z</time>
      </trkpt>
      <trkpt lat="48.69745" lon="1.97893">
        <ele>101.08</ele>
        <time>2015-09-27T10:52:03Z</time>
      </trkpt>
      <trkpt lat="48.69754" lon="1.97881">
        <ele>101.56</ele>
        <time>2015-09-27T10:52:17Z</time>
      </trkpt>
      <trkpt lat="48.69756" lon="1.97873">
        <ele>101.56</ele>
        <time>2015-09-27T10:52:31Z</time>
      </trkpt>
      <trkpt lat="48.69757" lon="1.97867">
        <ele>101.56</ele>
        <time>2015-09-27T10:52:48Z</time>
      </trkpt>
      <trkpt lat="48.69754" lon="1.9786">
        <ele>101.56</ele>
        <time>2015-09-27T10:53:14Z</time>
      </trkpt>
      <trkpt lat="48.69761" lon="1.97866">
        <ele>101.08</ele>
        <time>2015-09-27T10:53:23Z</time>
      </trkpt>
      <trkpt lat="48.69783" lon="1.97891">
        <ele>99.63</ele>
        <time>2015-09-27T10:53:39Z</time>
      </trkpt>
      <trkpt lat="48.69784" lon="1.97891">
        <ele>100.11</ele>
        <time>2015-09-27T10:53:40Z</time>
      </trkpt>
      <trkpt lat="48.69791" lon="1.97892">
        <ele>100.11</ele>
        <time>2015-09-27T10:53:57Z</time>
      </trkpt>
      <trkpt lat="48.69793" lon="1.97891">
        <ele>100.6</ele>
        <time>2015-09-27T10:54:19Z</time>
      </trkpt>
      <trkpt lat="48.69795" lon="1.97892">
        <ele>100.6</ele>
        <time>2015-09-27T10:54:54Z</time>
      </trkpt>
      <trkpt lat="48.69796" lon="1.97891">
        <ele>100.6</ele>
        <time>2015-09-27T10:54:56Z</time>
      </trkpt>
      <trkpt lat="48.69801" lon="1.97883">
        <ele>101.08</ele>
        <time>2015-09-27T10:55:11Z</time>
      </trkpt>
      <trkpt lat="48.69804" lon="1.97887">
        <ele>101.08</ele>
        <time>2015-09-27T10:55:18Z</time>
      </trkpt>
      <trkpt lat="48.69806" lon="1.97886">
        <ele>100.6</ele>
        <time>2015-09-27T10:55:20Z</time>
      </trkpt>
      <trkpt lat="48.69825" lon="1.97895">
        <ele>100.11</ele>
        <time>2015-09-27T10:55:36Z</time>
      </trkpt>
      <trkpt lat="48.69828" lon="1.97892">
        <ele>100.6</ele>
        <time>2015-09-27T10:55:39Z</time>
      </trkpt>
      <trkpt lat="48.69835" lon="1.97895">
        <ele>100.6</ele>
        <time>2015-09-27T10:55:45Z</time>
      </trkpt>
      <trkpt lat="48.69849" lon="1.97921">
        <ele>99.63</ele>
        <time>2015-09-27T10:56:01Z</time>
      </trkpt>
      <trkpt lat="48.69869" lon="1.97932">
        <ele>98.19</ele>
        <time>2015-09-27T10:56:20Z</time>
      </trkpt>
      <trkpt lat="48.69891" lon="1.97946">
        <ele>97.23</ele>
        <time>2015-09-27T10:56:37Z</time>
      </trkpt>
      <trkpt lat="48.69905" lon="1.97957">
        <ele>94.83</ele>
        <time>2015-09-27T10:56:50Z</time>
      </trkpt>
      <trkpt lat="48.69909" lon="1.9796">
        <ele>96.75</ele>
        <time>2015-09-27T10:56:53Z</time>
      </trkpt>
      <trkpt lat="48.69927" lon="1.97969">
        <ele>96.27</ele>
        <time>2015-09-27T10:57:07Z</time>
      </trkpt>
      <trkpt lat="48.69944" lon="1.97983">
        <ele>93.87</ele>
        <time>2015-09-27T10:57:23Z</time>
      </trkpt>
      <trkpt lat="48.69955" lon="1.97981">
        <ele>95.31</ele>
        <time>2015-09-27T10:57:33Z</time>
      </trkpt>
      <trkpt lat="48.69968" lon="1.97996">
        <ele>94.35</ele>
        <time>2015-09-27T10:57:48Z</time>
      </trkpt>
      <trkpt lat="48.69987" lon="1.98012">
        <ele>93.87</ele>
        <time>2015-09-27T10:58:04Z</time>
      </trkpt>
      <trkpt lat="48.70006" lon="1.98024">
        <ele>93.39</ele>
        <time>2015-09-27T10:58:20Z</time>
      </trkpt>
      <trkpt lat="48.70025" lon="1.98038">
        <ele>92.42</ele>
        <time>2015-09-27T10:58:36Z</time>
      </trkpt>
      <trkpt lat="48.70044" lon="1.98049">
        <ele>91.94</ele>
        <time>2015-09-27T10:58:53Z</time>
      </trkpt>
      <trkpt lat="48.70063" lon="1.98061">
        <ele>90.98</ele>
        <time>2015-09-27T10:59:11Z</time>
      </trkpt>
      <trkpt lat="48.70077" lon="1.98071">
        <ele>90.98</ele>
        <time>2015-09-27T10:59:22Z</time>
      </trkpt>
      <trkpt lat="48.70097" lon="1.98086">
        <ele>90.5</ele>
        <time>2015-09-27T10:59:39Z</time>
      </trkpt>
      <trkpt lat="48.70103" lon="1.98093">
        <ele>90.5</ele>
        <time>2015-09-27T10:59:52Z</time>
      </trkpt>
      <trkpt lat="48.70101" lon="1.98099">
        <ele>90.5</ele>
        <time>2015-09-27T11:00:06Z</time>
      </trkpt>
      <trkpt lat="48.70103" lon="1.9812">
        <ele>89.54</ele>
        <time>2015-09-27T11:00:19Z</time>
      </trkpt>
      <trkpt lat="48.70096" lon="1.9814">
        <ele>88.1</ele>
        <time>2015-09-27T11:00:31Z</time>
      </trkpt>
      <trkpt lat="48.70094" lon="1.98153">
        <ele>87.62</ele>
        <time>2015-09-27T11:00:38Z</time>
      </trkpt>
      <trkpt lat="48.70087" lon="1.98176">
        <ele>87.14</ele>
        <time>2015-09-27T11:00:53Z</time>
      </trkpt>
      <trkpt lat="48.70093" lon="1.98194">
        <ele>87.62</ele>
        <time>2015-09-27T11:01:07Z</time>
      </trkpt>
      <trkpt lat="48.70107" lon="1.98193">
        <ele>87.62</ele>
        <time>2015-09-27T11:01:18Z</time>
      </trkpt>
      <trkpt lat="48.70115" lon="1.9819">
        <ele>87.62</ele>
        <time>2015-09-27T11:01:25Z</time>
      </trkpt>
      <trkpt lat="48.70134" lon="1.9818">
        <ele>88.1</ele>
        <time>2015-09-27T11:01:41Z</time>
      </trkpt>
      <trkpt lat="48.70156" lon="1.98175">
        <ele>88.58</ele>
        <time>2015-09-27T11:01:59Z</time>
      </trkpt>
      <trkpt lat="48.70166" lon="1.98178">
        <ele>90.02</ele>
        <time>2015-09-27T11:02:10Z</time>
      </trkpt>
      <trkpt lat="48.70171" lon="1.98184">
        <ele>90.5</ele>
        <time>2015-09-27T11:02:16Z</time>
      </trkpt>
      <trkpt lat="48.70188" lon="1.98211">
        <ele>91.46</ele>
        <time>2015-09-27T11:02:34Z</time>
      </trkpt>
      <trkpt lat="48.70196" lon="1.9823">
        <ele>91.46</ele>
        <time>2015-09-27T11:02:47Z</time>
      </trkpt>
      <trkpt lat="48.70204" lon="1.98253">
        <ele>91.94</ele>
        <time>2015-09-27T11:03:04Z</time>
      </trkpt>
      <trkpt lat="48.70207" lon="1.9827">
        <ele>91.46</ele>
        <time>2015-09-27T11:03:15Z</time>
      </trkpt>
      <trkpt lat="48.70215" lon="1.98301">
        <ele>91.46</ele>
        <time>2015-09-27T11:03:32Z</time>
      </trkpt>
      <trkpt lat="48.70223" lon="1.98325">
        <ele>90.98</ele>
        <time>2015-09-27T11:03:46Z</time>
      </trkpt>
      <trkpt lat="48.70226" lon="1.9833">
        <ele>90.5</ele>
        <time>2015-09-27T11:03:50Z</time>
      </trkpt>
      <trkpt lat="48.70242" lon="1.98356">
        <ele>90.98</ele>
        <time>2015-09-27T11:04:09Z</time>
      </trkpt>
      <trkpt lat="48.70247" lon="1.98365">
        <ele>90.98</ele>
        <time>2015-09-27T11:04:16Z</time>
      </trkpt>
      <trkpt lat="48.70261" lon="1.98381">
        <ele>90.5</ele>
        <time>2015-09-27T11:04:30Z</time>
      </trkpt>
      <trkpt lat="48.70283" lon="1.98398">
        <ele>90.02</ele>
        <time>2015-09-27T11:04:49Z</time>
      </trkpt>
      <trkpt lat="48.703" lon="1.98407">
        <ele>90.98</ele>
        <time>2015-09-27T11:05:05Z</time>
      </trkpt>
      <trkpt lat="48.70321" lon="1.98415">
        <ele>90.02</ele>
        <time>2015-09-27T11:05:22Z</time>
      </trkpt>
      <trkpt lat="48.70323" lon="1.98416">
        <ele>90.02</ele>
        <time>2015-09-27T11:05:24Z</time>
      </trkpt>
      <trkpt lat="48.70344" lon="1.98424">
        <ele>90.5</ele>
        <time>2015-09-27T11:05:41Z</time>
      </trkpt>
      <trkpt lat="48.7036" lon="1.98426">
        <ele>90.02</ele>
        <time>2015-09-27T11:05:54Z</time>
      </trkpt>
      <trkpt lat="48.70363" lon="1.98428">
        <ele>90.5</ele>
        <time>2015-09-27T11:05:57Z</time>
      </trkpt>
      <trkpt lat="48.70366" lon="1.9843">
        <ele>90.5</ele>
        <time>2015-09-27T11:06:00Z</time>
      </trkpt>
      <trkpt lat="48.70383" lon="1.98441">
        <ele>90.98</ele>
        <time>2015-09-27T11:06:15Z</time>
      </trkpt>
      <trkpt lat="48.70399" lon="1.98454">
        <ele>90.5</ele>
        <time>2015-09-27T11:06:32Z</time>
      </trkpt>
      <trkpt lat="48.7041" lon="1.98464">
        <ele>90.98</ele>
        <time>2015-09-27T11:06:43Z</time>
      </trkpt>
      <trkpt lat="48.70419" lon="1.98474">
        <ele>90.98</ele>
        <time>2015-09-27T11:06:48Z</time>
      </trkpt>
      <trkpt lat="48.70433" lon="1.9849">
        <ele>92.42</ele>
        <time>2015-09-27T11:07:04Z</time>
      </trkpt>
      <trkpt lat="48.70452" lon="1.98521">
        <ele>93.39</ele>
        <time>2015-09-27T11:07:26Z</time>
      </trkpt>
      <trkpt lat="48.70454" lon="1.98527">
        <ele>91.94</ele>
        <time>2015-09-27T11:07:31Z</time>
      </trkpt>
      <trkpt lat="48.70455" lon="1.9853">
        <ele>92.42</ele>
        <time>2015-09-27T11:07:33Z</time>
      </trkpt>
      <trkpt lat="48.70455" lon="1.98536">
        <ele>93.87</ele>
        <time>2015-09-27T11:07:36Z</time>
      </trkpt>
      <trkpt lat="48.70467" lon="1.9856">
        <ele>95.79</ele>
        <time>2015-09-27T11:07:54Z</time>
      </trkpt>
      <trkpt lat="48.7047" lon="1.98578">
        <ele>96.27</ele>
        <time>2015-09-27T11:08:10Z</time>
      </trkpt>
      <trkpt lat="48.70483" lon="1.98584">
        <ele>94.83</ele>
        <time>2015-09-27T11:08:28Z</time>
      </trkpt>
      <trkpt lat="48.70499" lon="1.98604">
        <ele>95.31</ele>
        <time>2015-09-27T11:08:45Z</time>
      </trkpt>
      <trkpt lat="48.70527" lon="1.98621">
        <ele>94.83</ele>
        <time>2015-09-27T11:09:02Z</time>
      </trkpt>
      <trkpt lat="48.70532" lon="1.98622">
        <ele>94.83</ele>
        <time>2015-09-27T11:09:08Z</time>
      </trkpt>
      <trkpt lat="48.70541" lon="1.98626">
        <ele>94.83</ele>
        <time>2015-09-27T11:09:19Z</time>
      </trkpt>
      <trkpt lat="48.70544" lon="1.98625">
        <ele>94.83</ele>
        <time>2015-09-27T11:09:32Z</time>
      </trkpt>
      <trkpt lat="48.70549" lon="1.98631">
        <ele>94.35</ele>
        <time>2015-09-27T11:09:49Z</time>
      </trkpt>
      <trkpt lat="48.70558" lon="1.98629">
        <ele>93.87</ele>
        <time>2015-09-27T11:10:01Z</time>
      </trkpt>
      <trkpt lat="48.70559" lon="1.98628">
        <ele>93.39</ele>
        <time>2015-09-27T11:10:02Z</time>
      </trkpt>
      <trkpt lat="48.70563" lon="1.98634">
        <ele>98.67</ele>
        <time>2015-09-27T11:59:12Z</time>
      </trkpt>
      <trkpt lat="48.70565" lon="1.9864">
        <ele>98.19</ele>
        <time>2015-09-27T11:59:53Z</time>
      </trkpt>
      <trkpt lat="48.70574" lon="1.98652">
        <ele>97.71</ele>
        <time>2015-09-27T12:00:08Z</time>
      </trkpt>
      <trkpt lat="48.70578" lon="1.9866">
        <ele>97.71</ele>
        <time>2015-09-27T12:00:30Z</time>
      </trkpt>
      <trkpt lat="48.70583" lon="1.98672">
        <ele>97.71</ele>
        <time>2015-09-27T12:00:46Z</time>
      </trkpt>
      <trkpt lat="48.70585" lon="1.98668">
        <ele>97.23</ele>
        <time>2015-09-27T12:03:14Z</time>
      </trkpt>
      <trkpt lat="48.70588" lon="1.98667">
        <ele>96.75</ele>
        <time>2015-09-27T12:03:37Z</time>
      </trkpt>
      <trkpt lat="48.70584" lon="1.98664">
        <ele>97.23</ele>
        <time>2015-09-27T12:03:59Z</time>
      </trkpt>
      <trkpt lat="48.70576" lon="1.98653">
        <ele>97.23</ele>
        <time>2015-09-27T12:04:10Z</time>
      </trkpt>
      <trkpt lat="48.70572" lon="1.98647">
        <ele>97.23</ele>
        <time>2015-09-27T12:04:15Z</time>
      </trkpt>
      <trkpt lat="48.70569" lon="1.98643">
        <ele>97.71</ele>
        <time>2015-09-27T12:04:18Z</time>
      </trkpt>
      <trkpt lat="48.70559" lon="1.98628">
        <ele>97.71</ele>
        <time>2015-09-27T12:04:34Z</time>
      </trkpt>
      <trkpt lat="48.7055" lon="1.98621">
        <ele>98.67</ele>
        <time>2015-09-27T12:04:46Z</time>
      </trkpt>
      <trkpt lat="48.70537" lon="1.98616">
        <ele>99.15</ele>
        <time>2015-09-27T12:05:00Z</time>
      </trkpt>
      <trkpt lat="48.70526" lon="1.98604">
        <ele>99.15</ele>
        <time>2015-09-27T12:05:14Z</time>
      </trkpt>
      <trkpt lat="48.70523" lon="1.98604">
        <ele>99.15</ele>
        <time>2015-09-27T12:05:16Z</time>
      </trkpt>
      <trkpt lat="48.70508" lon="1.98592">
        <ele>99.15</ele>
        <time>2015-09-27T12:05:31Z</time>
      </trkpt>
      <trkpt lat="48.70512" lon="1.98578">
        <ele>100.6</ele>
        <time>2015-09-27T12:05:45Z</time>
      </trkpt>
      <trkpt lat="48.7052" lon="1.98569">
        <ele>101.56</ele>
        <time>2015-09-27T12:06:00Z</time>
      </trkpt>
      <trkpt lat="48.70528" lon="1.98555">
        <ele>103</ele>
        <time>2015-09-27T12:06:15Z</time>
      </trkpt>
      <trkpt lat="48.70534" lon="1.98542">
        <ele>103.96</ele>
        <time>2015-09-27T12:06:26Z</time>
      </trkpt>
      <trkpt lat="48.70537" lon="1.98536">
        <ele>104.92</ele>
        <time>2015-09-27T12:06:31Z</time>
      </trkpt>
      <trkpt lat="48.70542" lon="1.98525">
        <ele>106.36</ele>
        <time>2015-09-27T12:06:41Z</time>
      </trkpt>
      <trkpt lat="48.70544" lon="1.98523">
        <ele>106.84</ele>
        <time>2015-09-27T12:06:43Z</time>
      </trkpt>
      <trkpt lat="48.7055" lon="1.98518">
        <ele>107.81</ele>
        <time>2015-09-27T12:06:55Z</time>
      </trkpt>
      <trkpt lat="48.7055" lon="1.98516">
        <ele>107.81</ele>
        <time>2015-09-27T12:06:57Z</time>
      </trkpt>
      <trkpt lat="48.70554" lon="1.98508">
        <ele>109.25</ele>
        <time>2015-09-27T12:07:08Z</time>
      </trkpt>
      <trkpt lat="48.70555" lon="1.98505">
        <ele>108.77</ele>
        <time>2015-09-27T12:07:11Z</time>
      </trkpt>
      <trkpt lat="48.70557" lon="1.98499">
        <ele>109.73</ele>
        <time>2015-09-27T12:07:17Z</time>
      </trkpt>
      <trkpt lat="48.70557" lon="1.98485">
        <ele>111.65</ele>
        <time>2015-09-27T12:07:28Z</time>
      </trkpt>
      <trkpt lat="48.70557" lon="1.98479">
        <ele>111.65</ele>
        <time>2015-09-27T12:07:42Z</time>
      </trkpt>
      <trkpt lat="48.70564" lon="1.98471">
        <ele>112.61</ele>
        <time>2015-09-27T12:08:03Z</time>
      </trkpt>
      <trkpt lat="48.70564" lon="1.98471">
        <ele>113.09</ele>
        <time>2015-09-27T12:08:04Z</time>
      </trkpt>
      <trkpt lat="48.70566" lon="1.98468">
        <ele>113.09</ele>
        <time>2015-09-27T12:08:14Z</time>
      </trkpt>
      <trkpt lat="48.70572" lon="1.98461">
        <ele>114.53</ele>
        <time>2015-09-27T12:08:27Z</time>
      </trkpt>
      <trkpt lat="48.70576" lon="1.98449">
        <ele>116.94</ele>
        <time>2015-09-27T12:08:41Z</time>
      </trkpt>
      <trkpt lat="48.70585" lon="1.98439">
        <ele>119.34</ele>
        <time>2015-09-27T12:08:59Z</time>
      </trkpt>
      <trkpt lat="48.7059" lon="1.98427">
        <ele>121.74</ele>
        <time>2015-09-27T12:09:18Z</time>
      </trkpt>
      <trkpt lat="48.70595" lon="1.98415">
        <ele>124.63</ele>
        <time>2015-09-27T12:09:35Z</time>
      </trkpt>
      <trkpt lat="48.70601" lon="1.98396">
        <ele>126.55</ele>
        <time>2015-09-27T12:09:56Z</time>
      </trkpt>
      <trkpt lat="48.70602" lon="1.98394">
        <ele>127.99</ele>
        <time>2015-09-27T12:09:59Z</time>
      </trkpt>
      <trkpt lat="48.70611" lon="1.98381">
        <ele>130.88</ele>
        <time>2015-09-27T12:10:19Z</time>
      </trkpt>
      <trkpt lat="48.70607" lon="1.98368">
        <ele>133.76</ele>
        <time>2015-09-27T12:10:39Z</time>
      </trkpt>
      <trkpt lat="48.70611" lon="1.98351">
        <ele>136.64</ele>
        <time>2015-09-27T12:10:59Z</time>
      </trkpt>
      <trkpt lat="48.70612" lon="1.98335">
        <ele>139.53</ele>
        <time>2015-09-27T12:11:18Z</time>
      </trkpt>
      <trkpt lat="48.70612" lon="1.98322">
        <ele>140.97</ele>
        <time>2015-09-27T12:11:34Z</time>
      </trkpt>
      <trkpt lat="48.70607" lon="1.983">
        <ele>142.41</ele>
        <time>2015-09-27T12:11:50Z</time>
      </trkpt>
      <trkpt lat="48.70604" lon="1.98285">
        <ele>143.37</ele>
        <time>2015-09-27T12:12:05Z</time>
      </trkpt>
      <trkpt lat="48.70605" lon="1.98272">
        <ele>144.34</ele>
        <time>2015-09-27T12:12:22Z</time>
      </trkpt>
      <trkpt lat="48.70605" lon="1.98254">
        <ele>144.82</ele>
        <time>2015-09-27T12:12:36Z</time>
      </trkpt>
      <trkpt lat="48.70602" lon="1.98231">
        <ele>145.78</ele>
        <time>2015-09-27T12:12:53Z</time>
      </trkpt>
      <trkpt lat="48.70599" lon="1.98201">
        <ele>147.22</ele>
        <time>2015-09-27T12:13:15Z</time>
      </trkpt>
      <trkpt lat="48.70599" lon="1.98184">
        <ele>148.18</ele>
        <time>2015-09-27T12:13:30Z</time>
      </trkpt>
      <trkpt lat="48.70598" lon="1.98167">
        <ele>150.1</ele>
        <time>2015-09-27T12:13:43Z</time>
      </trkpt>
      <trkpt lat="48.70598" lon="1.98146">
        <ele>151.06</ele>
        <time>2015-09-27T12:14:00Z</time>
      </trkpt>
      <trkpt lat="48.70608" lon="1.9814">
        <ele>152.03</ele>
        <time>2015-09-27T12:14:17Z</time>
      </trkpt>
      <trkpt lat="48.70615" lon="1.98142">
        <ele>151.54</ele>
        <time>2015-09-27T12:14:30Z</time>
      </trkpt>
      <trkpt lat="48.70613" lon="1.98142">
        <ele>151.54</ele>
        <time>2015-09-27T12:14:54Z</time>
      </trkpt>
      <trkpt lat="48.70618" lon="1.98146">
        <ele>152.03</ele>
        <time>2015-09-27T12:15:18Z</time>
      </trkpt>
      <trkpt lat="48.7062" lon="1.9814">
        <ele>152.03</ele>
        <time>2015-09-27T12:15:34Z</time>
      </trkpt>
      <trkpt lat="48.70622" lon="1.98138">
        <ele>152.03</ele>
        <time>2015-09-27T12:15:47Z</time>
      </trkpt>
      <trkpt lat="48.70617" lon="1.98139">
        <ele>152.03</ele>
        <time>2015-09-27T12:16:07Z</time>
      </trkpt>
      <trkpt lat="48.70621" lon="1.98146">
        <ele>151.54</ele>
        <time>2015-09-27T12:16:19Z</time>
      </trkpt>
      <trkpt lat="48.70625" lon="1.98148">
        <ele>151.06</ele>
        <time>2015-09-27T12:16:29Z</time>
      </trkpt>
      <trkpt lat="48.70627" lon="1.98153">
        <ele>151.06</ele>
        <time>2015-09-27T12:16:32Z</time>
      </trkpt>
      <trkpt lat="48.70635" lon="1.98168">
        <ele>151.06</ele>
        <time>2015-09-27T12:16:46Z</time>
      </trkpt>
      <trkpt lat="48.70642" lon="1.98192">
        <ele>150.1</ele>
        <time>2015-09-27T12:17:01Z</time>
      </trkpt>
      <trkpt lat="48.7064" lon="1.98197">
        <ele>149.62</ele>
        <time>2015-09-27T12:17:14Z</time>
      </trkpt>
      <trkpt lat="48.70641" lon="1.98198">
        <ele>149.62</ele>
        <time>2015-09-27T12:17:37Z</time>
      </trkpt>
      <trkpt lat="48.70637" lon="1.98198">
        <ele>149.62</ele>
        <time>2015-09-27T12:18:12Z</time>
      </trkpt>
      <trkpt lat="48.70642" lon="1.98214">
        <ele>149.14</ele>
        <time>2015-09-27T12:18:29Z</time>
      </trkpt>
      <trkpt lat="48.70645" lon="1.9824">
        <ele>148.66</ele>
        <time>2015-09-27T12:18:48Z</time>
      </trkpt>
      <trkpt lat="48.7065" lon="1.98265">
        <ele>146.74</ele>
        <time>2015-09-27T12:19:11Z</time>
      </trkpt>
      <trkpt lat="48.70654" lon="1.98287">
        <ele>143.85</ele>
        <time>2015-09-27T12:19:28Z</time>
      </trkpt>
      <trkpt lat="48.70658" lon="1.98307">
        <ele>141.93</ele>
        <time>2015-09-27T12:19:48Z</time>
      </trkpt>
      <trkpt lat="48.70667" lon="1.98341">
        <ele>140.01</ele>
        <time>2015-09-27T12:20:07Z</time>
      </trkpt>
      <trkpt lat="48.70674" lon="1.9836">
        <ele>137.13</ele>
        <time>2015-09-27T12:20:23Z</time>
      </trkpt>
      <trkpt lat="48.70673" lon="1.98376">
        <ele>134.72</ele>
        <time>2015-09-27T12:20:39Z</time>
      </trkpt>
      <trkpt lat="48.70669" lon="1.9839">
        <ele>132.32</ele>
        <time>2015-09-27T12:20:55Z</time>
      </trkpt>
      <trkpt lat="48.70668" lon="1.98411">
        <ele>130.4</ele>
        <time>2015-09-27T12:21:12Z</time>
      </trkpt>
      <trkpt lat="48.70673" lon="1.98438">
        <ele>127.99</ele>
        <time>2015-09-27T12:21:32Z</time>
      </trkpt>
      <trkpt lat="48.70676" lon="1.98449">
        <ele>127.51</ele>
        <time>2015-09-27T12:21:54Z</time>
      </trkpt>
      <trkpt lat="48.70673" lon="1.9846">
        <ele>127.03</ele>
        <time>2015-09-27T12:22:26Z</time>
      </trkpt>
      <trkpt lat="48.70677" lon="1.98469">
        <ele>126.55</ele>
        <time>2015-09-27T12:22:48Z</time>
      </trkpt>
      <trkpt lat="48.70672" lon="1.98461">
        <ele>126.07</ele>
        <time>2015-09-27T12:23:19Z</time>
      </trkpt>
      <trkpt lat="48.70675" lon="1.98463">
        <ele>126.55</ele>
        <time>2015-09-27T12:23:54Z</time>
      </trkpt>
      <trkpt lat="48.70679" lon="1.98465">
        <ele>126.55</ele>
        <time>2015-09-27T12:24:27Z</time>
      </trkpt>
      <trkpt lat="48.70676" lon="1.98461">
        <ele>126.07</ele>
        <time>2015-09-27T12:24:59Z</time>
      </trkpt>
      <trkpt lat="48.70677" lon="1.98462">
        <ele>127.03</ele>
        <time>2015-09-27T12:25:19Z</time>
      </trkpt>
      <trkpt lat="48.70676" lon="1.98464">
        <ele>126.55</ele>
        <time>2015-09-27T12:25:44Z</time>
      </trkpt>
      <trkpt lat="48.70686" lon="1.98477">
        <ele>126.07</ele>
        <time>2015-09-27T12:26:03Z</time>
      </trkpt>
      <trkpt lat="48.70696" lon="1.98493">
        <ele>123.67</ele>
        <time>2015-09-27T12:26:20Z</time>
      </trkpt>
      <trkpt lat="48.70704" lon="1.98507">
        <ele>121.74</ele>
        <time>2015-09-27T12:26:32Z</time>
      </trkpt>
      <trkpt lat="48.70712" lon="1.9852">
        <ele>119.82</ele>
        <time>2015-09-27T12:26:45Z</time>
      </trkpt>
      <trkpt lat="48.7072" lon="1.98536">
        <ele>116.94</ele>
        <time>2015-09-27T12:27:03Z</time>
      </trkpt>
      <trkpt lat="48.70727" lon="1.98557">
        <ele>114.53</ele>
        <time>2015-09-27T12:27:20Z</time>
      </trkpt>
      <trkpt lat="48.70741" lon="1.98578">
        <ele>112.13</ele>
        <time>2015-09-27T12:27:36Z</time>
      </trkpt>
      <trkpt lat="48.70751" lon="1.98593">
        <ele>111.17</ele>
        <time>2015-09-27T12:27:49Z</time>
      </trkpt>
      <trkpt lat="48.70763" lon="1.9861">
        <ele>109.25</ele>
        <time>2015-09-27T12:28:04Z</time>
      </trkpt>
      <trkpt lat="48.70773" lon="1.98622">
        <ele>108.29</ele>
        <time>2015-09-27T12:28:16Z</time>
      </trkpt>
      <trkpt lat="48.70782" lon="1.98637">
        <ele>106.84</ele>
        <time>2015-09-27T12:28:30Z</time>
      </trkpt>
      <trkpt lat="48.70791" lon="1.9864">
        <ele>105.88</ele>
        <time>2015-09-27T12:28:42Z</time>
      </trkpt>
      <trkpt lat="48.70792" lon="1.98639">
        <ele>105.88</ele>
        <time>2015-09-27T12:28:43Z</time>
      </trkpt>
      <trkpt lat="48.70797" lon="1.98625">
        <ele>105.88</ele>
        <time>2015-09-27T12:28:54Z</time>
      </trkpt>
      <trkpt lat="48.70807" lon="1.98607">
        <ele>106.36</ele>
        <time>2015-09-27T12:29:08Z</time>
      </trkpt>
      <trkpt lat="48.70816" lon="1.9859">
        <ele>107.32</ele>
        <time>2015-09-27T12:29:22Z</time>
      </trkpt>
      <trkpt lat="48.70819" lon="1.98581">
        <ele>106.84</ele>
        <time>2015-09-27T12:29:29Z</time>
      </trkpt>
      <trkpt lat="48.70825" lon="1.98561">
        <ele>105.88</ele>
        <time>2015-09-27T12:29:44Z</time>
      </trkpt>
      <trkpt lat="48.70833" lon="1.98545">
        <ele>106.84</ele>
        <time>2015-09-27T12:29:57Z</time>
      </trkpt>
      <trkpt lat="48.70835" lon="1.98548">
        <ele>106.84</ele>
        <time>2015-09-27T12:30:09Z</time>
      </trkpt>
      <trkpt lat="48.70841" lon="1.98544">
        <ele>106.36</ele>
        <time>2015-09-27T12:30:25Z</time>
      </trkpt>
      <trkpt lat="48.70853" lon="1.98543">
        <ele>105.4</ele>
        <time>2015-09-27T12:30:41Z</time>
      </trkpt>
      <trkpt lat="48.70853" lon="1.98543">
        <ele>105.4</ele>
        <time>2015-09-27T12:30:42Z</time>
      </trkpt>
      <trkpt lat="48.70871" lon="1.98542">
        <ele>103.48</ele>
        <time>2015-09-27T12:30:57Z</time>
      </trkpt>
      <trkpt lat="48.70888" lon="1.98543">
        <ele>101.08</ele>
        <time>2015-09-27T12:31:11Z</time>
      </trkpt>
      <trkpt lat="48.70894" lon="1.98547">
        <ele>101.56</ele>
        <time>2015-09-27T12:31:19Z</time>
      </trkpt>
      <trkpt lat="48.70898" lon="1.98548">
        <ele>101.56</ele>
        <time>2015-09-27T12:31:22Z</time>
      </trkpt>
      <trkpt lat="48.70911" lon="1.98553">
        <ele>99.63</ele>
        <time>2015-09-27T12:31:36Z</time>
      </trkpt>
      <trkpt lat="48.70924" lon="1.9856">
        <ele>98.67</ele>
        <time>2015-09-27T12:31:49Z</time>
      </trkpt>
      <trkpt lat="48.70928" lon="1.98568">
        <ele>98.19</ele>
        <time>2015-09-27T12:32:04Z</time>
      </trkpt>
      <trkpt lat="48.70938" lon="1.98569">
        <ele>96.75</ele>
        <time>2015-09-27T12:32:15Z</time>
      </trkpt>
      <trkpt lat="48.7095" lon="1.9858">
        <ele>95.79</ele>
        <time>2015-09-27T12:32:29Z</time>
      </trkpt>
      <trkpt lat="48.70971" lon="1.98592">
        <ele>94.35</ele>
        <time>2015-09-27T12:32:46Z</time>
      </trkpt>
      <trkpt lat="48.7099" lon="1.98596">
        <ele>93.87</ele>
        <time>2015-09-27T12:33:00Z</time>
      </trkpt>
      <trkpt lat="48.70994" lon="1.98595">
        <ele>92.9</ele>
        <time>2015-09-27T12:33:04Z</time>
      </trkpt>
      <trkpt lat="48.71011" lon="1.98591">
        <ele>92.42</ele>
        <time>2015-09-27T12:33:21Z</time>
      </trkpt>
      <trkpt lat="48.71026" lon="1.98585">
        <ele>91.94</ele>
        <time>2015-09-27T12:33:37Z</time>
      </trkpt>
      <trkpt lat="48.71039" lon="1.98581">
        <ele>91.94</ele>
        <time>2015-09-27T12:33:50Z</time>
      </trkpt>
      <trkpt lat="48.71042" lon="1.9858">
        <ele>91.94</ele>
        <time>2015-09-27T12:33:53Z</time>
      </trkpt>
      <trkpt lat="48.71057" lon="1.9858">
        <ele>90.5</ele>
        <time>2015-09-27T12:34:08Z</time>
      </trkpt>
      <trkpt lat="48.71064" lon="1.98582">
        <ele>90.02</ele>
        <time>2015-09-27T12:34:14Z</time>
      </trkpt>
      <trkpt lat="48.71081" lon="1.98582">
        <ele>89.54</ele>
        <time>2015-09-27T12:34:29Z</time>
      </trkpt>
      <trkpt lat="48.71103" lon="1.98584">
        <ele>89.54</ele>
        <time>2015-09-27T12:34:46Z</time>
      </trkpt>
      <trkpt lat="48.71108" lon="1.98582">
        <ele>89.54</ele>
        <time>2015-09-27T12:34:53Z</time>
      </trkpt>
      <trkpt lat="48.71119" lon="1.98586">
        <ele>89.54</ele>
        <time>2015-09-27T12:35:02Z</time>
      </trkpt>
      <trkpt lat="48.71136" lon="1.98586">
        <ele>89.06</ele>
        <time>2015-09-27T12:35:18Z</time>
      </trkpt>
      <trkpt lat="48.7115" lon="1.98588">
        <ele>89.06</ele>
        <time>2015-09-27T12:35:33Z</time>
      </trkpt>
      <trkpt lat="48.71162" lon="1.98591">
        <ele>89.06</ele>
        <time>2015-09-27T12:35:47Z</time>
      </trkpt>
      <trkpt lat="48.71179" lon="1.98592">
        <ele>89.06</ele>
        <time>2015-09-27T12:36:03Z</time>
      </trkpt>
      <trkpt lat="48.71186" lon="1.98585">
        <ele>89.06</ele>
        <time>2015-09-27T12:36:11Z</time>
      </trkpt>
      <trkpt lat="48.71199" lon="1.98579">
        <ele>89.06</ele>
        <time>2015-09-27T12:36:24Z</time>
      </trkpt>
      <trkpt lat="48.7121" lon="1.98573">
        <ele>89.54</ele>
        <time>2015-09-27T12:36:39Z</time>
      </trkpt>
      <trkpt lat="48.712" lon="1.98577">
        <ele>89.54</ele>
        <time>2015-09-27T12:36:51Z</time>
      </trkpt>
      <trkpt lat="48.7119" lon="1.9859">
        <ele>89.06</ele>
        <time>2015-09-27T12:37:07Z</time>
      </trkpt>
      <trkpt lat="48.71197" lon="1.98584">
        <ele>89.06</ele>
        <time>2015-09-27T12:37:24Z</time>
      </trkpt>
      <trkpt lat="48.71197" lon="1.9858">
        <ele>89.54</ele>
        <time>2015-09-27T12:37:38Z</time>
      </trkpt>
      <trkpt lat="48.71206" lon="1.98575">
        <ele>89.54</ele>
        <time>2015-09-27T12:37:50Z</time>
      </trkpt>
      <trkpt lat="48.71217" lon="1.98566">
        <ele>90.5</ele>
        <time>2015-09-27T12:38:05Z</time>
      </trkpt>
      <trkpt lat="48.71228" lon="1.9855">
        <ele>90.5</ele>
        <time>2015-09-27T12:38:20Z</time>
      </trkpt>
      <trkpt lat="48.71238" lon="1.98533">
        <ele>90.98</ele>
        <time>2015-09-27T12:38:33Z</time>
      </trkpt>
      <trkpt lat="48.71252" lon="1.98519">
        <ele>91.94</ele>
        <time>2015-09-27T12:38:48Z</time>
      </trkpt>
      <trkpt lat="48.71263" lon="1.98505">
        <ele>92.42</ele>
        <time>2015-09-27T12:39:02Z</time>
      </trkpt>
      <trkpt lat="48.71281" lon="1.98499">
        <ele>92.9</ele>
        <time>2015-09-27T12:39:20Z</time>
      </trkpt>
      <trkpt lat="48.71282" lon="1.985">
        <ele>92.9</ele>
        <time>2015-09-27T12:39:21Z</time>
      </trkpt>
      <trkpt lat="48.71302" lon="1.98498">
        <ele>94.35</ele>
        <time>2015-09-27T12:39:39Z</time>
      </trkpt>
      <trkpt lat="48.71312" lon="1.98507">
        <ele>94.83</ele>
        <time>2015-09-27T12:39:53Z</time>
      </trkpt>
      <trkpt lat="48.71328" lon="1.98517">
        <ele>96.27</ele>
        <time>2015-09-27T12:40:10Z</time>
      </trkpt>
      <trkpt lat="48.71342" lon="1.9853">
        <ele>97.71</ele>
        <time>2015-09-27T12:40:29Z</time>
      </trkpt>
      <trkpt lat="48.71356" lon="1.98529">
        <ele>99.63</ele>
        <time>2015-09-27T12:40:48Z</time>
      </trkpt>
      <trkpt lat="48.71341" lon="1.98525">
        <ele>98.19</ele>
        <time>2015-09-27T12:41:04Z</time>
      </trkpt>
      <trkpt lat="48.71328" lon="1.9853">
        <ele>97.71</ele>
        <time>2015-09-27T12:41:18Z</time>
      </trkpt>
      <trkpt lat="48.71326" lon="1.98542">
        <ele>98.19</ele>
        <time>2015-09-27T12:41:32Z</time>
      </trkpt>
      <trkpt lat="48.71324" lon="1.98562">
        <ele>99.63</ele>
        <time>2015-09-27T12:41:45Z</time>
      </trkpt>
      <trkpt lat="48.7132" lon="1.98588">
        <ele>101.08</ele>
        <time>2015-09-27T12:41:59Z</time>
      </trkpt>
      <trkpt lat="48.71315" lon="1.98604">
        <ele>103</ele>
        <time>2015-09-27T12:42:16Z</time>
      </trkpt>
      <trkpt lat="48.71305" lon="1.98632">
        <ele>104.44</ele>
        <time>2015-09-27T12:42:32Z</time>
      </trkpt>
      <trkpt lat="48.713" lon="1.98653">
        <ele>104.92</ele>
        <time>2015-09-27T12:42:47Z</time>
      </trkpt>
      <trkpt lat="48.71289" lon="1.98673">
        <ele>106.36</ele>
        <time>2015-09-27T12:43:06Z</time>
      </trkpt>
      <trkpt lat="48.71279" lon="1.98691">
        <ele>106.36</ele>
        <time>2015-09-27T12:43:23Z</time>
      </trkpt>
      <trkpt lat="48.7127" lon="1.98707">
        <ele>103.48</ele>
        <time>2015-09-27T12:43:41Z</time>
      </trkpt>
      <trkpt lat="48.71264" lon="1.9873">
        <ele>102.04</ele>
        <time>2015-09-27T12:43:58Z</time>
      </trkpt>
      <trkpt lat="48.71255" lon="1.98753">
        <ele>103</ele>
        <time>2015-09-27T12:44:16Z</time>
      </trkpt>
      <trkpt lat="48.71245" lon="1.98776">
        <ele>103</ele>
        <time>2015-09-27T12:44:33Z</time>
      </trkpt>
      <trkpt lat="48.71237" lon="1.98799">
        <ele>102.52</ele>
        <time>2015-09-27T12:44:49Z</time>
      </trkpt>
      <trkpt lat="48.71226" lon="1.9882">
        <ele>101.56</ele>
        <time>2015-09-27T12:45:05Z</time>
      </trkpt>
      <trkpt lat="48.71215" lon="1.98839">
        <ele>101.56</ele>
        <time>2015-09-27T12:45:19Z</time>
      </trkpt>
      <trkpt lat="48.71202" lon="1.98864">
        <ele>102.52</ele>
        <time>2015-09-27T12:45:39Z</time>
      </trkpt>
      <trkpt lat="48.7119" lon="1.98877">
        <ele>103.48</ele>
        <time>2015-09-27T12:45:57Z</time>
      </trkpt>
      <trkpt lat="48.71178" lon="1.98902">
        <ele>104.92</ele>
        <time>2015-09-27T12:46:17Z</time>
      </trkpt>
      <trkpt lat="48.71171" lon="1.98922">
        <ele>104.44</ele>
        <time>2015-09-27T12:46:34Z</time>
      </trkpt>
      <trkpt lat="48.71168" lon="1.98942">
        <ele>103.48</ele>
        <time>2015-09-27T12:46:49Z</time>
      </trkpt>
      <trkpt lat="48.71155" lon="1.98963">
        <ele>102.04</ele>
        <time>2015-09-27T12:47:03Z</time>
      </trkpt>
      <trkpt lat="48.71145" lon="1.98985">
        <ele>101.08</ele>
        <time>2015-09-27T12:47:19Z</time>
      </trkpt>
      <trkpt lat="48.71138" lon="1.98994">
        <ele>100.11</ele>
        <time>2015-09-27T12:47:28Z</time>
      </trkpt>
      <trkpt lat="48.71134" lon="1.99">
        <ele>100.11</ele>
        <time>2015-09-27T12:47:33Z</time>
      </trkpt>
      <trkpt lat="48.71122" lon="1.99019">
        <ele>99.15</ele>
        <time>2015-09-27T12:47:47Z</time>
      </trkpt>
      <trkpt lat="48.71116" lon="1.9903">
        <ele>99.63</ele>
        <time>2015-09-27T12:48:03Z</time>
      </trkpt>
      <trkpt lat="48.71124" lon="1.99028">
        <ele>99.63</ele>
        <time>2015-09-27T12:48:19Z</time>
      </trkpt>
      <trkpt lat="48.71124" lon="1.99025">
        <ele>99.15</ele>
        <time>2015-09-27T12:48:42Z</time>
      </trkpt>
      <trkpt lat="48.71123" lon="1.99036">
        <ele>100.11</ele>
        <time>2015-09-27T12:48:58Z</time>
      </trkpt>
      <trkpt lat="48.71115" lon="1.99034">
        <ele>99.15</ele>
        <time>2015-09-27T12:49:05Z</time>
      </trkpt>
      <trkpt lat="48.71107" lon="1.9904">
        <ele>98.67</ele>
        <time>2015-09-27T12:49:12Z</time>
      </trkpt>
      <trkpt lat="48.71107" lon="1.99045">
        <ele>98.67</ele>
        <time>2015-09-27T12:49:14Z</time>
      </trkpt>
      <trkpt lat="48.71098" lon="1.99072">
        <ele>98.19</ele>
        <time>2015-09-27T12:49:32Z</time>
      </trkpt>
      <trkpt lat="48.71092" lon="1.99094">
        <ele>97.71</ele>
        <time>2015-09-27T12:49:48Z</time>
      </trkpt>
      <trkpt lat="48.71084" lon="1.99129">
        <ele>97.71</ele>
        <time>2015-09-27T12:50:08Z</time>
      </trkpt>
      <trkpt lat="48.71074" lon="1.9916">
        <ele>98.19</ele>
        <time>2015-09-27T12:50:29Z</time>
      </trkpt>
      <trkpt lat="48.71073" lon="1.99162">
        <ele>98.19</ele>
        <time>2015-09-27T12:50:32Z</time>
      </trkpt>
      <trkpt lat="48.71065" lon="1.99191">
        <ele>98.19</ele>
        <time>2015-09-27T12:50:49Z</time>
      </trkpt>
      <trkpt lat="48.71052" lon="1.99217">
        <ele>97.71</ele>
        <time>2015-09-27T12:51:06Z</time>
      </trkpt>
      <trkpt lat="48.71038" lon="1.99236">
        <ele>97.23</ele>
        <time>2015-09-27T12:51:24Z</time>
      </trkpt>
      <trkpt lat="48.71024" lon="1.99261">
        <ele>97.23</ele>
        <time>2015-09-27T12:51:41Z</time>
      </trkpt>
      <trkpt lat="48.71023" lon="1.99268">
        <ele>97.71</ele>
        <time>2015-09-27T12:51:45Z</time>
      </trkpt>
      <trkpt lat="48.71022" lon="1.9928">
        <ele>98.19</ele>
        <time>2015-09-27T12:52:00Z</time>
      </trkpt>
      <trkpt lat="48.71019" lon="1.99285">
        <ele>98.19</ele>
        <time>2015-09-27T12:52:05Z</time>
      </trkpt>
      <trkpt lat="48.71016" lon="1.99298">
        <ele>98.19</ele>
        <time>2015-09-27T12:52:13Z</time>
      </trkpt>
      <trkpt lat="48.71016" lon="1.99302">
        <ele>98.19</ele>
        <time>2015-09-27T12:52:15Z</time>
      </trkpt>
      <trkpt lat="48.7101" lon="1.99326">
        <ele>98.67</ele>
        <time>2015-09-27T12:52:30Z</time>
      </trkpt>
      <trkpt lat="48.71" lon="1.99346">
        <ele>99.15</ele>
        <time>2015-09-27T12:52:45Z</time>
      </trkpt>
      <trkpt lat="48.71002" lon="1.99351">
        <ele>99.63</ele>
        <time>2015-09-27T12:52:49Z</time>
      </trkpt>
      <trkpt lat="48.71019" lon="1.9935">
        <ele>102.04</ele>
        <time>2015-09-27T12:53:04Z</time>
      </trkpt>
      <trkpt lat="48.71033" lon="1.99352">
        <ele>103</ele>
        <time>2015-09-27T12:53:18Z</time>
      </trkpt>
      <trkpt lat="48.71047" lon="1.99355">
        <ele>105.88</ele>
        <time>2015-09-27T12:53:36Z</time>
      </trkpt>
      <trkpt lat="48.71062" lon="1.99357">
        <ele>108.29</ele>
        <time>2015-09-27T12:53:51Z</time>
      </trkpt>
      <trkpt lat="48.71074" lon="1.99355">
        <ele>111.17</ele>
        <time>2015-09-27T12:54:06Z</time>
      </trkpt>
      <trkpt lat="48.71085" lon="1.99341">
        <ele>113.09</ele>
        <time>2015-09-27T12:54:18Z</time>
      </trkpt>
      <trkpt lat="48.71086" lon="1.99344">
        <ele>113.09</ele>
        <time>2015-09-27T12:54:39Z</time>
      </trkpt>
      <trkpt lat="48.71086" lon="1.9935">
        <ele>113.09</ele>
        <time>2015-09-27T12:55:01Z</time>
      </trkpt>
      <trkpt lat="48.71088" lon="1.99344">
        <ele>113.09</ele>
        <time>2015-09-27T12:55:14Z</time>
      </trkpt>
      <trkpt lat="48.71098" lon="1.99348">
        <ele>113.57</ele>
        <time>2015-09-27T12:55:34Z</time>
      </trkpt>
      <trkpt lat="48.71112" lon="1.99345">
        <ele>115.5</ele>
        <time>2015-09-27T12:55:53Z</time>
      </trkpt>
      <trkpt lat="48.71113" lon="1.99324">
        <ele>117.42</ele>
        <time>2015-09-27T12:56:10Z</time>
      </trkpt>
      <trkpt lat="48.71118" lon="1.9931">
        <ele>120.3</ele>
        <time>2015-09-27T12:56:27Z</time>
      </trkpt>
      <trkpt lat="48.71121" lon="1.99299">
        <ele>121.74</ele>
        <time>2015-09-27T12:56:42Z</time>
      </trkpt>
      <trkpt lat="48.71129" lon="1.99293">
        <ele>124.15</ele>
        <time>2015-09-27T12:57:00Z</time>
      </trkpt>
      <trkpt lat="48.71138" lon="1.99294">
        <ele>126.07</ele>
        <time>2015-09-27T12:57:15Z</time>
      </trkpt>
      <trkpt lat="48.71147" lon="1.99297">
        <ele>128.95</ele>
        <time>2015-09-27T12:57:34Z</time>
      </trkpt>
      <trkpt lat="48.7116" lon="1.9929">
        <ele>130.88</ele>
        <time>2015-09-27T12:57:53Z</time>
      </trkpt>
      <trkpt lat="48.71177" lon="1.9928">
        <ele>133.28</ele>
        <time>2015-09-27T12:58:12Z</time>
      </trkpt>
      <trkpt lat="48.71184" lon="1.99275">
        <ele>135.2</ele>
        <time>2015-09-27T12:58:26Z</time>
      </trkpt>
      <trkpt lat="48.71195" lon="1.99275">
        <ele>138.09</ele>
        <time>2015-09-27T12:58:42Z</time>
      </trkpt>
      <trkpt lat="48.71205" lon="1.99266">
        <ele>140.49</ele>
        <time>2015-09-27T12:59:00Z</time>
      </trkpt>
      <trkpt lat="48.71214" lon="1.99251">
        <ele>143.37</ele>
        <time>2015-09-27T12:59:18Z</time>
      </trkpt>
      <trkpt lat="48.71222" lon="1.99237">
        <ele>145.78</ele>
        <time>2015-09-27T12:59:34Z</time>
      </trkpt>
      <trkpt lat="48.71223" lon="1.99223">
        <ele>147.7</ele>
        <time>2015-09-27T12:59:49Z</time>
      </trkpt>
      <trkpt lat="48.71237" lon="1.99226">
        <ele>150.1</ele>
        <time>2015-09-27T13:00:07Z</time>
      </trkpt>
      <trkpt lat="48.71237" lon="1.99241">
        <ele>152.03</ele>
        <time>2015-09-27T13:00:21Z</time>
      </trkpt>
      <trkpt lat="48.71241" lon="1.99257">
        <ele>154.91</ele>
        <time>2015-09-27T13:00:38Z</time>
      </trkpt>
      <trkpt lat="48.71248" lon="1.99267">
        <ele>157.31</ele>
        <time>2015-09-27T13:00:56Z</time>
      </trkpt>
      <trkpt lat="48.71257" lon="1.99272">
        <ele>159.72</ele>
        <time>2015-09-27T13:01:12Z</time>
      </trkpt>
      <trkpt lat="48.71269" lon="1.99274">
        <ele>160.68</ele>
        <time>2015-09-27T13:01:29Z</time>
      </trkpt>
      <trkpt lat="48.71265" lon="1.99273">
        <ele>160.68</ele>
        <time>2015-09-27T13:01:51Z</time>
      </trkpt>
      <trkpt lat="48.71263" lon="1.99273">
        <ele>161.16</ele>
        <time>2015-09-27T13:02:18Z</time>
      </trkpt>
      <trkpt lat="48.71258" lon="1.99273">
        <ele>161.16</ele>
        <time>2015-09-27T13:02:47Z</time>
      </trkpt>
      <trkpt lat="48.71262" lon="1.99283">
        <ele>161.16</ele>
        <time>2015-09-27T13:03:07Z</time>
      </trkpt>
      <trkpt lat="48.71263" lon="1.99274">
        <ele>161.64</ele>
        <time>2015-09-27T13:03:32Z</time>
      </trkpt>
      <trkpt lat="48.71261" lon="1.99279">
        <ele>161.64</ele>
        <time>2015-09-27T13:03:59Z</time>
      </trkpt>
      <trkpt lat="48.71263" lon="1.99276">
        <ele>161.16</ele>
        <time>2015-09-27T13:04:24Z</time>
      </trkpt>
      <trkpt lat="48.7126" lon="1.99283">
        <ele>161.64</ele>
        <time>2015-09-27T13:04:53Z</time>
      </trkpt>
      <trkpt lat="48.71264" lon="1.99283">
        <ele>161.64</ele>
        <time>2015-09-27T13:05:14Z</time>
      </trkpt>
      <trkpt lat="48.71276" lon="1.99293">
        <ele>163.08</ele>
        <time>2015-09-27T13:05:33Z</time>
      </trkpt>
      <trkpt lat="48.71287" lon="1.99305">
        <ele>164.52</ele>
        <time>2015-09-27T13:05:50Z</time>
      </trkpt>
      <trkpt lat="48.71303" lon="1.99323">
        <ele>165.48</ele>
        <time>2015-09-27T13:06:09Z</time>
      </trkpt>
      <trkpt lat="48.71319" lon="1.99331">
        <ele>165.48</ele>
        <time>2015-09-27T13:06:23Z</time>
      </trkpt>
      <trkpt lat="48.71331" lon="1.99338">
        <ele>165</ele>
        <time>2015-09-27T13:06:40Z</time>
      </trkpt>
      <trkpt lat="48.71349" lon="1.99347">
        <ele>165.96</ele>
        <time>2015-09-27T13:06:59Z</time>
      </trkpt>
      <trkpt lat="48.71371" lon="1.99362">
        <ele>165.96</ele>
        <time>2015-09-27T13:07:16Z</time>
      </trkpt>
      <trkpt lat="48.71389" lon="1.99374">
        <ele>166.45</ele>
        <time>2015-09-27T13:07:35Z</time>
      </trkpt>
      <trkpt lat="48.71404" lon="1.99383">
        <ele>165.96</ele>
        <time>2015-09-27T13:07:51Z</time>
      </trkpt>
      <trkpt lat="48.71421" lon="1.99397">
        <ele>166.45</ele>
        <time>2015-09-27T13:08:08Z</time>
      </trkpt>
      <trkpt lat="48.71438" lon="1.99406">
        <ele>165.96</ele>
        <time>2015-09-27T13:08:23Z</time>
      </trkpt>
      <trkpt lat="48.71443" lon="1.99421">
        <ele>165.96</ele>
        <time>2015-09-27T13:08:37Z</time>
      </trkpt>
      <trkpt lat="48.71434" lon="1.99426">
        <ele>165.48</ele>
        <time>2015-09-27T13:08:52Z</time>
      </trkpt>
      <trkpt lat="48.71431" lon="1.99429">
        <ele>165.96</ele>
        <time>2015-09-27T13:09:12Z</time>
      </trkpt>
      <trkpt lat="48.71431" lon="1.9943">
        <ele>165.48</ele>
        <time>2015-09-27T13:09:28Z</time>
      </trkpt>
      <trkpt lat="48.71429" lon="1.99432">
        <ele>165.48</ele>
        <time>2015-09-27T13:09:41Z</time>
      </trkpt>
      <trkpt lat="48.71414" lon="1.99442">
        <ele>165.96</ele>
        <time>2015-09-27T13:09:55Z</time>
      </trkpt>
      <trkpt lat="48.71395" lon="1.9945">
        <ele>165.96</ele>
        <time>2015-09-27T13:10:13Z</time>
      </trkpt>
      <trkpt lat="48.71377" lon="1.99463">
        <ele>165.96</ele>
        <time>2015-09-27T13:10:30Z</time>
      </trkpt>
      <trkpt lat="48.7136" lon="1.99475">
        <ele>165.96</ele>
        <time>2015-09-27T13:10:47Z</time>
      </trkpt>
      <trkpt lat="48.71339" lon="1.99485">
        <ele>165.96</ele>
        <time>2015-09-27T13:11:07Z</time>
      </trkpt>
      <trkpt lat="48.71321" lon="1.99494">
        <ele>165.96</ele>
        <time>2015-09-27T13:11:23Z</time>
      </trkpt>
      <trkpt lat="48.71301" lon="1.99504">
        <ele>165.96</ele>
        <time>2015-09-27T13:11:42Z</time>
      </trkpt>
      <trkpt lat="48.7128" lon="1.99515">
        <ele>165.96</ele>
        <time>2015-09-27T13:12:01Z</time>
      </trkpt>
      <trkpt lat="48.71263" lon="1.99527">
        <ele>165.96</ele>
        <time>2015-09-27T13:12:17Z</time>
      </trkpt>
      <trkpt lat="48.71244" lon="1.99542">
        <ele>165.96</ele>
        <time>2015-09-27T13:12:36Z</time>
      </trkpt>
      <trkpt lat="48.71223" lon="1.99562">
        <ele>165.96</ele>
        <time>2015-09-27T13:12:56Z</time>
      </trkpt>
      <trkpt lat="48.71207" lon="1.99575">
        <ele>166.45</ele>
        <time>2015-09-27T13:13:11Z</time>
      </trkpt>
      <trkpt lat="48.71196" lon="1.99592">
        <ele>165.96</ele>
        <time>2015-09-27T13:13:25Z</time>
      </trkpt>
      <trkpt lat="48.71178" lon="1.9962">
        <ele>165.96</ele>
        <time>2015-09-27T13:13:48Z</time>
      </trkpt>
      <trkpt lat="48.71166" lon="1.99641">
        <ele>165.48</ele>
        <time>2015-09-27T13:14:03Z</time>
      </trkpt>
      <trkpt lat="48.71153" lon="1.99656">
        <ele>165</ele>
        <time>2015-09-27T13:14:18Z</time>
      </trkpt>
      <trkpt lat="48.71139" lon="1.99671">
        <ele>165</ele>
        <time>2015-09-27T13:14:35Z</time>
      </trkpt>
      <trkpt lat="48.71124" lon="1.99687">
        <ele>165</ele>
        <time>2015-09-27T13:14:51Z</time>
      </trkpt>
      <trkpt lat="48.7111" lon="1.99703">
        <ele>165.48</ele>
        <time>2015-09-27T13:15:07Z</time>
      </trkpt>
      <trkpt lat="48.71098" lon="1.99724">
        <ele>165.48</ele>
        <time>2015-09-27T13:15:23Z</time>
      </trkpt>
      <trkpt lat="48.71088" lon="1.99747">
        <ele>165.48</ele>
        <time>2015-09-27T13:15:38Z</time>
      </trkpt>
      <trkpt lat="48.71079" lon="1.99765">
        <ele>164.52</ele>
        <time>2015-09-27T13:15:53Z</time>
      </trkpt>
      <trkpt lat="48.71064" lon="1.99788">
        <ele>165.48</ele>
        <time>2015-09-27T13:16:09Z</time>
      </trkpt>
      <trkpt lat="48.71054" lon="1.99805">
        <ele>165.48</ele>
        <time>2015-09-27T13:16:22Z</time>
      </trkpt>
      <trkpt lat="48.71041" lon="1.99825">
        <ele>165.96</ele>
        <time>2015-09-27T13:16:39Z</time>
      </trkpt>
      <trkpt lat="48.71029" lon="1.99845">
        <ele>166.45</ele>
        <time>2015-09-27T13:16:55Z</time>
      </trkpt>
      <trkpt lat="48.71016" lon="1.9987">
        <ele>165.96</ele>
        <time>2015-09-27T13:17:14Z</time>
      </trkpt>
      <trkpt lat="48.71004" lon="1.99893">
        <ele>166.45</ele>
        <time>2015-09-27T13:17:32Z</time>
      </trkpt>
      <trkpt lat="48.70991" lon="1.99912">
        <ele>166.45</ele>
        <time>2015-09-27T13:17:48Z</time>
      </trkpt>
      <trkpt lat="48.70978" lon="1.99933">
        <ele>166.45</ele>
        <time>2015-09-27T13:18:05Z</time>
      </trkpt>
      <trkpt lat="48.70967" lon="1.9995">
        <ele>165.96</ele>
        <time>2015-09-27T13:18:21Z</time>
      </trkpt>
      <trkpt lat="48.70955" lon="1.9997">
        <ele>165.96</ele>
        <time>2015-09-27T13:18:36Z</time>
      </trkpt>
      <trkpt lat="48.70943" lon="1.99991">
        <ele>165.96</ele>
        <time>2015-09-27T13:18:52Z</time>
      </trkpt>
      <trkpt lat="48.70932" lon="2.00013">
        <ele>165.48</ele>
        <time>2015-09-27T13:19:07Z</time>
      </trkpt>
      <trkpt lat="48.70919" lon="2.00034">
        <ele>165.96</ele>
        <time>2015-09-27T13:19:24Z</time>
      </trkpt>
      <trkpt lat="48.70907" lon="2.00052">
        <ele>165.48</ele>
        <time>2015-09-27T13:19:40Z</time>
      </trkpt>
      <trkpt lat="48.70897" lon="2.0007">
        <ele>165</ele>
        <time>2015-09-27T13:19:55Z</time>
      </trkpt>
      <trkpt lat="48.70884" lon="2.00093">
        <ele>165.48</ele>
        <time>2015-09-27T13:20:12Z</time>
      </trkpt>
      <trkpt lat="48.70874" lon="2.00117">
        <ele>165</ele>
        <time>2015-09-27T13:20:31Z</time>
      </trkpt>
      <trkpt lat="48.7088" lon="2.00142">
        <ele>165.96</ele>
        <time>2015-09-27T13:20:47Z</time>
      </trkpt>
      <trkpt lat="48.70892" lon="2.00148">
        <ele>165.96</ele>
        <time>2015-09-27T13:21:01Z</time>
      </trkpt>
      <trkpt lat="48.70911" lon="2.00155">
        <ele>165</ele>
        <time>2015-09-27T13:21:21Z</time>
      </trkpt>
      <trkpt lat="48.70928" lon="2.00155">
        <ele>165.96</ele>
        <time>2015-09-27T13:21:40Z</time>
      </trkpt>
      <trkpt lat="48.70945" lon="2.00156">
        <ele>166.45</ele>
        <time>2015-09-27T13:21:55Z</time>
      </trkpt>
      <trkpt lat="48.70947" lon="2.00161">
        <ele>166.93</ele>
        <time>2015-09-27T13:22:13Z</time>
      </trkpt>
      <trkpt lat="48.70947" lon="2.00178">
        <ele>166.45</ele>
        <time>2015-09-27T13:22:28Z</time>
      </trkpt>
      <trkpt lat="48.70939" lon="2.00199">
        <ele>166.93</ele>
        <time>2015-09-27T13:22:44Z</time>
      </trkpt>
      <trkpt lat="48.70932" lon="2.00224">
        <ele>166.93</ele>
        <time>2015-09-27T13:23:03Z</time>
      </trkpt>
      <trkpt lat="48.70924" lon="2.00246">
        <ele>166.93</ele>
        <time>2015-09-27T13:23:20Z</time>
      </trkpt>
      <trkpt lat="48.70918" lon="2.00275">
        <ele>166.45</ele>
        <time>2015-09-27T13:23:39Z</time>
      </trkpt>
      <trkpt lat="48.7091" lon="2.00298">
        <ele>166.93</ele>
        <time>2015-09-27T13:23:58Z</time>
      </trkpt>
      <trkpt lat="48.70904" lon="2.00317">
        <ele>166.45</ele>
        <time>2015-09-27T13:24:15Z</time>
      </trkpt>
      <trkpt lat="48.70895" lon="2.00344">
        <ele>166.45</ele>
        <time>2015-09-27T13:24:35Z</time>
      </trkpt>
      <trkpt lat="48.70889" lon="2.00366">
        <ele>165.96</ele>
        <time>2015-09-27T13:24:52Z</time>
      </trkpt>
      <trkpt lat="48.70883" lon="2.00397">
        <ele>166.45</ele>
        <time>2015-09-27T13:25:10Z</time>
      </trkpt>
      <trkpt lat="48.70881" lon="2.00421">
        <ele>166.45</ele>
        <time>2015-09-27T13:25:27Z</time>
      </trkpt>
      <trkpt lat="48.70887" lon="2.00456">
        <ele>166.45</ele>
        <time>2015-09-27T13:25:47Z</time>
      </trkpt>
      <trkpt lat="48.70893" lon="2.00487">
        <ele>166.45</ele>
        <time>2015-09-27T13:26:05Z</time>
      </trkpt>
      <trkpt lat="48.70897" lon="2.00509">
        <ele>166.45</ele>
        <time>2015-09-27T13:26:21Z</time>
      </trkpt>
      <trkpt lat="48.70904" lon="2.00537">
        <ele>166.45</ele>
        <time>2015-09-27T13:26:39Z</time>
      </trkpt>
      <trkpt lat="48.70913" lon="2.00571">
        <ele>166.93</ele>
        <time>2015-09-27T13:27:01Z</time>
      </trkpt>
      <trkpt lat="48.70921" lon="2.006">
        <ele>166.93</ele>
        <time>2015-09-27T13:27:22Z</time>
      </trkpt>
      <trkpt lat="48.7093" lon="2.00633">
        <ele>166.93</ele>
        <time>2015-09-27T13:27:42Z</time>
      </trkpt>
      <trkpt lat="48.70935" lon="2.00654">
        <ele>166.45</ele>
        <time>2015-09-27T13:27:57Z</time>
      </trkpt>
      <trkpt lat="48.70952" lon="2.00673">
        <ele>166.93</ele>
        <time>2015-09-27T13:28:15Z</time>
      </trkpt>
      <trkpt lat="48.70965" lon="2.00692">
        <ele>166.93</ele>
        <time>2015-09-27T13:28:31Z</time>
      </trkpt>
      <trkpt lat="48.70979" lon="2.00706">
        <ele>165.96</ele>
        <time>2015-09-27T13:28:47Z</time>
      </trkpt>
      <trkpt lat="48.70993" lon="2.00719">
        <ele>165.96</ele>
        <time>2015-09-27T13:29:00Z</time>
      </trkpt>
      <trkpt lat="48.71" lon="2.00739">
        <ele>165.96</ele>
        <time>2015-09-27T13:29:16Z</time>
      </trkpt>
      <trkpt lat="48.70992" lon="2.00758">
        <ele>166.45</ele>
        <time>2015-09-27T13:29:33Z</time>
      </trkpt>
      <trkpt lat="48.70983" lon="2.00779">
        <ele>166.45</ele>
        <time>2015-09-27T13:29:47Z</time>
      </trkpt>
      <trkpt lat="48.70983" lon="2.00781">
        <ele>166.45</ele>
        <time>2015-09-27T13:29:48Z</time>
      </trkpt>
      <trkpt lat="48.70973" lon="2.00804">
        <ele>166.45</ele>
        <time>2015-09-27T13:30:04Z</time>
      </trkpt>
      <trkpt lat="48.70962" lon="2.00837">
        <ele>166.93</ele>
        <time>2015-09-27T13:30:24Z</time>
      </trkpt>
      <trkpt lat="48.70956" lon="2.00865">
        <ele>166.93</ele>
        <time>2015-09-27T13:30:41Z</time>
      </trkpt>
      <trkpt lat="48.70948" lon="2.00896">
        <ele>166.93</ele>
        <time>2015-09-27T13:31:01Z</time>
      </trkpt>
      <trkpt lat="48.7094" lon="2.00929">
        <ele>166.45</ele>
        <time>2015-09-27T13:31:20Z</time>
      </trkpt>
      <trkpt lat="48.70933" lon="2.00955">
        <ele>166.45</ele>
        <time>2015-09-27T13:31:36Z</time>
      </trkpt>
      <trkpt lat="48.70925" lon="2.00993">
        <ele>166.45</ele>
        <time>2015-09-27T13:31:58Z</time>
      </trkpt>
      <trkpt lat="48.70918" lon="2.01019">
        <ele>166.93</ele>
        <time>2015-09-27T13:32:15Z</time>
      </trkpt>
      <trkpt lat="48.70907" lon="2.01055">
        <ele>165.96</ele>
        <time>2015-09-27T13:32:35Z</time>
      </trkpt>
      <trkpt lat="48.70902" lon="2.01072">
        <ele>166.45</ele>
        <time>2015-09-27T13:32:48Z</time>
      </trkpt>
      <trkpt lat="48.70893" lon="2.01107">
        <ele>165.96</ele>
        <time>2015-09-27T13:33:08Z</time>
      </trkpt>
      <trkpt lat="48.70884" lon="2.01137">
        <ele>165.48</ele>
        <time>2015-09-27T13:33:25Z</time>
      </trkpt>
      <trkpt lat="48.70877" lon="2.01168">
        <ele>164.52</ele>
        <time>2015-09-27T13:33:43Z</time>
      </trkpt>
      <trkpt lat="48.7087" lon="2.01198">
        <ele>165</ele>
        <time>2015-09-27T13:34:01Z</time>
      </trkpt>
      <trkpt lat="48.70862" lon="2.01226">
        <ele>164.04</ele>
        <time>2015-09-27T13:34:17Z</time>
      </trkpt>
      <trkpt lat="48.70853" lon="2.01256">
        <ele>163.56</ele>
        <time>2015-09-27T13:34:36Z</time>
      </trkpt>
      <trkpt lat="48.70846" lon="2.01288">
        <ele>164.04</ele>
        <time>2015-09-27T13:34:52Z</time>
      </trkpt>
      <trkpt lat="48.70838" lon="2.01315">
        <ele>163.56</ele>
        <time>2015-09-27T13:35:08Z</time>
      </trkpt>
      <trkpt lat="48.7083" lon="2.01346">
        <ele>164.04</ele>
        <time>2015-09-27T13:35:26Z</time>
      </trkpt>
      <trkpt lat="48.7082" lon="2.01376">
        <ele>163.56</ele>
        <time>2015-09-27T13:35:44Z</time>
      </trkpt>
      <trkpt lat="48.70818" lon="2.01406">
        <ele>164.52</ele>
        <time>2015-09-27T13:36:02Z</time>
      </trkpt>
      <trkpt lat="48.70813" lon="2.0144">
        <ele>164.52</ele>
        <time>2015-09-27T13:36:17Z</time>
      </trkpt>
      <trkpt lat="48.70808" lon="2.01467">
        <ele>164.04</ele>
        <time>2015-09-27T13:36:32Z</time>
      </trkpt>
      <trkpt lat="48.708" lon="2.01503">
        <ele>163.56</ele>
        <time>2015-09-27T13:36:53Z</time>
      </trkpt>
      <trkpt lat="48.70791" lon="2.01535">
        <ele>164.04</ele>
        <time>2015-09-27T13:37:12Z</time>
      </trkpt>
      <trkpt lat="48.70783" lon="2.01566">
        <ele>163.56</ele>
        <time>2015-09-27T13:37:30Z</time>
      </trkpt>
      <trkpt lat="48.70776" lon="2.01596">
        <ele>163.56</ele>
        <time>2015-09-27T13:37:49Z</time>
      </trkpt>
      <trkpt lat="48.70768" lon="2.01634">
        <ele>163.56</ele>
        <time>2015-09-27T13:38:08Z</time>
      </trkpt>
      <trkpt lat="48.70759" lon="2.01665">
        <ele>163.08</ele>
        <time>2015-09-27T13:38:27Z</time>
      </trkpt>
      <trkpt lat="48.70751" lon="2.01697">
        <ele>162.6</ele>
        <time>2015-09-27T13:38:46Z</time>
      </trkpt>
      <trkpt lat="48.70745" lon="2.01727">
        <ele>162.12</ele>
        <time>2015-09-27T13:39:05Z</time>
      </trkpt>
      <trkpt lat="48.70739" lon="2.01764">
        <ele>161.64</ele>
        <time>2015-09-27T13:39:25Z</time>
      </trkpt>
      <trkpt lat="48.70732" lon="2.01794">
        <ele>160.68</ele>
        <time>2015-09-27T13:39:45Z</time>
      </trkpt>
      <trkpt lat="48.70724" lon="2.01826">
        <ele>160.68</ele>
        <time>2015-09-27T13:40:00Z</time>
      </trkpt>
      <trkpt lat="48.70719" lon="2.01853">
        <ele>160.2</ele>
        <time>2015-09-27T13:40:15Z</time>
      </trkpt>
      <trkpt lat="48.70719" lon="2.01861">
        <ele>160.2</ele>
        <time>2015-09-27T13:40:20Z</time>
      </trkpt>
      <trkpt lat="48.70712" lon="2.01891">
        <ele>159.24</ele>
        <time>2015-09-27T13:40:36Z</time>
      </trkpt>
      <trkpt lat="48.70706" lon="2.01914">
        <ele>159.72</ele>
        <time>2015-09-27T13:40:49Z</time>
      </trkpt>
      <trkpt lat="48.70701" lon="2.01944">
        <ele>159.24</ele>
        <time>2015-09-27T13:41:06Z</time>
      </trkpt>
      <trkpt lat="48.70702" lon="2.01974">
        <ele>158.75</ele>
        <time>2015-09-27T13:41:24Z</time>
      </trkpt>
      <trkpt lat="48.70701" lon="2.01988">
        <ele>158.75</ele>
        <time>2015-09-27T13:41:30Z</time>
      </trkpt>
      <trkpt lat="48.70701" lon="2.02015">
        <ele>159.24</ele>
        <time>2015-09-27T13:41:47Z</time>
      </trkpt>
      <trkpt lat="48.70707" lon="2.02048">
        <ele>158.27</ele>
        <time>2015-09-27T13:42:05Z</time>
      </trkpt>
      <trkpt lat="48.70705" lon="2.02083">
        <ele>158.27</ele>
        <time>2015-09-27T13:42:23Z</time>
      </trkpt>
      <trkpt lat="48.70708" lon="2.02118">
        <ele>158.75</ele>
        <time>2015-09-27T13:42:43Z</time>
      </trkpt>
      <trkpt lat="48.70711" lon="2.02159">
        <ele>157.79</ele>
        <time>2015-09-27T13:43:03Z</time>
      </trkpt>
      <trkpt lat="48.70711" lon="2.02189">
        <ele>157.31</ele>
        <time>2015-09-27T13:43:20Z</time>
      </trkpt>
      <trkpt lat="48.70708" lon="2.02224">
        <ele>156.83</ele>
        <time>2015-09-27T13:43:38Z</time>
      </trkpt>
      <trkpt lat="48.70701" lon="2.02252">
        <ele>156.35</ele>
        <time>2015-09-27T13:43:55Z</time>
      </trkpt>
      <trkpt lat="48.70698" lon="2.02285">
        <ele>156.83</ele>
        <time>2015-09-27T13:44:13Z</time>
      </trkpt>
      <trkpt lat="48.70695" lon="2.023">
        <ele>156.35</ele>
        <time>2015-09-27T13:44:23Z</time>
      </trkpt>
      <trkpt lat="48.70692" lon="2.02333">
        <ele>155.39</ele>
        <time>2015-09-27T13:44:41Z</time>
      </trkpt>
      <trkpt lat="48.70691" lon="2.02361">
        <ele>155.87</ele>
        <time>2015-09-27T13:44:58Z</time>
      </trkpt>
      <trkpt lat="48.70688" lon="2.02392">
        <ele>154.91</ele>
        <time>2015-09-27T13:45:14Z</time>
      </trkpt>
      <trkpt lat="48.70688" lon="2.02413">
        <ele>155.39</ele>
        <time>2015-09-27T13:45:29Z</time>
      </trkpt>
      <trkpt lat="48.70686" lon="2.02445">
        <ele>154.43</ele>
        <time>2015-09-27T13:45:47Z</time>
      </trkpt>
      <trkpt lat="48.7069" lon="2.02475">
        <ele>153.95</ele>
        <time>2015-09-27T13:46:04Z</time>
      </trkpt>
      <trkpt lat="48.70697" lon="2.02508">
        <ele>152.99</ele>
        <time>2015-09-27T13:46:23Z</time>
      </trkpt>
      <trkpt lat="48.70706" lon="2.02531">
        <ele>152.03</ele>
        <time>2015-09-27T13:46:38Z</time>
      </trkpt>
      <trkpt lat="48.70713" lon="2.02558">
        <ele>151.54</ele>
        <time>2015-09-27T13:46:55Z</time>
      </trkpt>
      <trkpt lat="48.70719" lon="2.02591">
        <ele>149.62</ele>
        <time>2015-09-27T13:47:14Z</time>
      </trkpt>
      <trkpt lat="48.70723" lon="2.02622">
        <ele>148.18</ele>
        <time>2015-09-27T13:47:29Z</time>
      </trkpt>
      <trkpt lat="48.70725" lon="2.02654">
        <ele>145.78</ele>
        <time>2015-09-27T13:47:48Z</time>
      </trkpt>
      <trkpt lat="48.70726" lon="2.02667">
        <ele>143.85</ele>
        <time>2015-09-27T13:48:05Z</time>
      </trkpt>
      <trkpt lat="48.70727" lon="2.02688">
        <ele>140.97</ele>
        <time>2015-09-27T13:48:19Z</time>
      </trkpt>
      <trkpt lat="48.70728" lon="2.02712">
        <ele>138.09</ele>
        <time>2015-09-27T13:48:32Z</time>
      </trkpt>
      <trkpt lat="48.70732" lon="2.02734">
        <ele>135.68</ele>
        <time>2015-09-27T13:48:49Z</time>
      </trkpt>
      <trkpt lat="48.70733" lon="2.02764">
        <ele>132.32</ele>
        <time>2015-09-27T13:49:05Z</time>
      </trkpt>
      <trkpt lat="48.70742" lon="2.02791">
        <ele>128.95</ele>
        <time>2015-09-27T13:49:22Z</time>
      </trkpt>
      <trkpt lat="48.70755" lon="2.02811">
        <ele>126.07</ele>
        <time>2015-09-27T13:49:40Z</time>
      </trkpt>
      <trkpt lat="48.7076" lon="2.02836">
        <ele>123.67</ele>
        <time>2015-09-27T13:49:56Z</time>
      </trkpt>
      <trkpt lat="48.70766" lon="2.02858">
        <ele>121.26</ele>
        <time>2015-09-27T13:50:11Z</time>
      </trkpt>
      <trkpt lat="48.70775" lon="2.02882">
        <ele>118.38</ele>
        <time>2015-09-27T13:50:27Z</time>
      </trkpt>
      <trkpt lat="48.70783" lon="2.02907">
        <ele>115.01</ele>
        <time>2015-09-27T13:50:44Z</time>
      </trkpt>
      <trkpt lat="48.7079" lon="2.02931">
        <ele>111.65</ele>
        <time>2015-09-27T13:51:02Z</time>
      </trkpt>
      <trkpt lat="48.70796" lon="2.0296">
        <ele>109.25</ele>
        <time>2015-09-27T13:51:20Z</time>
      </trkpt>
      <trkpt lat="48.70793" lon="2.0298">
        <ele>106.84</ele>
        <time>2015-09-27T13:51:39Z</time>
      </trkpt>
      <trkpt lat="48.70784" lon="2.03009">
        <ele>104.44</ele>
        <time>2015-09-27T13:51:59Z</time>
      </trkpt>
      <trkpt lat="48.70778" lon="2.03021">
        <ele>104.44</ele>
        <time>2015-09-27T13:52:20Z</time>
      </trkpt>
      <trkpt lat="48.70784" lon="2.03031">
        <ele>104.92</ele>
        <time>2015-09-27T13:52:42Z</time>
      </trkpt>
      <trkpt lat="48.70777" lon="2.0302">
        <ele>103.48</ele>
        <time>2015-09-27T13:53:01Z</time>
      </trkpt>
      <trkpt lat="48.70777" lon="2.03013">
        <ele>103.96</ele>
        <time>2015-09-27T13:53:18Z</time>
      </trkpt>
      <trkpt lat="48.70774" lon="2.0301">
        <ele>103.96</ele>
        <time>2015-09-27T13:53:42Z</time>
      </trkpt>
      <trkpt lat="48.70775" lon="2.03009">
        <ele>103.48</ele>
        <time>2015-09-27T13:54:04Z</time>
      </trkpt>
      <trkpt lat="48.7078" lon="2.0301">
        <ele>103.96</ele>
        <time>2015-09-27T13:54:29Z</time>
      </trkpt>
      <trkpt lat="48.70776" lon="2.03011">
        <ele>104.44</ele>
        <time>2015-09-27T13:54:58Z</time>
      </trkpt>
      <trkpt lat="48.70771" lon="2.03021">
        <ele>104.92</ele>
        <time>2015-09-27T13:55:30Z</time>
      </trkpt>
      <trkpt lat="48.70773" lon="2.03024">
        <ele>104.92</ele>
        <time>2015-09-27T13:56:02Z</time>
      </trkpt>
      <trkpt lat="48.70777" lon="2.03015">
        <ele>105.4</ele>
        <time>2015-09-27T13:56:31Z</time>
      </trkpt>
      <trkpt lat="48.70779" lon="2.03013">
        <ele>105.88</ele>
        <time>2015-09-27T13:56:54Z</time>
      </trkpt>
      <trkpt lat="48.7078" lon="2.03022">
        <ele>106.36</ele>
        <time>2015-09-27T13:57:19Z</time>
      </trkpt>
      <trkpt lat="48.70778" lon="2.03008">
        <ele>106.84</ele>
        <time>2015-09-27T13:57:36Z</time>
      </trkpt>
      <trkpt lat="48.70775" lon="2.03027">
        <ele>105.88</ele>
        <time>2015-09-27T13:58:01Z</time>
      </trkpt>
      <trkpt lat="48.7077" lon="2.03055">
        <ele>104.92</ele>
        <time>2015-09-27T13:58:19Z</time>
      </trkpt>
      <trkpt lat="48.70759" lon="2.03082">
        <ele>102.52</ele>
        <time>2015-09-27T13:58:38Z</time>
      </trkpt>
      <trkpt lat="48.70759" lon="2.03083">
        <ele>102.04</ele>
        <time>2015-09-27T13:58:39Z</time>
      </trkpt>
      <trkpt lat="48.70756" lon="2.03086">
        <ele>102.04</ele>
        <time>2015-09-27T13:58:43Z</time>
      </trkpt>
      <trkpt lat="48.70741" lon="2.03109">
        <ele>99.63</ele>
        <time>2015-09-27T13:59:03Z</time>
      </trkpt>
      <trkpt lat="48.7073" lon="2.03127">
        <ele>98.67</ele>
        <time>2015-09-27T13:59:17Z</time>
      </trkpt>
      <trkpt lat="48.70725" lon="2.03137">
        <ele>97.71</ele>
        <time>2015-09-27T13:59:32Z</time>
      </trkpt>
      <trkpt lat="48.70726" lon="2.03135">
        <ele>98.19</ele>
        <time>2015-09-27T13:59:34Z</time>
      </trkpt>
      <trkpt lat="48.70735" lon="2.03119">
        <ele>99.15</ele>
        <time>2015-09-27T13:59:49Z</time>
      </trkpt>
      <trkpt lat="48.70738" lon="2.0312">
        <ele>99.63</ele>
        <time>2015-09-27T14:00:02Z</time>
      </trkpt>
      <trkpt lat="48.70741" lon="2.03128">
        <ele>100.6</ele>
        <time>2015-09-27T14:00:25Z</time>
      </trkpt>
      <trkpt lat="48.70748" lon="2.03141">
        <ele>102.04</ele>
        <time>2015-09-27T14:00:38Z</time>
      </trkpt>
      <trkpt lat="48.70761" lon="2.03161">
        <ele>100.6</ele>
        <time>2015-09-27T14:00:56Z</time>
      </trkpt>
      <trkpt lat="48.70771" lon="2.03183">
        <ele>98.19</ele>
        <time>2015-09-27T14:01:12Z</time>
      </trkpt>
      <trkpt lat="48.70784" lon="2.03208">
        <ele>96.27</ele>
        <time>2015-09-27T14:01:30Z</time>
      </trkpt>
      <trkpt lat="48.70794" lon="2.03228">
        <ele>94.35</ele>
        <time>2015-09-27T14:01:44Z</time>
      </trkpt>
      <trkpt lat="48.70801" lon="2.0324">
        <ele>93.87</ele>
        <time>2015-09-27T14:01:56Z</time>
      </trkpt>
      <trkpt lat="48.70812" lon="2.03262">
        <ele>92.9</ele>
        <time>2015-09-27T14:02:12Z</time>
      </trkpt>
      <trkpt lat="48.70815" lon="2.03274">
        <ele>92.9</ele>
        <time>2015-09-27T14:02:25Z</time>
      </trkpt>
      <trkpt lat="48.70815" lon="2.03275">
        <ele>92.42</ele>
        <time>2015-09-27T14:02:30Z</time>
      </trkpt>
      <trkpt lat="48.70812" lon="2.03287">
        <ele>92.9</ele>
        <time>2015-09-27T14:02:45Z</time>
      </trkpt>
      <trkpt lat="48.70803" lon="2.03289">
        <ele>92.42</ele>
        <time>2015-09-27T14:03:07Z</time>
      </trkpt>
      <trkpt lat="48.70803" lon="2.03289">
        <ele>92.42</ele>
        <time>2015-09-27T14:03:13Z</time>
      </trkpt>
      <trkpt lat="48.70786" lon="2.03295">
        <ele>90.98</ele>
        <time>2015-09-27T14:03:29Z</time>
      </trkpt>
      <trkpt lat="48.70771" lon="2.03304">
        <ele>90.98</ele>
        <time>2015-09-27T14:03:43Z</time>
      </trkpt>
      <trkpt lat="48.7077" lon="2.03305">
        <ele>91.46</ele>
        <time>2015-09-27T14:03:44Z</time>
      </trkpt>
      <trkpt lat="48.70768" lon="2.03306">
        <ele>90.98</ele>
        <time>2015-09-27T14:03:47Z</time>
      </trkpt>
      <trkpt lat="48.70766" lon="2.03308">
        <ele>90.98</ele>
        <time>2015-09-27T14:03:49Z</time>
      </trkpt>
      <trkpt lat="48.70761" lon="2.03311">
        <ele>90.5</ele>
        <time>2015-09-27T14:03:53Z</time>
      </trkpt>
      <trkpt lat="48.70746" lon="2.03322">
        <ele>89.54</ele>
        <time>2015-09-27T14:04:07Z</time>
      </trkpt>
      <trkpt lat="48.70734" lon="2.03332">
        <ele>89.54</ele>
        <time>2015-09-27T14:04:21Z</time>
      </trkpt>
      <trkpt lat="48.70729" lon="2.03338">
        <ele>89.06</ele>
        <time>2015-09-27T14:04:26Z</time>
      </trkpt>
      <trkpt lat="48.70719" lon="2.03343">
        <ele>88.58</ele>
        <time>2015-09-27T14:04:34Z</time>
      </trkpt>
      <trkpt lat="48.70717" lon="2.03349">
        <ele>88.1</ele>
        <time>2015-09-27T14:04:46Z</time>
      </trkpt>
      <trkpt lat="48.70715" lon="2.03348">
        <ele>88.1</ele>
        <time>2015-09-27T14:05:08Z</time>
      </trkpt>
      <trkpt lat="48.70716" lon="2.03353">
        <ele>87.62</ele>
        <time>2015-09-27T14:05:11Z</time>
      </trkpt>
      <trkpt lat="48.70724" lon="2.0338">
        <ele>87.14</ele>
        <time>2015-09-27T14:05:26Z</time>
      </trkpt>
      <trkpt lat="48.70729" lon="2.03391">
        <ele>87.14</ele>
        <time>2015-09-27T14:05:34Z</time>
      </trkpt>
      <trkpt lat="48.70733" lon="2.03402">
        <ele>86.18</ele>
        <time>2015-09-27T14:05:42Z</time>
      </trkpt>
      <trkpt lat="48.70735" lon="2.03406">
        <ele>85.69</ele>
        <time>2015-09-27T14:05:45Z</time>
      </trkpt>
      <trkpt lat="48.70738" lon="2.03413">
        <ele>86.18</ele>
        <time>2015-09-27T14:05:50Z</time>
      </trkpt>
      <trkpt lat="48.70742" lon="2.03422">
        <ele>86.66</ele>
        <time>2015-09-27T14:05:56Z</time>
      </trkpt>
      <trkpt lat="48.70752" lon="2.03447">
        <ele>86.66</ele>
        <time>2015-09-27T14:06:12Z</time>
      </trkpt>
      <trkpt lat="48.70753" lon="2.03448">
        <ele>86.18</ele>
        <time>2015-09-27T14:06:13Z</time>
      </trkpt>
      <trkpt lat="48.70755" lon="2.03454">
        <ele>86.18</ele>
        <time>2015-09-27T14:06:17Z</time>
      </trkpt>
      <trkpt lat="48.70768" lon="2.03476">
        <ele>85.69</ele>
        <time>2015-09-27T14:06:33Z</time>
      </trkpt>
      <trkpt lat="48.70777" lon="2.035">
        <ele>84.25</ele>
        <time>2015-09-27T14:06:49Z</time>
      </trkpt>
      <trkpt lat="48.7079" lon="2.03522">
        <ele>83.77</ele>
        <time>2015-09-27T14:07:05Z</time>
      </trkpt>
      <trkpt lat="48.7079" lon="2.03524">
        <ele>83.77</ele>
        <time>2015-09-27T14:07:06Z</time>
      </trkpt>
      <trkpt lat="48.70793" lon="2.03532">
        <ele>83.77</ele>
        <time>2015-09-27T14:07:11Z</time>
      </trkpt>
      <trkpt lat="48.70802" lon="2.03547">
        <ele>83.77</ele>
        <time>2015-09-27T14:07:26Z</time>
      </trkpt>
      <trkpt lat="48.70806" lon="2.0356">
        <ele>83.29</ele>
        <time>2015-09-27T14:07:33Z</time>
      </trkpt>
      <trkpt lat="48.70812" lon="2.03577">
        <ele>82.81</ele>
        <time>2015-09-27T14:07:45Z</time>
      </trkpt>
      <trkpt lat="48.70814" lon="2.03598">
        <ele>82.81</ele>
        <time>2015-09-27T14:07:59Z</time>
      </trkpt>
      <trkpt lat="48.7082" lon="2.03623">
        <ele>80.89</ele>
        <time>2015-09-27T14:08:14Z</time>
      </trkpt>
      <trkpt lat="48.70823" lon="2.03628">
        <ele>80.89</ele>
        <time>2015-09-27T14:08:18Z</time>
      </trkpt>
      <trkpt lat="48.70831" lon="2.03641">
        <ele>81.85</ele>
        <time>2015-09-27T14:08:29Z</time>
      </trkpt>
      <trkpt lat="48.70844" lon="2.03659">
        <ele>80.41</ele>
        <time>2015-09-27T14:08:44Z</time>
      </trkpt>
      <trkpt lat="48.70852" lon="2.03672">
        <ele>79.93</ele>
        <time>2015-09-27T14:08:54Z</time>
      </trkpt>
      <trkpt lat="48.70861" lon="2.0368">
        <ele>80.89</ele>
        <time>2015-09-27T14:09:08Z</time>
      </trkpt>
      <trkpt lat="48.70862" lon="2.0368">
        <ele>80.89</ele>
        <time>2015-09-27T14:09:24Z</time>
      </trkpt>
      <trkpt lat="48.70865" lon="2.03677">
        <ele>80.89</ele>
        <time>2015-09-27T14:09:35Z</time>
      </trkpt>
      <trkpt lat="48.7088" lon="2.03677">
        <ele>80.89</ele>
        <time>2015-09-27T14:09:50Z</time>
      </trkpt>
      <trkpt lat="48.70883" lon="2.0368">
        <ele>80.89</ele>
        <time>2015-09-27T14:09:53Z</time>
      </trkpt>
      <trkpt lat="48.70897" lon="2.03696">
        <ele>81.37</ele>
        <time>2015-09-27T14:10:09Z</time>
      </trkpt>
      <trkpt lat="48.70909" lon="2.03727">
        <ele>82.81</ele>
        <time>2015-09-27T14:10:28Z</time>
      </trkpt>
      <trkpt lat="48.7091" lon="2.03728">
        <ele>82.81</ele>
        <time>2015-09-27T14:10:29Z</time>
      </trkpt>
      <trkpt lat="48.70911" lon="2.0373">
        <ele>82.81</ele>
        <time>2015-09-27T14:10:31Z</time>
      </trkpt>
      <trkpt lat="48.70916" lon="2.03742">
        <ele>83.77</ele>
        <time>2015-09-27T14:10:39Z</time>
      </trkpt>
      <trkpt lat="48.70925" lon="2.03765">
        <ele>84.25</ele>
        <time>2015-09-27T14:10:56Z</time>
      </trkpt>
      <trkpt lat="48.70931" lon="2.03789">
        <ele>85.69</ele>
        <time>2015-09-27T14:11:10Z</time>
      </trkpt>
      <trkpt lat="48.70934" lon="2.03794">
        <ele>86.66</ele>
        <time>2015-09-27T14:11:14Z</time>
      </trkpt>
      <trkpt lat="48.70939" lon="2.03798">
        <ele>87.14</ele>
        <time>2015-09-27T14:11:23Z</time>
      </trkpt>
      <trkpt lat="48.70939" lon="2.03804">
        <ele>87.62</ele>
        <time>2015-09-27T14:11:37Z</time>
      </trkpt>
      <trkpt lat="48.70939" lon="2.03803">
        <ele>87.62</ele>
        <time>2015-09-27T14:11:57Z</time>
      </trkpt>
      <trkpt lat="48.70937" lon="2.03808">
        <ele>87.62</ele>
        <time>2015-09-27T14:12:08Z</time>
      </trkpt>
      <trkpt lat="48.70932" lon="2.0381">
        <ele>87.62</ele>
        <time>2015-09-27T14:12:14Z</time>
      </trkpt>
      <trkpt lat="48.70927" lon="2.03814">
        <ele>87.62</ele>
        <time>2015-09-27T14:12:20Z</time>
      </trkpt>
      <trkpt lat="48.70911" lon="2.03831">
        <ele>87.62</ele>
        <time>2015-09-27T14:12:36Z</time>
      </trkpt>
      <trkpt lat="48.70896" lon="2.03845">
        <ele>88.1</ele>
        <time>2015-09-27T14:12:50Z</time>
      </trkpt>
      <trkpt lat="48.70884" lon="2.03857">
        <ele>88.1</ele>
        <time>2015-09-27T14:13:04Z</time>
      </trkpt>
      <trkpt lat="48.70883" lon="2.03854">
        <ele>88.1</ele>
        <time>2015-09-27T14:13:19Z</time>
      </trkpt>
      <trkpt lat="48.70885" lon="2.03856">
        <ele>88.1</ele>
        <time>2015-09-27T14:13:37Z</time>
      </trkpt>
      <trkpt lat="48.70884" lon="2.03855">
        <ele>88.58</ele>
        <time>2015-09-27T14:14:00Z</time>
      </trkpt>
      <trkpt lat="48.70893" lon="2.03861">
        <ele>90.98</ele>
        <time>2015-09-27T14:14:12Z</time>
      </trkpt>
      <trkpt lat="48.7091" lon="2.03873">
        <ele>93.87</ele>
        <time>2015-09-27T14:14:32Z</time>
      </trkpt>
      <trkpt lat="48.7093" lon="2.03882">
        <ele>95.31</ele>
        <time>2015-09-27T14:14:48Z</time>
      </trkpt>
      <trkpt lat="48.70943" lon="2.03883">
        <ele>96.27</ele>
        <time>2015-09-27T14:15:02Z</time>
      </trkpt>
      <trkpt lat="48.70954" lon="2.0389">
        <ele>96.75</ele>
        <time>2015-09-27T14:15:12Z</time>
      </trkpt>
      <trkpt lat="48.70968" lon="2.03905">
        <ele>98.19</ele>
        <time>2015-09-27T14:15:29Z</time>
      </trkpt>
      <trkpt lat="48.70985" lon="2.03919">
        <ele>101.56</ele>
        <time>2015-09-27T14:15:48Z</time>
      </trkpt>
      <trkpt lat="48.70994" lon="2.03941">
        <ele>103.96</ele>
        <time>2015-09-27T14:16:06Z</time>
      </trkpt>
      <trkpt lat="48.70995" lon="2.03959">
        <ele>106.84</ele>
        <time>2015-09-27T14:16:22Z</time>
      </trkpt>
      <trkpt lat="48.70991" lon="2.0398">
        <ele>108.77</ele>
        <time>2015-09-27T14:16:40Z</time>
      </trkpt>
      <trkpt lat="48.70993" lon="2.03977">
        <ele>108.77</ele>
        <time>2015-09-27T14:16:57Z</time>
      </trkpt>
      <trkpt lat="48.70997" lon="2.0398">
        <ele>110.21</ele>
        <time>2015-09-27T14:17:09Z</time>
      </trkpt>
      <trkpt lat="48.71007" lon="2.03993">
        <ele>113.09</ele>
        <time>2015-09-27T14:17:25Z</time>
      </trkpt>
      <trkpt lat="48.71014" lon="2.04011">
        <ele>115.5</ele>
        <time>2015-09-27T14:17:44Z</time>
      </trkpt>
      <trkpt lat="48.71019" lon="2.04026">
        <ele>118.86</ele>
        <time>2015-09-27T14:18:02Z</time>
      </trkpt>
      <trkpt lat="48.71022" lon="2.0404">
        <ele>121.74</ele>
        <time>2015-09-27T14:18:18Z</time>
      </trkpt>
      <trkpt lat="48.71021" lon="2.04052">
        <ele>124.15</ele>
        <time>2015-09-27T14:18:40Z</time>
      </trkpt>
      <trkpt lat="48.71017" lon="2.04061">
        <ele>127.03</ele>
        <time>2015-09-27T14:18:56Z</time>
      </trkpt>
      <trkpt lat="48.71022" lon="2.04058">
        <ele>129.43</ele>
        <time>2015-09-27T14:19:16Z</time>
      </trkpt>
      <trkpt lat="48.71018" lon="2.04079">
        <ele>131.36</ele>
        <time>2015-09-27T14:19:36Z</time>
      </trkpt>
      <trkpt lat="48.71017" lon="2.0409">
        <ele>134.24</ele>
        <time>2015-09-27T14:19:50Z</time>
      </trkpt>
      <trkpt lat="48.71018" lon="2.04101">
        <ele>137.13</ele>
        <time>2015-09-27T14:20:05Z</time>
      </trkpt>
      <trkpt lat="48.71019" lon="2.04104">
        <ele>138.57</ele>
        <time>2015-09-27T14:20:22Z</time>
      </trkpt>
      <trkpt lat="48.7102" lon="2.04101">
        <ele>140.49</ele>
        <time>2015-09-27T14:20:35Z</time>
      </trkpt>
      <trkpt lat="48.71026" lon="2.04105">
        <ele>141.45</ele>
        <time>2015-09-27T14:20:58Z</time>
      </trkpt>
      <trkpt lat="48.71026" lon="2.04119">
        <ele>143.85</ele>
        <time>2015-09-27T14:21:13Z</time>
      </trkpt>
      <trkpt lat="48.71036" lon="2.04111">
        <ele>145.3</ele>
        <time>2015-09-27T14:21:26Z</time>
      </trkpt>
      <trkpt lat="48.71045" lon="2.04112">
        <ele>147.22</ele>
        <time>2015-09-27T14:21:44Z</time>
      </trkpt>
      <trkpt lat="48.71042" lon="2.04114">
        <ele>147.7</ele>
        <time>2015-09-27T14:21:55Z</time>
      </trkpt>
      <trkpt lat="48.71042" lon="2.04114">
        <ele>147.7</ele>
        <time>2015-09-27T14:22:12Z</time>
      </trkpt>
      <trkpt lat="48.7104" lon="2.04116">
        <ele>147.7</ele>
        <time>2015-09-27T14:22:33Z</time>
      </trkpt>
      <trkpt lat="48.71038" lon="2.0412">
        <ele>148.18</ele>
        <time>2015-09-27T14:22:57Z</time>
      </trkpt>
      <trkpt lat="48.71039" lon="2.04123">
        <ele>147.7</ele>
        <time>2015-09-27T14:23:10Z</time>
      </trkpt>
      <trkpt lat="48.71032" lon="2.04131">
        <ele>147.22</ele>
        <time>2015-09-27T14:23:26Z</time>
      </trkpt>
      <trkpt lat="48.71024" lon="2.04136">
        <ele>147.22</ele>
        <time>2015-09-27T14:23:35Z</time>
      </trkpt>
      <trkpt lat="48.71011" lon="2.04149">
        <ele>148.18</ele>
        <time>2015-09-27T14:23:53Z</time>
      </trkpt>
      <trkpt lat="48.7101" lon="2.04166">
        <ele>148.18</ele>
        <time>2015-09-27T14:24:06Z</time>
      </trkpt>
      <trkpt lat="48.71013" lon="2.04171">
        <ele>148.66</ele>
        <time>2015-09-27T14:24:21Z</time>
      </trkpt>
      <trkpt lat="48.71011" lon="2.04184">
        <ele>149.14</ele>
        <time>2015-09-27T14:24:31Z</time>
      </trkpt>
      <trkpt lat="48.7101" lon="2.04187">
        <ele>149.14</ele>
        <time>2015-09-27T14:24:36Z</time>
      </trkpt>
      <trkpt lat="48.7101" lon="2.04204">
        <ele>149.14</ele>
        <time>2015-09-27T14:24:49Z</time>
      </trkpt>
      <trkpt lat="48.7101" lon="2.04212">
        <ele>149.14</ele>
        <time>2015-09-27T14:25:04Z</time>
      </trkpt>
      <trkpt lat="48.71008" lon="2.04227">
        <ele>149.14</ele>
        <time>2015-09-27T14:25:19Z</time>
      </trkpt>
      <trkpt lat="48.71012" lon="2.0423">
        <ele>149.14</ele>
        <time>2015-09-27T14:25:37Z</time>
      </trkpt>
      <trkpt lat="48.71009" lon="2.04221">
        <ele>148.66</ele>
        <time>2015-09-27T14:25:54Z</time>
      </trkpt>
      <trkpt lat="48.71008" lon="2.04206">
        <ele>148.66</ele>
        <time>2015-09-27T14:26:08Z</time>
      </trkpt>
      <trkpt lat="48.7101" lon="2.04199">
        <ele>147.7</ele>
        <time>2015-09-27T14:26:24Z</time>
      </trkpt>
      <trkpt lat="48.71018" lon="2.04197">
        <ele>148.18</ele>
        <time>2015-09-27T14:26:41Z</time>
      </trkpt>
      <trkpt lat="48.71012" lon="2.04195">
        <ele>148.18</ele>
        <time>2015-09-27T14:27:15Z</time>
      </trkpt>
      <trkpt lat="48.71012" lon="2.04207">
        <ele>148.66</ele>
        <time>2015-09-27T14:27:32Z</time>
      </trkpt>
      <trkpt lat="48.7101" lon="2.04219">
        <ele>148.18</ele>
        <time>2015-09-27T14:27:46Z</time>
      </trkpt>
      <trkpt lat="48.71009" lon="2.04227">
        <ele>148.18</ele>
        <time>2015-09-27T14:28:02Z</time>
      </trkpt>
      <trkpt lat="48.71008" lon="2.04224">
        <ele>148.18</ele>
        <time>2015-09-27T14:28:24Z</time>
      </trkpt>
      <trkpt lat="48.71006" lon="2.04224">
        <ele>148.18</ele>
        <time>2015-09-27T14:28:51Z</time>
      </trkpt>
      <trkpt lat="48.71008" lon="2.04223">
        <ele>148.18</ele>
        <time>2015-09-27T14:29:16Z</time>
      </trkpt>
      <trkpt lat="48.71008" lon="2.04213">
        <ele>148.18</ele>
        <time>2015-09-27T14:29:32Z</time>
      </trkpt>
      <trkpt lat="48.71017" lon="2.04198">
        <ele>148.18</ele>
        <time>2015-09-27T14:29:49Z</time>
      </trkpt>
      <trkpt lat="48.7102" lon="2.04191">
        <ele>148.66</ele>
        <time>2015-09-27T14:30:03Z</time>
      </trkpt>
      <trkpt lat="48.71017" lon="2.04192">
        <ele>148.18</ele>
        <time>2015-09-27T14:30:25Z</time>
      </trkpt>
      <trkpt lat="48.71017" lon="2.04194">
        <ele>148.66</ele>
        <time>2015-09-27T14:30:51Z</time>
      </trkpt>
      <trkpt lat="48.71015" lon="2.04197">
        <ele>148.18</ele>
        <time>2015-09-27T14:31:15Z</time>
      </trkpt>
      <trkpt lat="48.71017" lon="2.04194">
        <ele>148.66</ele>
        <time>2015-09-27T14:31:43Z</time>
      </trkpt>
      <trkpt lat="48.71014" lon="2.04191">
        <ele>149.62</ele>
        <time>2015-09-27T14:31:58Z</time>
      </trkpt>
      <trkpt lat="48.71011" lon="2.04163">
        <ele>148.18</ele>
        <time>2015-09-27T14:32:11Z</time>
      </trkpt>
      <trkpt lat="48.71007" lon="2.04153">
        <ele>147.7</ele>
        <time>2015-09-27T14:32:24Z</time>
      </trkpt>
      <trkpt lat="48.71004" lon="2.04155">
        <ele>146.74</ele>
        <time>2015-09-27T14:32:29Z</time>
      </trkpt>
      <trkpt lat="48.70995" lon="2.0416">
        <ele>144.82</ele>
        <time>2015-09-27T14:32:38Z</time>
      </trkpt>
      <trkpt lat="48.70983" lon="2.04159">
        <ele>142.89</ele>
        <time>2015-09-27T14:32:51Z</time>
      </trkpt>
      <trkpt lat="48.70982" lon="2.0416">
        <ele>142.89</ele>
        <time>2015-09-27T14:32:52Z</time>
      </trkpt>
      <trkpt lat="48.7097" lon="2.04167">
        <ele>140.49</ele>
        <time>2015-09-27T14:33:06Z</time>
      </trkpt>
      <trkpt lat="48.70968" lon="2.04168">
        <ele>140.01</ele>
        <time>2015-09-27T14:33:08Z</time>
      </trkpt>
      <trkpt lat="48.7096" lon="2.04186">
        <ele>138.57</ele>
        <time>2015-09-27T14:33:23Z</time>
      </trkpt>
      <trkpt lat="48.70957" lon="2.04207">
        <ele>135.68</ele>
        <time>2015-09-27T14:33:39Z</time>
      </trkpt>
      <trkpt lat="48.70948" lon="2.04216">
        <ele>133.28</ele>
        <time>2015-09-27T14:33:56Z</time>
      </trkpt>
      <trkpt lat="48.70946" lon="2.04209">
        <ele>131.84</ele>
        <time>2015-09-27T14:34:03Z</time>
      </trkpt>
      <trkpt lat="48.70947" lon="2.04193">
        <ele>128.95</ele>
        <time>2015-09-27T14:34:17Z</time>
      </trkpt>
      <trkpt lat="48.70947" lon="2.04171">
        <ele>127.03</ele>
        <time>2015-09-27T14:34:31Z</time>
      </trkpt>
      <trkpt lat="48.70942" lon="2.04161">
        <ele>124.15</ele>
        <time>2015-09-27T14:34:45Z</time>
      </trkpt>
      <trkpt lat="48.70938" lon="2.04172">
        <ele>123.67</ele>
        <time>2015-09-27T14:34:53Z</time>
      </trkpt>
      <trkpt lat="48.70929" lon="2.04191">
        <ele>122.71</ele>
        <time>2015-09-27T14:35:07Z</time>
      </trkpt>
      <trkpt lat="48.70925" lon="2.0421">
        <ele>121.26</ele>
        <time>2015-09-27T14:35:22Z</time>
      </trkpt>
      <trkpt lat="48.70919" lon="2.0423">
        <ele>118.38</ele>
        <time>2015-09-27T14:35:39Z</time>
      </trkpt>
      <trkpt lat="48.70911" lon="2.04213">
        <ele>115.5</ele>
        <time>2015-09-27T14:35:56Z</time>
      </trkpt>
      <trkpt lat="48.70908" lon="2.042">
        <ele>114.05</ele>
        <time>2015-09-27T14:36:05Z</time>
      </trkpt>
      <trkpt lat="48.70908" lon="2.0418">
        <ele>112.13</ele>
        <time>2015-09-27T14:36:20Z</time>
      </trkpt>
      <trkpt lat="48.70907" lon="2.04168">
        <ele>110.21</ele>
        <time>2015-09-27T14:36:29Z</time>
      </trkpt>
      <trkpt lat="48.70907" lon="2.04136">
        <ele>107.81</ele>
        <time>2015-09-27T14:36:48Z</time>
      </trkpt>
      <trkpt lat="48.70907" lon="2.04116">
        <ele>105.4</ele>
        <time>2015-09-27T14:37:04Z</time>
      </trkpt>
      <trkpt lat="48.70904" lon="2.04087">
        <ele>103.48</ele>
        <time>2015-09-27T14:37:24Z</time>
      </trkpt>
      <trkpt lat="48.70901" lon="2.04083">
        <ele>102.04</ele>
        <time>2015-09-27T14:37:28Z</time>
      </trkpt>
      <trkpt lat="48.7089" lon="2.04078">
        <ele>101.08</ele>
        <time>2015-09-27T14:37:41Z</time>
      </trkpt>
      <trkpt lat="48.7089" lon="2.04082">
        <ele>101.08</ele>
        <time>2015-09-27T14:38:08Z</time>
      </trkpt>
      <trkpt lat="48.70886" lon="2.0409">
        <ele>100.6</ele>
        <time>2015-09-27T14:38:33Z</time>
      </trkpt>
      <trkpt lat="48.70878" lon="2.04104">
        <ele>99.63</ele>
        <time>2015-09-27T14:38:49Z</time>
      </trkpt>
      <trkpt lat="48.7087" lon="2.0412">
        <ele>96.27</ele>
        <time>2015-09-27T14:39:04Z</time>
      </trkpt>
      <trkpt lat="48.70861" lon="2.04124">
        <ele>93.87</ele>
        <time>2015-09-27T14:39:21Z</time>
      </trkpt>
      <trkpt lat="48.70857" lon="2.04116">
        <ele>92.42</ele>
        <time>2015-09-27T14:39:28Z</time>
      </trkpt>
      <trkpt lat="48.70848" lon="2.04109">
        <ele>90.5</ele>
        <time>2015-09-27T14:39:43Z</time>
      </trkpt>
      <trkpt lat="48.70839" lon="2.04103">
        <ele>88.1</ele>
        <time>2015-09-27T14:39:58Z</time>
      </trkpt>
      <trkpt lat="48.70832" lon="2.04099">
        <ele>87.14</ele>
        <time>2015-09-27T14:40:10Z</time>
      </trkpt>
      <trkpt lat="48.70827" lon="2.04098">
        <ele>86.66</ele>
        <time>2015-09-27T14:40:22Z</time>
      </trkpt>
      <trkpt lat="48.70825" lon="2.04099">
        <ele>86.66</ele>
        <time>2015-09-27T14:40:40Z</time>
      </trkpt>
      <trkpt lat="48.70825" lon="2.04097">
        <ele>86.18</ele>
        <time>2015-09-27T14:40:56Z</time>
      </trkpt>
      <trkpt lat="48.70823" lon="2.04096">
        <ele>86.66</ele>
        <time>2015-09-27T14:41:19Z</time>
      </trkpt>
      <trkpt lat="48.7082" lon="2.04098">
        <ele>86.18</ele>
        <time>2015-09-27T14:41:43Z</time>
      </trkpt>
      <trkpt lat="48.7082" lon="2.04092">
        <ele>86.66</ele>
        <time>2015-09-27T14:42:04Z</time>
      </trkpt>
      <trkpt lat="48.7082" lon="2.04091">
        <ele>86.66</ele>
        <time>2015-09-27T14:42:21Z</time>
      </trkpt>
      <trkpt lat="48.70822" lon="2.04092">
        <ele>86.18</ele>
        <time>2015-09-27T14:42:44Z</time>
      </trkpt>
      <trkpt lat="48.70825" lon="2.04079">
        <ele>85.69</ele>
        <time>2015-09-27T14:42:59Z</time>
      </trkpt>
      <trkpt lat="48.70824" lon="2.04062">
        <ele>85.21</ele>
        <time>2015-09-27T14:43:12Z</time>
      </trkpt>
      <trkpt lat="48.70813" lon="2.0405">
        <ele>84.25</ele>
        <time>2015-09-27T14:43:23Z</time>
      </trkpt>
      <trkpt lat="48.7081" lon="2.04036">
        <ele>83.77</ele>
        <time>2015-09-27T14:43:36Z</time>
      </trkpt>
      <trkpt lat="48.70814" lon="2.04011">
        <ele>83.77</ele>
        <time>2015-09-27T14:43:52Z</time>
      </trkpt>
      <trkpt lat="48.70817" lon="2.03992">
        <ele>84.25</ele>
        <time>2015-09-27T14:44:07Z</time>
      </trkpt>
      <trkpt lat="48.70819" lon="2.03966">
        <ele>84.73</ele>
        <time>2015-09-27T14:44:22Z</time>
      </trkpt>
      <trkpt lat="48.70819" lon="2.03943">
        <ele>84.25</ele>
        <time>2015-09-27T14:44:36Z</time>
      </trkpt>
      <trkpt lat="48.70826" lon="2.03933">
        <ele>84.73</ele>
        <time>2015-09-27T14:44:49Z</time>
      </trkpt>
      <trkpt lat="48.70832" lon="2.03924">
        <ele>84.73</ele>
        <time>2015-09-27T14:45:03Z</time>
      </trkpt>
      <trkpt lat="48.70833" lon="2.03925">
        <ele>84.73</ele>
        <time>2015-09-27T14:45:28Z</time>
      </trkpt>
      <trkpt lat="48.7083" lon="2.03926">
        <ele>84.73</ele>
        <time>2015-09-27T14:45:50Z</time>
      </trkpt>
      <trkpt lat="48.7083" lon="2.03922">
        <ele>85.21</ele>
        <time>2015-09-27T14:46:11Z</time>
      </trkpt>
      <trkpt lat="48.70827" lon="2.03921">
        <ele>85.21</ele>
        <time>2015-09-27T14:46:28Z</time>
      </trkpt>
      <trkpt lat="48.70826" lon="2.03922">
        <ele>84.73</ele>
        <time>2015-09-27T14:46:34Z</time>
      </trkpt>
      <trkpt lat="48.7082" lon="2.0391">
        <ele>85.21</ele>
        <time>2015-09-27T14:46:48Z</time>
      </trkpt>
      <trkpt lat="48.70815" lon="2.03897">
        <ele>85.21</ele>
        <time>2015-09-27T14:46:59Z</time>
      </trkpt>
      <trkpt lat="48.70811" lon="2.03885">
        <ele>85.21</ele>
        <time>2015-09-27T14:47:11Z</time>
      </trkpt>
      <trkpt lat="48.70811" lon="2.03885">
        <ele>85.21</ele>
        <time>2015-09-27T14:47:32Z</time>
      </trkpt>
      <trkpt lat="48.70809" lon="2.03885">
        <ele>85.21</ele>
        <time>2015-09-27T14:47:56Z</time>
      </trkpt>
      <trkpt lat="48.70809" lon="2.03884">
        <ele>85.69</ele>
        <time>2015-09-27T14:48:13Z</time>
      </trkpt>
    </trkseg>
  </trk>
</gpx>